Aviation Digital Data Service (ADDS)

Output produced by METARs form (0058 UTC 25 August 2016)
found at http://aviationweather.gov/adds/metars/
 
K04V 250056Z AUTO 01017G24KT 4SM VCTS SCT031 BKN060 OVC080 13/08 A3035 RMK AO2 LTG DSNT N AND NE
K04W 250052Z AUTO 24005KT 10SM CLR 20/16 A2994 RMK AO2
K06D 250035Z AUTO 26009KT 10SM OVC060 15/13 A2990 RMK AO2
K08D 250055Z AUTO 31014G21KT 10SM SCT013 BKN019 OVC027 13/13 A3005 RMK AO2
K0A9 250035Z AUTO 00000KT 10SM CLR 22/20 A3022 RMK AO2
K0CO 250102Z AUTO 33011G15KT 10SM VCTS SCT002 SCT006 SCT034 00/M07 A3055 RMK AO2 LTG DSNT NE THRU S
K0E0 250035Z AUTO 03007KT 10SM SCT080 20/10 A3022 RMK AO2 LTG DSNT E AND SW T01970096
K0F2 250035Z AUTO 15009KT 10SM CLR 31/20 A3000 RMK AO2 T03070203
K0J4 242358Z AUTO 00000KT 10SM CLR 28/24 A3013 RMK AO2 SLP198 T02780239 10339 20278 55003
K0R0 250035Z AUTO 00000KT 10SM CLR 27/25 A3013 RMK AO2
K0S9 250055Z AUTO 29005KT 10SM CLR 28/09 A3015 RMK AO2
K0V4 250035Z AUTO 14003KT 10SM BKN060 24/22 A3020 RMK AO1 T02350223
K0VG 250030Z AUTO 00000KT 10SM SCT041 25/23 A3022 RMK AO2
K11R 250035Z AUTO 14003KT 10SM CLR 32/24 A3004 RMK AO2 T03160235
K12N 250054Z AUTO 00000KT 19/18 A3019 RMK AO1 SLP217 T01940178
K14Y 250054Z AUTO 22005KT 10SM CLR 20/12 A3000 RMK AO2
K18A 250055Z AUTO 00000KT 10SM CLR 23/22 A3022 RMK AO2 T02260220
K1A5 250040Z AUTO 00000KT 10SM BKN039 23/20 A3026 RMK AO2 T02270195
K1A6 250035Z AUTO 28003KT 10SM CLR 25/23 A3019 RMK AO2 T02530227
K1A9 250055Z AUTO 00000KT 10SM CLR 28/23 A3011 RMK AO2 T02820233
K1B7 242130Z 06008KT 10SM CLR BLW120 33/27 A3010 RMK LAST
K1F0 250035Z AUTO 18008KT 10SM CLR 31/18 A3000 RMK AO2
K1H2 250035Z AUTO 00000KT 7SM SCT030 SCT040 SCT055 27/27 A3003 RMK AO2 LTG DSNT NE AND E T02650265
K1J0 242358Z AUTO 00000KT 10SM CLR 27/24 A3011 RMK AO2 SLP153 60008 T02720244 10339 20272 55004
K1K1 250055Z AUTO 03003KT 10SM BKN075 BKN080 BKN120 23/20 A2998 RMK AO2 T02280204
K1L0 250035Z AUTO 11005KT 10SM CLR 29/25 A3008 RMK AO2 LTG DSNT N AND NW T02910251
K1M4 250056Z AUTO 00000KT 10SM CLR 26/24 A3017 RMK AO2 SLP221 T02610244
K1M5 250035Z AUTO 17003KT 10SM CLR 27/24 A3013 RMK A01
K1P1 250055Z AUTO 00000KT 10SM CLR 19/18 A3014 RMK AO2 T01870177
K1R7 250055Z AUTO 00000KT 10SM FEW044 A3013 RMK AO2 LTG DSNT SW
K1S5 250055Z AUTO 35005KT 10SM CLR 29/07 A3010 RMK AO2 T02920065
K1V4 250054Z AUTO 21/17 A3010 RMK AO1 SLP185 T02060167
K1YT 250031Z AUTO 09015G21KT 10SM M 30/02 A3012 RMK AO2 WSHFT 22 $
K20U 250035Z AUTO 30018G27KT 10SM SCT043 OVC050 15/05 A3018 RMK AO2
K20V 250055Z AUTO 08007KT 10SM SCT095 15/07 A3026 RMK AO2 LTG DSNT SE AND S
K21D 250053Z AUTO 28005KT 10SM CLR 20/15 A2997 RMK AO2
K22N 250055Z AUTO 00000KT 10SM CLR 19/17 A3018 RMK AO2
K24J 250055Z AUTO 07006KT CLR 28/22 A3016 RMK AO1
K28J 250035Z AUTO 05009KT 10SM SCT025 SCT029 SCT050 27/27 A3014 RMK AO2 TSNO
K2C8 250035Z AUTO 25009G14KT 10SM CLR 20/11 A2985 RMK AO2
K2G4 250040Z AUTO 23004KT 10SM CLR 20/16 A3025 RMK AO1
K2G9 250035Z AUTO 15007KT 10SM CLR 21/16 A3021 RMK AO2
K2I0 250035Z AUTO 20006KT 10SM CLR 30/23 A3008 RMK AO2 T02970234
K2J9 250035Z AUTO CLR 27/23 A3014 RMK AO1
K2V5 250055Z AUTO 13010G16KT 10SM CLR 21/01 A3016 RMK AO2
K2W6 250043Z AUTO 14003KT 10SM CLR 22/15 A3022 RMK AO1
K2WX 242356Z AUTO 33024KT 21/06 A3007 RMK AO1 PK WND 32032/2332 SLP175 T02110056 10233 20200 51002
K33V 250055Z AUTO 08009KT 10SM CLR 12/05 A3030 RMK AO2
K36U 250055Z AUTO 31011G15KT 10SM CLR 22/M05 A3013 RMK AO2
K3AU 250035Z AUTO 36006KT 10SM SCT070 BKN090 23/20 A2997 RMK AO2
K3D2 250035Z AUTO 00000KT 10SM CLR 22/21 A2987 RMK AO2 T02200210
K3J7 250035Z AUTO 00000KT 10SM CLR 25/24 A3017 RMK AO2
K3K3 250035Z AUTO 04017G21KT 10SM CLR 23/12 A3007 RMK AO2
K3LF 250035Z AUTO 00000KT 10SM CLR 28/20 A3001 RMK AO2 T02760203
K3N8 250035Z AUTO 26009KT 10SM SCT065 20/11 A2994 RMK AO2 T02000110
K3R7 250034Z AUTO 00000KT 10SM CLR 26/24 A3008 RMK AO2 LTG DSNT N
K3T5 250035Z AUTO 16004KT 10SM CLR 31/24 A3001 RMK AO2 T03110243
K40B 250016Z AUTO 00000KT 19/15 A3005 RMK AO1 SLP165 T01930154 10259 20191 54000
K40J 250055Z AUTO 00000KT 10SM CLR 29/21 A3013 RMK AO2 T02870212
K42J 250055Z AUTO 07006KT 10SM CLR 26/22 A3015 RMK AO1 TSNO
K46D 250055Z AUTO 28009KT 10SM BKN075 18/11 A2998 RMK AO2
K46U 250020Z AUTO 32012G20KT 5SM HZ CLR 21/M05 A3017 RMK A01
K49A 250035Z AUTO 10003KT 10SM CLR A3025 RMK AO2 LTG DSNT N
K4A6 250035Z AUTO 00000KT 10SM CLR 28/24 A3015 RMK AO2
K4A7 250035Z AUTO 00000KT 5SM BR CLR 25/25 A3020 RMK AO2 T02450245
K4A9 250035Z AUTO 13005KT 10SM CLR 28/20 A3016 RMK AO2
K4BM 250056Z AUTO 08005KT M1/4SM -TSRA OVC001 05/04 A3054 RMK AO2 LTG DSNT N S AND SW
K4I3 250056Z AUTO 17008KT 10SM CLR 24/22 A3010 RMK AO2
K4I7 250055Z AUTO 00000KT 10SM SCT043 OVC050 26/26 A3005 RMK AO2
K4M9 250035Z AUTO 19008KT 10SM 28/25 A3006 RMK AO2 PWINO PNO
K4MR 242358Z AUTO 19012G23KT 10SM FEW100 28/10 A3007 RMK AO2 RAB07E10SHRAB10E22 SLP124 T02770095 10296 20253 56012 $
K4O4 250055Z AUTO 15005KT 10SM CLR 28/21 A3006 RMK AO2
K4V0 250055Z AUTO 11008KT 10SM SCT110 24/03 A3007 RMK AO2 T02420030
K54J 250035Z AUTO 29003KT 10SM CLR 25/22 A3013 RMK AO2 T02530217
K5A6 250035Z AUTO 00000KT 10SM CLR 29/26 A3010 RMK AO2 T02860264
K5C1 250035Z AUTO 14005KT 10SM CLR 28/20 A3006 RMK AO1
K5H4 250035Z AUTO 27015G23KT 10SM FEW048 OVC075 19/09 A2997 RMK AO2 P0033 PWINO PNO
K5M9 250055Z AUTO 19003KT 10SM CLR 27/25 A3008 RMK AO2 T02720251
K5R8 250035Z AUTO 17004KT 10SM CLR 30/24 A3007 RMK AO2 LTG DSNT NE T02990241
K5SM 250052Z AUTO 00000KT 10SM CLR 11/01 A3049 RMK AO2 TSNO
K5T9 250035Z AUTO 12008G13KT 10SM CLR 32/16 A2994 RMK A01
K65S 250035Z AUTO 34007KT 10SM 23/05 A3023 RMK AO2
K66R 250035Z AUTO 16003KT 10SM CLR 30/23 A3002 RMK AO2 T03000232
K6A1 250035Z AUTO 00000KT 10SM 28/26 A3017 RMK AO2 T02840260
K6A2 250035Z AUTO 00000KT 10SM CLR 26/25 A3020 RMK AO2
K6B0 250035Z AUTO 17004KT 10SM CLR 23/15 A3012 RMK AO2 T02300153
K6I2 250025Z AUTO 15005KT 10SM CLR 27/23 A3014 RMK AO2
K6L4 250055Z AUTO 00000KT 10SM CLR 25/21 A3019 RMK AO2
K6R3 250035Z AUTO 17004KT 10SM OVC002 29/23 A3007 RMK AO2 T02850231
K6R6 242353Z AUTO 12010KT 31/18 A3000 RMK AO1 SLP122 T03060183 10339 20289 55008
K79J 250056Z AUTO 00000KT 10SM CLR 29/24 A3013 RMK AO2 SLP197 T02890239
K7BM 250055Z AUTO 00000KT 10SM VCTS SCT010 BKN015 11/08 A3044 RMK AO2 LTG DSNT NE THRU SE
K7L2 250035Z AUTO 31012KT 10SM CLR 20/11 A3005 RMK AO2
K7N0 250056Z AUTO 08004KT 10SM CLR 29/24 A3009 RMK AO2 RAE06 SLP189 T02890239 PNO $
K7R3 241940Z 15003KT 10SM BKN039 33/24 A3010
K7W4 250055Z AUTO 00000KT 10SM CLR 22/20 A3020 RMK AO1 T02180200
K7W6 250040Z AUTO 01003KT 10SM SCT032 BKN055 BKN065 23/22 A3020 RMK AO2 T02310215
K82C 250035Z AUTO 00000KT 10SM CLR 23/22 A2993 RMK AO2 T02330215
K82V 250055Z AUTO 21009KT 10SM SCT070 SCT090 18/08 A3024 RMK AO2
K8A0 250035Z AUTO 00000KT 10SM CLR 29/25 A3016 RMK AO2
K8D3 242356Z AUTO 30010KT 24/12 A2997 RMK AO1 SLP136 T02390122 10244 20228 50001
K8W2 250055Z AUTO 00000KT 10SM CLR A3016 RMK AO1
K96D 250035Z AUTO 26007G14KT 10SM CLR 19/17 A2985 RMK AO2
K9A5 250035Z AUTO 20003KT 10SM SCT041 SCT060 SCT095 29/20 A3018 RMK AO2 T02920200
K9D7 250015Z AUTO 27009KT 10SM FEW049 BKN095 19/11 A2992 RMK AO2
K9L2 242356Z AUTO 28017G21KT 10SM CLR 37/02 A2992 RMK AO2 SLP107 T03720022 10389 20322 56019 $
K9MN 250054Z AUTO 27007KT 220V310 10SM CLR 22/17 A2999 RMK AO1 T02210170
K9V9 250035Z AUTO 21005KT 10SM CLR 21/15 A3007 RMK AO2 T02100149
KA08 250035Z AUTO 17004KT 10SM CLR 30/24 A3011 RMK AO2 T02950241
KAAA 250035Z AUTO 00000KT 10SM CLR 29/25 A2999 RMK AO2 T02850251
KAAF 250053Z AUTO 01003KT 10SM FEW046 SCT070 BKN085 28/26 A3010 RMK AO2 SLP193 T02780256
KAAO 250054Z AUTO 03006KT 10SM FEW080 24/21 A2998 RMK AO2 SLP139 T02390211
KAAT 250055Z AUTO 33011KT 10SM CLR 29/M10 A3010 RMK AO2 SLP161 T02891100
KABE 250051Z 19007KT 10SM CLR 26/16 A3017 RMK AO2 SLP215 T02560161
KABI 250052Z 16012KT 10SM CLR 30/19 A3001 RMK AO2 SLP135 T03000189
KABQ 250052Z VRB06KT 10SM FEW070 SCT110 SCT220 24/08 A3016 RMK AO2 SLP145 T02390083
KABR 250053Z AUTO 28005KT 10SM CLR 21/12 A2999 RMK AO2 SLP153 T02110117
KABY 250053Z 08003KT 10SM CLR 29/21 A3016 RMK AO2 SLP210 T02890206
KACB 250054Z AUTO 21003KT 10SM BKN026 BKN034 OVC055 25/20 A2989 RMK AO2 T02470201
KACJ 250035Z AUTO 10003KT 10SM CLR 26/19 A3017 RMK AO2
KACK 250053Z 21006KT 10SM CLR 21/19 A3021 RMK AO2 SLP231 T02110194
KACP 250035Z AUTO 21003KT 10SM VCTS SCT043 SCT050 BKN110 27/26 A3009 RMK AO2 LTG DSNT ALQS T02680257
KACQ 250054Z AUTO 22003KT 10SM CLR 18/16 A3002 RMK AO2
KACT 250051Z 17007KT 10SM CLR 31/22 A3003 RMK AO2 SLP159 T03060217
KACV 250053Z AUTO 29004KT 1/2SM R32/1600V6000FT FG OVC002 11/11 A3005 RMK AO2 VIS M1/4V4 SLP181 T01060106
KACY 250054Z 18005KT 10SM CLR 22/16 A3021 RMK AO2 SLP229 T02220161
KADC 250039Z AUTO 27007KT 10SM CLR 19/13 A2996 RMK AO2
KADF 250056Z AUTO 00000KT 10SM CLR 29/27 A3007 RMK AO2 SLP184 T02890267
KADG 250053Z AUTO 23005KT 10SM FEW021 BKN075 OVC110 24/23 A2999 RMK AO2 LTG DSNT S RAB20E35 SLP153 P0000 T02390228
KADH 250035Z AUTO 17011KT 10SM CLR 31/19 A3001 RMK AO2
KADM 250055Z 17006KT 10SM SKC 30/21 A2999
KADS 250047Z AUTO 15010G20KT 13SM SCT200 31/20 A3002
KADU 250055Z AUTO 32005KT 10SM SCT075 BKN085 BKN110 21/18 A3004 RMK AO2
KADW 242358Z AUTO 13008KT 10SM CLR 24/18 A3017 RMK AO2 SLP222 T02410184 10294 20241 55005
KAEG 250047Z 32010KT 10SM FEW060 BKN110 22/08 A3020 RMK SHRA DSNT N
KAEJ 250055Z AUTO 13005KT 10SM VCTS BKN060 14/08 A3034 RMK AO2 LTG DSNT NE THRU SE T01370082
KAEL 250054Z AUTO 30004KT 10SM CLR 21/16 A3001 RMK AO2
KAEX 250053Z 30003KT 10SM FEW120 26/25 A3007 RMK AO2 SLP185 T02610250
KAFF 242358Z AUTO 24004KT 10SM FEW120 14/10 A3028 RMK AO2 RAE18DZB18E23 SLP195 P0001 60014 T01430095 10177 20127 55007
KAFJ 250055Z AUTO 20003KT 10SM CLR 22/18 A3014 RMK AO1
KAFK 250035Z AUTO 01004KT 10SM OVC100 21/21 A3003 RMK AO2 T02100210
KAFN 250052Z AUTO 18003KT 10SM CLR 20/17 A3019 RMK AO2 SLP225 T02000167
KAFO 250055Z AUTO 31008KT 10SM CLR 19/M02 A3018 RMK AO2 TSNO
KAFP 250040Z AUTO 00000KT 10SM CLR 25/18 A3018 RMK AO2 T02480179
KAFW 250053Z 16011KT 10SM FEW300 31/21 A3000 RMK AO2 SLP143 T03060206
KAGC 250053Z 19005KT 10SM CLR 26/17 A3012 RMK AO2 SLP197 T02560167
KAGS 250053Z 00000KT 10SM FEW065 25/21 A3016 RMK AO2 SLP211 T02500211
KAHN 250051Z AUTO 00000KT 10SM CLR 24/23 A3021 RMK AO2 SLP222 T02390228
KAHQ 250035Z AUTO 34006KT 10SM CLR 20/17 A3005 RMK AO2 T01950169
KAIA 250053Z AUTO 16004KT 10SM BKN100 19/08 A3018 RMK AO2 SLP198 T01940083
KAIB 250035Z AUTO 00000KT 10SM SCT110 23/04 A3019 RMK AO2 LTG DSNT NE
KAID 241949Z 19005KT 10SM BKN035 OVC065 27/23 A3008
KAIG 250035Z AUTO 27003KT 10SM BKN031 21/19 A2993 RMK AO2 T02100187
KAIK 250035Z AUTO 17003KT 10SM SCT065 26/21 A3022 RMK AO2
KAIO 250055Z AUTO 03004KT 10SM BKN120 21/18 A3002 RMK AO2
KAIT 250053Z AUTO 22003KT 10SM CLR 21/12 A2994 RMK AO2
KAIZ 250056Z AUTO 17003KT 10SM CLR 29/24 A2999 RMK AO2 SLP162 T02890244
KAJG 250055Z AUTO 21005KT 10SM CLR 27/24 A3004 RMK AO2 T02740236
KAJO 250056Z AUTO 28011G16KT 10SM CLR 29/17 A2990 RMK AO2 SLP131 T02940167 $
KAJR 250055Z AUTO 00000KT 10SM CLR 23/23 A3025 RMK AO2 T02270227
KAJZ 242255Z AUTO 14003KT 10SM CLR 29/01 A3011 RMK AO2 LTG DSNT E T02850007
KAKH 250054Z AUTO 00000KT 10SM CLR 24/21 A3020 RMK AO2 SLP221 T02440206
KAKO 250053Z AUTO 12009KT 10SM -RA BKN075 OVC095 19/02 A3022 RMK AO2 RAB52 SLP188 P0000 T01940017
KAKQ 250054Z AUTO 00000KT 10SM CLR 21/16 A3021 RMK AO2 SLP229 T02060161 TSNO
KAKR 250054Z AUTO 20011KT 10SM CLR 27/19 A3007 RMK AO2 SLP175 T02720194
KALB 250051Z 17007KT 10SM FEW200 SCT260 26/16 A3012 RMK AO2 SLP197 T02560161
KALI 250053Z AUTO 14011KT 10SM CLR 29/22 A2998 RMK AO2 SLP148 T02940217 TSNO $
KALM 250055Z AUTO 24005KT 10SM SCT100 30/06 A3004 RMK AO2
KALN 242346Z 24005KT 10SM SCT047 BKN200 31/23 A3000
KALO 250054Z 29004KT 10SM CLR 23/21 A2998 RMK AO2 SLP146 T02330206
KALS 250052Z AUTO 11010KT 10SM FEW085 OVC120 14/08 A3030 RMK AO2 SLP206 T01390083
KALW 250053Z 03009G20KT 10SM CLR 31/01 A3008 RMK AO2 SLP180 T03060006
KALX 250035Z AUTO 00000KT 10SM CLR 29/28 A3016 RMK AO2 T02870282
KAMA 250053Z 18013KT 10SM CLR 25/17 A3005 RMK AO2 SLP126 T02500167
KAMG 250053Z AUTO 11004KT 10SM CLR 27/21 A3017 RMK AO2 SLP213 T02670206
KAMN 250054Z AUTO 23006G14KT 10SM SCT026 BKN042 25/23 A2994 RMK AO2 T02490227
KAMW 250053Z AUTO 36008KT 10SM CLR 23/21 A3000 RMK AO2 SLP150 T02330206
KANB 250053Z AUTO 06004KT 10SM FEW060 28/22 A3017 RMK AO2 TSB2354E33 SLP205 T02830217
KAND 242356Z AUTO 00000KT 10SM CLR 27/21 A3020 RMK AO2 SLP217 T02670211 10283 20250 56009
KANE 242250Z 27009KT 10SM OVC250 24/14 A2996
KANJ 250055Z AUTO 24008KT 10SM FEW009 BKN013 OVC042 21/20 A2983 RMK AO2 SLP096 T02110200
KANK 250055Z AUTO 11003KT 10SM SCT070 SCT080 SCT120 15/10 A3038 RMK AO1 T01490097
KANQ 250055Z AUTO 24004KT 10SM FEW028 24/20 A2998 RMK
KANW 250035Z AUTO 12004KT 10SM CLR 19/14 A3014 RMK AO2 T01890140
KAOH 250053Z AUTO 20008KT 10SM SCT120 25/23 A3000 RMK AO2 SLP153 T02500233
KAOO 250053Z AUTO 22005KT 10SM CLR 23/18 A3018 RMK AO2 SLP211 T02330183
KAPA 250053Z 17007KT 10SM FEW090 BKN120 BKN220 16/08 A3025 RMK AO2 SLP196 OCNL LTGICCG DSNT NW CB DSNT NW MOV SE T01610083
KAPC 250054Z 19011KT 10SM CLR 21/13 A2996 RMK AO2 SLP135 T02110133
KAPF 250053Z 07004KT 10SM FEW090 26/24 A3001 RMK AO2 RAE33 SLP162 P0000 T02610244
KAPG 242353Z 00000KT 7SM BKN200 24/19 A3017 RMK LAST
KAPN 250054Z AUTO 18005KT 10SM CLR 24/20 A2987 RMK AO2 SLP113 T02440200
KAPY 250035Z AUTO 12010G17KT 10SM CLR 35/15 A2991 RMK AO2 T03470149
KAQO 250035Z AUTO 16004KT 10SM CLR 31/21 A3005 RMK AO2
KAQP 250055Z AUTO 24004KT 10SM CLR 21/14 A2999 RMK AO2
KAQR 250035Z AUTO 15005KT 10SM CLR 31/18 A3002 RMK AO2
KAQV 250016Z AUTO 00000KT 10SM CLR 32/23 A3007 RMK AO2 TSE10 T03220233
KAQW 250052Z AUTO VRB03KT 10SM CLR 18/16 A3016 RMK AO2 SLP211 T01830156
KAQX 250055Z AUTO 00000KT 10SM CLR 26/19 A3016 RMK AO2
KARA 250053Z VRB04KT 10SM VCTS FEW021 BKN039 OVC045 29/25 A3009 RMK AO2 LTG DSNT N SLP188 T02940250
KARB 250053Z AUTO 19007KT 10SM FEW019 FEW024 BKN120 24/23 A2997 RMK AO2 RAE12 SLP144 P0000 T02440233
KARG 250055Z AUTO 18007KT 10SM CLR 28/24 A3005 RMK AO1
KARM 250035Z AUTO 15005KT 10SM CLR 29/24 A3004 RMK AO2 T02880236
KARR 250052Z 22005KT 10SM CLR 26/22 A2997 RMK AO2 SLP142 T02610222
KART 242356Z AUTO 15004KT 10SM CLR 24/17 A3003 RMK AO2 SLP164 T02440167 10289 20244 56016
KARV 250030Z AUTO 00000KT 10SM CLR 22/20 A2992 RMK AO2 T02220200
KARW 250055Z AUTO 00000KT 7SM CLR 26/19 A3017 RMK AO2
KASD 250053Z AUTO 04003KT 10SM CLR 25/24 A3009 RMK AO2 SLP188 T02500244
KASE 250053Z 15003KT 10SM CLR 17/03 A3028 RMK AO2 SLP155 T01720028
KASG 250048Z 16007G12KT 10SM SKC 29/21 A3007
KASH 250056Z AUTO 00000KT 10SM CLR 24/17 A3016 RMK AO2 SLP220 T02440172
KASJ 250040Z AUTO 00000KT 10SM CLR 21/20 A3021 RMK AO2 T02110196
KASL 250035Z AUTO 00000KT 10SM CLR 30/24 A3008 RMK AO1 T02950244
KASN 250035Z AUTO 07006KT 10SM SCT050 29/23 A3015 RMK AO2 T02900230
KAST 250055Z AUTO 32013KT 10SM CLR 26/13 A3009 RMK AO2 SLP188 T02610133
KASW 250055Z AUTO 00000KT 5SM BR CLR 23/23 A2999 RMK AO2
KASX 250053Z AUTO 23006KT 10SM CLR 21/14 A2988 RMK AO2 SLP116 T02060144
KATL 250052Z 10005KT 10SM FEW200 BKN250 26/23 A3020 RMK AO2 SLP216 T02560233 $
KATP 250035Z AUTO 07010KT 10SM FEW026 30/24 A3008 RMK A01
KATS 250055Z AUTO 15016KT 10SM CLR 24/18 A3004 RMK AO2
KATT 250051Z AUTO 15003KT 10SM CLR 31/22 A3003 RMK AO2 SLP156 T03060217
KATW 250045Z 23003KT 10SM SCT029 BKN120 23/19 A2991
KATY 250053Z AUTO 31003KT 10SM CLR 20/14 A3001 RMK AO2 SLP159 T02000139
KAUG 250053Z AUTO 18006KT 10SM CLR 21/16 A3013 RMK AO2 SLP202 T02110156
KAUH 250035Z AUTO 03005KT 10SM OVC110 21/13 A3010 RMK AO2 T02080133
KAUM 250056Z AUTO 30006KT 10SM CLR 21/14 A3000 RMK AO2
KAUN 250035Z AUTO 25005KT 10SM CLR 31/07 A2999 RMK AO1
KAUS 250053Z 13005KT 10SM SCT055 SCT200 31/23 A3001 RMK AO2 SLP152 T03060233
KAUW 250054Z AUTO 26004KT 10SM CLR 22/19 A2992 RMK AO2 SLP129 T02170189
KAVC 250056Z AUTO 00000KT 10SM CLR 20/19 A3027 RMK AO2 T01980187
KAVL 250054Z 16004KT 10SM FEW050 23/19 A3028 RMK AO2 SLP230 T02280194
KAVP 250054Z 17006KT 10SM CLR 24/17 A3016 RMK AO2 SLP205 T02390167
KAVQ 250055Z AUTO 32007KT 10SM CLR 35/04 A2993 RMK AO2 T03500044
KAVX 250051Z AUTO 24009KT 10SM CLR 20/16 A2998 RMK AO2 SLP133 T02000156 TSNO $
KAWG 250055Z AUTO 17004KT 10SM SCT031 BKN038 25/24 A2995 RMK AO2
KAWM 250053Z AUTO 19003KT 10SM CLR 28/23 A3007 RMK AO2 SLP178 T02780233
KAWO 250055Z AUTO 32007KT 10SM CLR 28/11 A3014 RMK AO1
KAXA 250055Z AUTO 29003KT 10SM CLR 21/19 A3004 RMK AO2
KAXH 250035Z AUTO 12004KT 10SM CLR 28/25 A3006 RMK AO2 T02810252
KAXN 250053Z AUTO 28006KT 10SM CLR 20/13 A3000 RMK AO2 SLP155 T02000128
KAXS 250035Z AUTO 16014G26KT 7SM -VCTSRA SCT005 SCT060 28/19 A2998 RMK AO2 LTG DSNT E THRU SW T02830193
KAXV 250052Z AUTO 18010G15KT 10SM SCT060 BKN075 BKN095 26/25 A3001 RMK AO2
KAXX 250035Z AUTO 00000KT 10SM -RA SCT009 BKN050 OVC070 10/08 A3039 RMK AO2 T00970080
KAYS 250035Z AUTO 11006KT 10SM 29/23 A3016 RMK AO2 T02890234
KAZC 250035Z AUTO 30016G20KT 10SM CLR 31/00 A3011 RMK AO2
KAZE 250035Z AUTO 00000KT 10SM CLR 29/23 A3015 RMK AO2 T02860225
KAZO 250053Z 22004KT 10SM SCT029 BKN037 25/22 A2996 RMK AO2 RAB2354E12 SLP139 P0000 T02500222
KBAB 242358Z 19006KT 10SM CLR 32/13 A2989 RMK AO2A SLP124 T03190127 10321 20250 57026 $
KBAC 250055Z AUTO 27006KT 10SM BKN065 19/11 A2999 RMK AO2
KBAD 242358Z AUTO 18007KT 10SM CLR 33/22 A3006 RMK AO2 VIS 2 RWY33 SLP180 T03260219 10343 20324 56007
KBAF 250053Z 19004KT 10SM CLR 22/17 A3016 RMK AO2 SLP212 T02170167
KBAK 242345Z 19008KT 10SM SCT050 SCT060 SCT070 25/23 A3005
KBAN 250052Z AUTO 25009G20KT 10SM 24/M13 A3026 RMK AO2 SLP162 T02441128 $
KBAX 250055Z AUTO 18004KT 7SM CLR 22/21 A2995 RMK AO2 T02190211
KBAZ 250051Z AUTO 14008KT 10SM CLR 30/21 A3001 RMK AO2 SLP152 T03000206
KBBB 250054Z AUTO 25003KT 10SM CLR 21/14 A3000 RMK AO2
KBBF 250035Z AUTO 15010KT 10SM FEW022 31/25 A3001 RMK A01
KBBG 242345Z 17004KT 10SM SKC 30/22 A3007
KBBP 250055Z AUTO 09004KT 10SM CLR 26/19 A3018 RMK AO2
KBBW 250053Z AUTO 13006KT 10SM FEW120 21/10 A3011 RMK AO2 SLP185 T02060100 PWINO $
KBCB 250035Z AUTO 00000KT 4SM HZ CLR 23/20 A3029 RMK AO2 T02310201 TSNO
KBCE 250053Z AUTO 30005KT 10SM CLR 20/02 A3028 RMK AO2 RAE2357 SLP155 P0000 T02000017
KBCK 250035Z AUTO 00000KT 10SM CLR 22/20 A2994 RMK AO2 P0001 T02220195
KBCT 242347Z 34006KT 10SM SCT021 BKN027 28/26 A3002
KBDE 250053Z AUTO 25005KT 10SM FEW080 19/11 A2987 RMK AO2 SLP115 T01890106 TSNO
KBDG 250035Z AUTO 27006G22KT 10SM SCT001 21/04 A3026 RMK AO1 T02070042
KBDH 250055Z AUTO 28003KT 10SM CLR 21/16 A3001 RMK AO2
KBDL 250051Z 17007KT 10SM CLR 24/16 A3017 RMK AO2 SLP215 T02390156
KBDR 250052Z 20009KT 10SM CLR 25/18 A3018 RMK AO2 SLP221 T02500178
KBDU 250056Z AUTO 00000KT 10SM VCTS SCT020 SCT033 OVC100 16/12 A3022 RMK AO2 LTG DSNT S THRU NW
KBEA 250055Z AUTO 13006KT 10SM CLR 29/24 A3000 RMK AO2 T02930235
KBED 242356Z 22005KT 10SM CLR 24/14 A3014 RMK AO2 SLP218 T02440144 10311 20244 53003
KBEH 250053Z AUTO 25005KT 10SM CLR 24/21 A2995 RMK AO2 SLP139 T02390211
KBFD 250053Z AUTO 00000KT 10SM CLR 21/16 A3016 RMK AO2 SLP202 T02110161
KBFF 250053Z AUTO 11009KT 10SM CLR 19/07 A3017 RMK AO2 SLP185 T01940067
KBFI 250053Z 31008KT 10SM FEW250 27/12 A3012 RMK AO2 SLP197 T02670122 $
KBFL 250054Z 29008KT 10SM CLR 36/07 A2989 RMK AO2 SLP113 T03560067
KBFM 250053Z 08006KT 10SM BKN027 29/27 A3012 RMK AO2 LTG DSNT S AND SW SLP198 T02940267
KBFW 250054Z AUTO 00000KT 10SM CLR 21/16 A2985 RMK AO2
KBGD 250051Z AUTO 16017G22KT 10SM CLR 28/13 A3000 RMK AO2 SLP117 T02830133
KBGE 250035Z AUTO 00000KT 10SM CLR 28/22 A3012 RMK AO2
KBGF 250055Z AUTO 00000KT 10SM CLR 26/23 A3017 RMK
KBGM 250053Z 19005KT 10SM CLR 21/14 A3017 RMK AO2 SLP206 T02110144
KBGR 250053Z 19008KT 10SM SCT250 22/15 A3012 RMK AO2 SLP195 T02170150
KBHB 250056Z AUTO 20005KT 10SM CLR 18/16 A3014 RMK AO2 SLP210 T01780161
KBHC 250035Z AUTO 12005KT 10SM CLR 27/23 A3016 RMK AO2 PNO
KBHK 250051Z AUTO 31021G27KT 10SM OVC050 15/06 A3019 RMK AO2 PK WND 31028/2352 SLP219 T01500056
KBHM 250053Z 00000KT 10SM FEW250 29/23 A3016 RMK AO2 SLP203 T02940233
KBID 250056Z AUTO 22009KT 10SM CLR 22/19 A3021 RMK AO2 SLP233 T02220189
KBIE 250035Z AUTO 06006KT 10SM BKN120 20/17 A3003 RMK AO2 T01950170
KBIF 242358Z AUTO 24004KT 9SM FEW100 30/07 A3001 RMK AO2 SLP099 T03020067 10317 20276 57020
KBIH 242356Z AUTO VRB05KT 10SM CLR 36/M04 A2999 RMK AO2 SLP105 T03561039 10361 20300 56024
KBIJ 250035Z AUTO 00000KT 10SM CLR 28/23 A3013 RMK AO2
KBIL 250053Z 03014KT 10SM FEW070 SCT085 17/04 A3029 RMK AO2 SLP247 SHRA DSNT S-W T01720044
KBIS 250052Z 29018G24KT 10SM CLR 20/07 A3003 RMK AO2 PK WND 29029/0021 SLP168 T02000072
KBIV 250053Z AUTO 24004KT 10SM CLR 23/21 A2995 RMK AO2 SLP138 T02280211
KBIX 242358Z AUTO 03002KT 10SM SCT220 26/25 A3008 RMK AO2 SLP189 60011 T02630253 10337 20255 58007
KBJC 250045Z 09008KT 15SM SCT060 BKN120 18/10 A3024 RMK OCNL LTGCCCG DSNT SW-NW
KBJI 250052Z AUTO 25006KT 10SM BKN060 19/12 A2992 RMK AO2 T01910118
KBJJ 242356Z AUTO 20008KT 10SM CLR 25/20 A3009 RMK AO2 SLP184 T02500200 10278 20250 58005
KBKB 250054Z AUTO 00000KT 10SM TS BKN110 28/23 A3006 RMK AO2 TSE23B32 SLP204 T02830228 $
KBKD 250030Z AUTO 15008KT 10SM CLR 33/18 A2998 RMK AO2 T03250176
KBKE 250053Z AUTO 31014KT 10SM CLR 24/02 A3014 RMK AO2 SLP197 T02390022 TSNO
KBKF 242358Z 18008KT 10SM FEW070 SCT120 BKN220 18/09 A3023 RMK AO2A SLP178 60003 T01830085 10183 20141 55015
KBKL 250053Z 18013G25KT 10SM FEW049 FEW060 BKN120 28/19 A3002 RMK AO2 SLP159 T02830189
KBKS 250035Z AUTO 10011G21KT 10SM CLR 31/22 A2996 RMK AO1 T03060222
KBKV 250053Z AUTO 06007KT 10SM CLR 27/22 A3011 RMK AO2 SLP193 T02720222
KBKW 250051Z AUTO 16004KT 10SM CLR 22/19 A3027 RMK AO2 SLP217 T02170189
KBKX 250056Z AUTO 20008KT 10SM CLR 20/15 A3005 RMK AO2 SLP186 T02000150
KBLF 250052Z AUTO 21004KT 10SM CLR 22/18 A3030 RMK AO2 SLP226 T02170178
KBLH 250052Z AUTO 23011KT 10SM CLR 42/08 A2977 RMK AO2 PK WND 22027/0000 SLP072 T04170078
KBLI 250053Z 26003KT 10SM CLR 25/13 A3014 RMK AO2 SLP212 T02500133
KBLM 250056Z AUTO 16004KT 10SM CLR 23/17 A3021 RMK AO2 SLP231 T02280172
KBLU 250052Z AUTO 19006KT 10SM CLR 24/M04 A3022 RMK AO2 SLP137 T02391039 TSNO
KBLV 242358Z COR 17007KT 10SM VCTS BKN060CB 31/25 A2999 RMK AO2 LTG DSNT SE-S SLP154 T03050246 10340 20305 55001 COR 0010
KBMC 250035Z AUTO 20004KT 10SM 26/M12 A3010 RMK AO1 T02611118
KBMG 250053Z 24008KT 6SM -TSRA SCT029 SCT075 26/23 A3006 RMK AO2 RAB02E21B44 TSB39 SLP171 P0003 T02610233
KBMI 250056Z 21003KT 10SM CLR 26/22 A3001 RMK AO2 SLPNO T02560222
KBML 250052Z AUTO 00000KT 10SM CLR 18/16 A3014 RMK AO2 SLP207 T01780156
KBMQ 250053Z AUTO 14005KT 10SM CLR 29/19 A3007 RMK AO2 SLP162 T02940194
KBMT 250035Z AUTO 17005KT 10SM CLR 30/24 A3007 RMK AO2 T02960241
KBNA 250053Z 00000KT 10SM BKN250 29/22 A3013 RMK AO2 SLP194 T02940222
KBNO 250053Z AUTO 34013G19KT 10SM CLR 25/M03 A3016 RMK AO2 SLP192 T02501028
KBNW 250055Z AUTO 35007KT 10SM FEW055 FEW070 SCT110 22/19 A3000 RMK AO2
KBOI 250053Z 28011KT 10SM CLR 27/M03 A3005 RMK AO2 SLP157 T02721033
KBOK 250056Z AUTO 15006KT 1SM -RA BR OVC003 11/11 A3004 RMK AO2 VIS 1/4V5 SLP190 P0000 T01110106
KBOS 250054Z 22010KT 10SM FEW220 26/16 A3016 RMK AO2 SLP212 T02610161
KBOW 250055Z AUTO 06005KT 10SM CLR 26/23 A3009 RMK AO2 LTG DSNT SE
KBPC 250035Z AUTO 01005KT 10SM CLR 23/16 A3001 RMK AO2
KBPG 250035Z AUTO 24005KT 10SM CLR 24/20 A3006 RMK AO2 T02360200
KBPI 250053Z AUTO 33015KT 10SM CLR 21/M12 A3019 RMK AO2 SLP159 T02111117
KBPK 250053Z AUTO 21006KT 10SM CLR 27/23 A3006 RMK AO2 SLP168 T02720228
KBPT 250053Z 18005KT 10SM CLR 27/24 A3005 RMK AO2 SLP176 T02720239
KBQK 250035Z AUTO 08004KT 10SM CLR 26/22 A3017 RMK AO2
KBQP 250035Z AUTO 12003KT 10SM CLR 29/25 A3010 RMK AO2 LTG DSNT E T02850253
KBQX 250035Z AUTO 12010KT 10SM CLR 31/25 A3005 RMK A01
KBRD 250053Z AUTO 25006KT 10SM CLR 21/13 A2996 RMK AO2 SLP143 T02060128
KBRL 250053Z AUTO 00000KT 2 1/2SM RA BR SCT055 BKN110 26/25 A2997 RMK AO2 VIS 1V5 RAB27 SLP142 P0002 T02560250
KBRO 250053Z 14014KT 10SM CLR 29/24 A3000 RMK AO2 SLP156 T02890239
KBTA 250035Z AUTO 01008KT 10SM OVC110 21/17 A3003 RMK AO2 T02100170
KBTL 250053Z 25003KT 10SM SCT023 BKN036 BKN048 23/23 A2997 RMK AO2 RAB36E49 SLP144 P0000 T02280228
KBTM 250053Z AUTO 36011KT 10SM BKN075 16/00 A3032 RMK AO2 SLP250 T01560000
KBTR 250053Z 04005KT 10SM CLR 28/25 A3008 RMK AO2 SLP184 T02830250
KBTV 250054Z 19010KT 10SM CLR 25/15 A3007 RMK AO2 SLP181 T02500150
KBUF 250054Z 19005KT 10SM SCT110 BKN160 BKN220 24/17 A3005 RMK AO2 SLP172 T02440167
KBUR 250053Z 17008KT 10SM CLR 27/12 A2992 RMK AO2 SLP117 T02670117
KBUU 250035Z AUTO 00000KT 10SM CLR 24/21 A2994 RMK AO2 T02410211
KBUY 250054Z AUTO 00000KT 10SM CLR 24/19 A3022 RMK AO2 SLP226 T02390189
KBVE 250051Z AUTO 09004KT 10SM CLR 30/26 A3008 RMK AO2 SLP185 T03000261
KBVI 250047Z 00000KT 10SM CLR 24/18 A3013 RMK LAST
KBVN 250035Z AUTO 04003KT 10SM CLR 20/14 A3010 RMK AO2 T02040135
KBVO 250053Z AUTO 20005KT 10SM CLR 31/18 A2996 RMK AO2 LTG DSNT W AND NW SLP132 T03110178
KBVS 250035Z AUTO 29012KT 8SM CLR 25/12 A3014 RMK A01
KBVU 250055Z AUTO 14010KT 10SM CLR 38/06 A2986 RMK AO2
KBVX 250055Z AUTO 14003KT 10SM CLR 29/24 A3007 RMK AO1
KBVY 250053Z 00000KT 10SM CLR 21/18 A3015 RMK AO2 SLP203 T02110178
KBWD 250055Z AUTO 14010KT 10SM CLR 30/19 A3002 RMK AO2
KBWG 250053Z AUTO 19006KT 10SM CLR 29/23 A3011 RMK AO2 SLP190 T02890228
KBWI 250054Z 18005KT 10SM FEW160 SCT250 24/18 A3019 RMK AO2 SLP220 T02390178
KBWP 250035Z AUTO 30008KT 10SM CLR 21/11 A2997 RMK AO1
KBWW 250055Z AUTO 32023G28KT 10SM FEW050 16/05 A3005 RMK AO2
KBXA 250055Z AUTO 11003KT 10SM CLR 26/24 A3012 RMK AO2 LTG DSNT NW T02630236 PWINO
KBXK 250035Z AUTO 22005KT 10SM CLR 38/09 A2986 RMK AO1
KBYG 250053Z AUTO 32012G19KT 10SM -RA OVC060 14/06 A3030 RMK AO2 RAB49 SLP236 P0000 T01440061
KBYH 242150Z 21011G20KT 10SM SCT041 34/24 A3007 RMK LAST
KBYL 250055Z AUTO 00000KT 10SM CLR 26/23 A3018 RMK AO1
KBYS 250055Z AUTO 24011G21KT 10SM CLR 36/00 A2991 RMK AO2 SLP071 WND DATA ESTMD T03591002 PWINO $
KBYY 250035Z AUTO 13005KT 10SM CLR 30/24 A3005 RMK AO2 T03000247
KBZN 242356Z 36013KT 10SM CLR 18/04 A3030 RMK AO2 SLP245 T01830039 10194 20156 55002
KC09 250035Z AUTO 00000KT 10SM CLR 25/23 A2996 RMK AO2 T02520225
KC29 250035Z AUTO 22003KT 5SM BKN019 OVC026 26/25 A2994 RMK AO1 P0008 T02560248
KC35 250035Z AUTO 31005G16KT 10SM SCT026 BKN032 BKN060 25/22 A2993 RMK AO2 T02520223
KC75 250035Z AUTO 19003KT 10SM CLR 25/22 A2997 RMK AO2 T02540215
KCAD 250055Z AUTO 22007KT 10SM SCT029 OVC036 23/20 A2993 RMK AO2 T02330201
KCAE 242356Z 12007KT 10SM SCT060 BKN200 29/18 A3017 RMK AO2 SLP211 T02940178 10328 20294 55003
KCAG 250053Z AUTO 30007KT 10SM SCT120 23/M04 A3013 RMK AO2 SLP146 T02281039
KCAK 250051Z 20010KT 10SM SCT150 BKN200 26/19 A3009 RMK AO2 SLP181 T02610189
KCAO 250055Z AUTO 31018G25KT 10SM FEW030 FEW043 BKN100 16/14 A3016 RMK AO2 PK WND 31033/0032 LTG DSNT ALQDS RAE03B17E52 TSE01 SLP163 P0000 T01610144
KCAR 250054Z AUTO 15005KT 10SM CLR 21/17 A3002 RMK AO2 SLP165 T02110172
KCBE 250044Z AUTO 19003KT 10SM BKN065 27/18 A3018 RMK AO1
KCBF 250055Z AUTO 00000KT 10SM BKN100 21/18 A3004 RMK AO2
KCBG 250055Z AUTO 00000KT 10SM CLR 22/14 A2994 RMK AO2
KCBK 250035Z AUTO 06010KT 10SM OVC080 20/09 A3015 RMK AO2
KCBM 242358Z AUTO 19005KT 10SM CLR 33/26 A3009 RMK AO2 SLP190 T03330257 10359 20333 55002 $
KCCA 250035Z AUTO 00000KT 10SM CLR 28/24 A3008 RMK AO2
KCCO 250035Z AUTO 09003KT 10SM CLR 25/25 A3020 RMK AO2 T02520252
KCCR 250053Z AUTO 31011KT 10SM CLR 28/11 A2993 RMK AO2 SLP122 T02830106 TSNO
KCCU 250056Z AUTO 29007KT 10SM VCTS CLR 08/M03 A3054 RMK AO2 LTG DSNT E AND S
KCCY 250055Z AUTO 31004KT 10SM CLR 22/21 A3000 RMK AO2
KCDA 250035Z AUTO 11005KT 10SM CLR 22/14 A3015 RMK AO2 T02170142
KCDC 250053Z AUTO 23010G15KT 10SM FEW110 28/03 A3011 RMK AO2 LTG DSNT NE SLP122 T02780028
KCDD 250041Z AUTO 27003KT 10SM CLR 20/13 A2988 RMK AO2
KCDH 250035Z AUTO 00000KT 10SM CLR 30/24 A3007 RMK AO2
KCDJ 250052Z AUTO 00000KT 27/23 A2997 RMK AO1 SLP136 T02670233
KCDR 250053Z AUTO 06005KT 10SM OVC075 23/04 A3015 RMK AO2 SLP201 T02280044
KCDS 250053Z AUTO 19004KT 10SM CLR 29/18 A2998 RMK AO2 LTG DSNT E AND SE SLP126 T02940183
KCDW 250053Z AUTO 00000KT 10SM CLR 25/17 A3017 RMK AO2 SLP220 T02500167 TSNO
KCEC 242356Z AUTO 19012KT 7SM OVC003 12/11 A3005 RMK AO2 SLP176 T01220106 10128 20106 56013
KCEF 242358Z AUTO 17007KT 10SM CLR 24/16 A3014 RMK AO2 SLP212 T02440162 10306 20243 55000
KCEU 250054Z AUTO 00000KT 10SM CLR 26/22 A3023 RMK AO2 SLP227 T02560217
KCEW 250053Z AUTO 00000KT 10SM CLR 26/25 A3014 RMK AO2 SLP203 T02610250
KCEY 250035Z AUTO 18003KT 10SM CLR 28/25 A3008 RMK AO1
KCEZ 250053Z AUTO 27005KT 10SM CLR 21/08 A3018 RMK AO2 SLP157 T02060083
KCFD 250035Z AUTO 13003KT 10SM CLR 30/24 A3005 RMK AO2 T03010236
KCFE 250054Z AUTO 26004KT 10SM CLR 21/14 A2998 RMK AO2 T02070144
KCFJ 250055Z AUTO 21004KT 10SM SCT038 25/25 A3003 RMK AO2 P0001 T02510251
KCFS 250055Z AUTO 00000KT 10SM SCT046 23/22 A2994 RMK AO2 T02300218
KCFV 250052Z AUTO 18011KT 10SM CLR 32/20 A2995 RMK AO2 SLP132 T03170200
KCGC 250055Z AUTO 06004KT 10SM CLR 28/20 A3011 RMK AO2
KCGE 250040Z AUTO 00000KT 10SM CLR 20/17 A3020 RMK AO1
KCGF 250045Z 20012KT 15SM BKN080 BVK160 28/21 A3005
KCGI 250053Z AUTO 20006KT 10SM CLR 28/24 A3004 RMK AO2 SLP168 T02780239
KCGS 250041Z AUTO 16003KT 10SM CLR 25/17 A3019 RMK AO1
KCGZ 250055Z AUTO 33007KT 10SM FEW110 38/10 A2990 RMK AO1
KCHA 250053Z 16007KT 10SM FEW045 BKN250 29/21 A3017 RMK AO2 SLP207 T02890206
KCHD 250047Z 29010KT 10SM SCT100 BKN200 38/09 A2987
KCHK 250035Z AUTO 17008KT 10SM CLR 32/19 A2996 RMK AO2
KCHO 250053Z 17004KT 10SM FEW043 25/19 A3019 RMK AO2 SLP217 T02500194
KCHS 242356Z 10007KT 10SM BKN250 27/17 A3017 RMK AO2 SLP216 T02720172 10322 20272 55000
KCIC 250055Z AUTO 19008KT 10SM CLR 32/09 A2991 RMK AO1
KCID 250052Z 31007KT 5SM VCTS +RA BR FEW042 SCT065 BKN085 24/23 A2996 RMK AO2 LTG DSNT S-W RAB47 SLP139 P0005 T02390233
KCIN 250055Z AUTO 32007KT 10SM FEW110 21/19 A3002 RMK AO2
KCIR 250035Z AUTO 18005KT 10SM CLR 28/25 A3006 RMK AO2 T02820251
KCIU 250056Z AUTO 25006KT 10SM BKN011 OVC014 21/20 A2985 RMK AO2 RAB07E21 CIG 009V013 SLP124 P0000 T02110200
KCJR 250035Z AUTO 00000KT 10SM CLR 22/20 A3019 RMK AO2 T02230201
KCKB 250053Z 18003KT 10SM CLR 24/19 A3015 RMK AO2 SLP196 T02390189
KCKC 250053Z AUTO 27006KT 10SM CLR 19/11 A2986 RMK AO2
KCKF 250035Z AUTO 00000KT 10SM CLR 29/22 A3016 RMK AO2 T02870218
KCKI 250055Z AUTO 00000KT 10SM CLR 24/17 A3018 RMK AO2
KCKM 250055Z AUTO 00000KT 10SM CLR 30/26 A3009 RMK A01
KCKN 250054Z AUTO 26007KT 10SM CLR 20/11 A2991 RMK AO2
KCKP 250055Z AUTO 00000KT 10SM CLR 21/19 A3005 RMK AO2 T02070187
KCKV 250052Z AUTO 15003KT 10SM CLR 28/23 A3010 RMK AO2 SLP187 T02830233
KCKZ 250055Z AUTO 00000KT 10SM CLR 19/16 A3020 RMK AO2
KCLE 250051Z 20014G20KT 10SM SCT080 BKN140 BKN250 28/19 A3005 RMK AO2 SLP168 T02780189
KCLI 250055Z AUTO 25003KT 10SM SCT043 23/19 A2991 RMK AO2
KCLL 250053Z 12006KT 10SM CLR 31/23 A3003 RMK AO2 SLP164 T03060233
KCLM 250053Z AUTO 07003KT 10SM CLR 30/04 A3017 RMK AO2 SLP215 T03000039 $
KCLS 250055Z AUTO 02012G17KT 10SM CLR 30/07 A3011 RMK AO2
KCLT 250052Z VRB04KT 10SM SCT075 BKN250 28/19 A3021 RMK AO2 SLP220 T02780189
KCLW 250055Z AUTO 08004KT 10SM CLR 29/23 A3007 RMK AO2
KCMA 250055Z 24008KT 10SM CLR 21/15 A2993 RMK AO2 SLP142 T02110150
KCMD 250035Z AUTO 00000KT 10SM CLR 27/23 A3018 RMK AO2 T02740229 PWINO
KCMH 250051Z 16009KT 10SM FEW055 FEW090 BKN150 OVC220 26/21 A3006 RMK AO2 RAE24 SLP173 P0000 T02560211
KCMI 250053Z 22005KT 10SM CLR 25/23 A3002 RMK AO2 SLP159 T02500233
KCMX 250053Z AUTO 26008KT 10SM FEW043 SCT050 22/18 A2983 RMK AO2 SLP098 T02220178
KCMY 250035Z AUTO 30004KT 10SM CLR 23/21 A2995 RMK AO2 T02300207
KCNB 250054Z AUTO 31003KT 10SM CLR 21/14 A3003 RMK AO2 T02070144
KCNC 250055Z AUTO 10SM 20/19 A2999 RMK AO2
KCNI 250035Z AUTO 00000KT 10SM CLR 25/21 A3023 RMK AO2
KCNK 250055Z AUTO 36005KT 10SM CLR 18/16 A3006 RMK AO2 SLP168 T01780161
KCNM 250053Z AUTO 14008KT 10SM CLR 23/17 A3004 RMK AO2 SLP127 T02330172
KCNO 250053Z 24013KT 10SM CLR 31/14 A2992 RMK AO2 SLP125 T03060144
KCNU 250052Z AUTO 17007KT 10SM CLR 28/21 A2993 RMK AO2 LTG DSNT NW SLP123 T02830211
KCNW 250053Z 15004KT 10SM SKC 30/22 A3003
KCNY 250053Z AUTO 22011KT 10SM CLR 28/06 A3002 RMK AO2 SLP112 T02830056
KCOD 250055Z AUTO 29005KT 10SM OVC050 11/08 A3034 RMK AO1 P0005
KCOE 250055Z AUTO 04010G15KT 10SM CLR 26/03 A3016 RMK AO1
KCOF 242358Z AUTO 02010KT 10SM FEW027 29/25 A3006 RMK AO2 SLP184 T02850250 10304 20285 55001
KCOM 250035Z AUTO 15010KT 10SM CLR 32/17 A3001 RMK AO2 T03150168
KCON 250051Z AUTO 17003KT 10SM CLR 23/17 A3014 RMK AO2 SLP206 T02280172
KCOQ 250055Z AUTO 26006KT 10SM CLR 21/11 A2993 RMK AO2
KCOS 250054Z 27005KT 9SM BKN070 BKN120 BKN240 17/08 A3029 RMK AO2 SLP193 T01670083
KCOT 250053Z AUTO 11007KT 10SM CLR 33/20 A2995 RMK AO2 SLP134 T03280200 $
KCOU 250054Z 12004KT 10SM CLR 28/24 A2998 RMK AO2 SLP143 T02830239
KCPC 250040Z AUTO 00000KT 10SM CLR 23/19 A3019 RMK AO2 T02340194
KCPK 250035Z AUTO 11003KT 10SM CLR 22/19 A3021 RMK AO2 T02170188
KCPR 250053Z 05017KT 10SM CLR 21/01 A3019 RMK AO2 SLP182 T02060011
KCPS 250053Z 15004KT 10SM FEW044 29/24 A2999 RMK AO2 LTG DSNT SE AND SW SLP151 T02890239
KCPT 250035Z AUTO 14009KT 10SM CLR 31/22 A3004 RMK AO2
KCPW 250102Z AUTO 00000KT 10SM VCTS SCT050 SCT060 SCT100 05/05 A3058 RMK AO2 LTG DSNT N THRU S
KCQB 250035Z AUTO 00000KT 10SM CLR 32/21 A2997 RMK AO2
KCQC 242353Z AUTO 33011KT 10SM FEW120 16/09 A3026 RMK AO2 SLP182 T01610089 10222 20156 56002
KCQF 250035Z AUTO 04003KT 10SM CLR 25/25 A3012 RMK AO2
KCQM 250055Z AUTO 26004KT 10SM CLR 20/13 A2990 RMK AO2
KCQT 250047Z AUTO VRB04KT 10SM CLR 24/15 A2992 RMK AO2 SLP129 T02390150 $
KCQW 250055Z AUTO 00000KT 10SM CLR 23/19 A3019 RMK AO2
KCQX 250052Z AUTO 23006KT 10SM CLR 23/19 A3021 RMK AO2 SLP230 T02280189 $
KCRE 250053Z 02003KT 10SM CLR 23/18 A3018 RMK AO1 SLP220 T02330178
KCRG 250053Z 07010KT 10SM BKN090 28/22 A3014 RMK AO2 SLP207 T02830217
KCRP 250051Z 13014G19KT 10SM FEW018 FEW250 29/23 A3000 RMK AO2 SLP156 T02940233
KCRQ 250053Z AUTO 24005KT 10SM CLR 22/17 A2993 RMK AO2 SLP131 T02220172
KCRS 250053Z AUTO 16005KT 10SM CLR 30/23 A3005 RMK AO2 SLP170 T03000228 TSNO
KCRW 250054Z 15004KT 10SM BKN240 24/22 A3014 RMK AO2 SLP200 T02440217
KCRX 250035Z AUTO 00000KT 10SM CLR 29/26 A3010 RMK AO2
KCSG 250051Z 09004KT 10SM CLR 28/22 A3015 RMK AO2 SLP202 T02830217
KCSM 250053Z 20007KT 10SM CLR 31/18 A2999 RMK AO2 SLP130 T03110183
KCSQ 250055Z AUTO 29005KT 10SM BKN034 OVC065 21/20 A3005 RMK AO2
KCSV 250053Z AUTO 00000KT 10SM CLR 24/22 A3023 RMK AO2 SLP215 T02440217
KCTB 242356Z AUTO 29007KT 10SM FEW095 18/02 A3033 RMK AO2 SLP262 T01830022 10189 20150 58008
KCTJ 250035Z AUTO 00000KT 10SM CLR 26/22 A3024 RMK AO2 T02570215
KCTY 250035Z AUTO 08005KT 10SM CLR 28/21 A3012 RMK AO2
KCTZ 250040Z AUTO 00000KT 10SM CLR 24/21 A3020 RMK AO2 T02400206
KCUB 250053Z AUTO 00000KT 10SM FEW060 28/19 A3018 RMK AO2 SLP218 T02780194
KCUH 250035Z AUTO 17004KT 10SM SCT090 32/18 A2995 RMK AO2 T03200184
KCUL 250035Z AUTO 18004KT 10SM CLR 28/25 A3004 RMK AO2 T02780247
KCUT 250053Z AUTO 10008KT 10SM BKN070 OVC085 17/03 A3025 RMK AO2 SLP204 T01670033
KCVB 250035Z AUTO 12004KT 7SM CLR 31/19 A3002 RMK AO2 T03130194
KCVC 250034Z AUTO 00000KT 10SM RA CLR 25/23 A3019 RMK AO2
KCVG 250052Z 20009KT 10SM FEW040 SCT100 OVC200 28/23 A3007 RMK AO2 SLP171 VCSH W T02780228
KCVH 250055Z AUTO 25013G16KT 10SM CLR 22/13 A2997 RMK AO1
KCVN 250055Z AUTO 18014KT 10SM CLR 25/11 A3007 RMK AO1
KCVO 250055Z 03013G18KT 10SM 34/06 A3003 RMK AO1
KCVS 242358Z AUTO 19016KT 10SM CLR 28/10 A3008 RMK AO2 PK WND 18026/37 SLP126 60000 T02800096 10300 20251 56006 $
KCVW 250040Z AUTO 19005KT 10SM CLR 30/25 A3005 RMK A01
KCVX 250054Z AUTO 23007KT 10SM CLR 23/21 A2990 RMK AO2 T02310208
KCWA 250045Z 25005KT 10SM SKC 21/19 A2995
KCWC 250035Z AUTO 15013KT 10SM CLR 34/18 A2996 RMK AO2 T03350175
KCWF 250050Z 20004KT 10SM SKC 30/24 A3007
KCWI 250056Z AUTO 23005KT 10SM CLR 24/22 A2996 RMK AO2 SLP160 T02440222 PNO $
KCWN 242358Z AUTO 20006KT 10SM BKN055 14/08 A3026 RMK AO2 LTG DSNT W-NW SHRAE44 SLP096 T01400075 10177 20123 50000 $
KCWV 250035Z AUTO 00000KT 10SM CLR 27/21 A3017 RMK AO2 T02720207
KCXE 250035Z AUTO 00000KT 10SM CLR 23/20 A3021 RMK AO1 T02270196
KCXO 250053Z 13004KT 10SM CLR 28/25 A3006 RMK AO2 SLP175 T02830250
KCXP 250055Z AUTO 28015G20KT 10SM CLR 29/M10 A3012 RMK AO2
KCXY 242356Z 17008KT 10SM CLR 27/18 A3015 RMK AO2 SLP209 T02670178 10306 20267 55006
KCYS 250053Z 20013KT 10SM -RA OVC090 16/08 A3025 RMK AO2 RAB2354E12B48 SLP183 P0000 T01560083
KCZL 250035Z AUTO 15003KT 10SM CLR 28/21 A3018 RMK AO2 T02800205
KCZT 250055Z AUTO 11006KT 10SM CLR 33/17 A2993 RMK AO2
KCZZ 250052Z AUTO 29008KT 31/08 A2997 RMK AO1 SLP114 T03110083
KD07 242356Z AUTO 31014G22KT 23/07 A3009 RMK AO1 SLP184 T02330067 10256 20217 55001
KD25 250035Z AUTO 23003KT 10SM SCT037 20/20 A2991 RMK AO2 T02040202
KD39 250052Z AUTO 23003KT 10SM CLR 20/14 A2999 RMK AO2 T01980142
KD50 250055Z AUTO 33017G25KT 10SM OVC020 13/09 A3008 RMK AO2
KD55 250055Z AUTO 26013G20KT 10SM OVC001 19/11 A2988 RMK AO2
KD57 250055Z AUTO 30015G22KT 10SM CLR 17/07 A3006 RMK AO2
KD60 250035Z AUTO 31016G22KT 8SM FEW010 BKN014 BKN021 12/12 A3010 RMK AO2
KD95 250053Z AUTO 21006KT 10SM BKN055 25/22 A2996 RMK AO2 T02450217
KDAA 242358Z AUTO 15005KT 10SM CLR 25/19 A3017 RMK AO2 SLP219 T02510185 10293 20251 55007
KDAB 250053Z 02014G20KT 10SM SCT016 SCT027 BKN035 BKN250 28/24 A3012 RMK AO2 SLP197 T02780239
KDAG 250050Z AUTO 23015G20KT 10SM CLR 39/M01 A2986 RMK AO2 SLP081 T03891006
KDAL 250053Z 17013KT 10SM FEW055 FEW300 32/20 A3002 RMK AO2 SLP157 T03220200 $
KDAN 250053Z AUTO VRB04KT 10SM OVC060 24/20 A3021 RMK AO2 SLP220 T02440200
KDAW 250051Z AUTO 00000KT 10SM CLR 22/17 A3014 RMK AO2 SLP202 T02220167
KDAY 242356Z 16009KT 10SM FEW060 BKN140 OVC180 26/23 A3005 RMK AO2 RAE07 SLP167 P0000 60003 T02560233 10289 20256 56016
KDBN 250035Z AUTO 00000KT 10SM CLR 27/18 A3018 RMK AO2
KDBQ 250053Z AUTO 29005KT 10SM CLR 24/22 A2996 RMK AO2 SLP140 T02390217
KDCA 250052Z 17011KT 10SM SCT250 26/18 A3020 RMK AO2 SLP225 T02560183
KDCM 250055Z AUTO 00000KT 10SM SCT080 24/20 A3021 RMK AO2
KDCU 250053Z AUTO 00000KT 8SM CLR 27/24 A3013 RMK AO2 SLP195 T02720244
KDCY 250035Z AUTO 10SM CLR 29/24 A3004 RMK AO2 T02850240
KDDC 250052Z AUTO 03011KT 10SM CLR 22/18 A3003 RMK AO2 SLP140 T02170178
KDDH 250054Z AUTO 04003KT 10SM CLR 19/16 A3015 RMK AO2 SLP207 T01940156 TSNO
KDEC 250054Z 23003KT 10SM CLR 28/23 A3001 RMK AO2 SLP156 T02830228
KDED 250035Z AUTO 02007KT 10SM SCT026 27/23 A3011 RMK AO2
KDEH 250055Z AUTO 31003KT 10SM CLR 22/20 A2997 RMK AO2
KDEN 250053Z 03004KT 10SM SCT070 BKN110 BKN220 17/11 A3024 RMK AO2 SLP181 T01720111
KDEQ 250053Z AUTO 14003KT 10SM CLR 29/24 A3004 RMK AO2 SLP166 T02890244
KDET 250053Z 22003KT 10SM -RA FEW031 BKN046 OVC080 24/24 A2997 RMK AO2 RAB2359E26B45 SLP144 P0003 T02440239
KDEW 250053Z AUTO 10SM FEW100 27/01 A3019 RMK AO2 SLP212 T02720011
KDFI 250053Z AUTO 18006G14KT 3/4SM +TSRA BR FEW007 OVC017 23/21 A2998 RMK AO2 LTG DSNT ALQDS RAB19 TSB26 SLP147 P0091 T02280211 $
KDFW 250053Z 16011KT 10SM FEW300 32/20 A3001 RMK AO2 SLP151 T03170200
KDGW 250053Z AUTO 05014KT 10SM CLR 21/02 A3019 RMK AO2 SLP184 T02110017
KDHN 250053Z 05004KT 10SM CLR 27/25 A3016 RMK AO2 SLP208 T02720250
KDHT 250053Z AUTO 05007KT 10SM VCTS CLR 23/15 A3006 RMK AO2 LTG DSNT SE AND S SLP128 T02330150
KDIJ 250056Z AUTO 34010KT 10SM SCT085 BKN110 18/M01 A3025 RMK AO2 PK WND 33027/0008 SLP218 T01781006
KDIK 242356Z AUTO 30022G28KT 10SM SCT049 OVC060 17/06 A3008 RMK AO2 PK WND 29028/2349 SLP186 T01670061 10222 20167 51007
KDKB 250035Z AUTO 23005KT 10SM CLR 26/23 A2998 RMK AO2 T02600229
KDKK 250053Z AUTO 22005KT 10SM CLR 24/17 A3005 RMK AO2 SLP172 T02440167
KDKR 250030Z AUTO 17003KT 10SM TS FEW042 SCT065 29/28 A3009 RMK AO2 LTG DSNT N AND NW
KDKX 250035Z AUTO 00000KT 10SM CLR 25/23 A3016 RMK A01
KDLF 242358Z 15015KT 10SM CLR 33/18 A2994 RMK AO2A SLP124 T03340183 10343 20310 403430228 57018
KDLH 250055Z 29010KT 10SM CLR 22/13 A2991 RMK AO2 SLP125 T02170133
KDLL 250030Z AUTO 00000KT 10SM SCT026 BKN055 25/22 A2994 RMK AO2 T02450216
KDLN 250053Z AUTO 02019G26KT 10SM CLR 17/01 A3027 RMK AO2 PK WND 02027/0000 SLP223 T01720011
KDLP 250035Z AUTO 11008KT 10SM CLR 32/25 A3005 RMK A01
KDLS 250053Z AUTO 11009KT 10SM FEW120 33/01 A3004 RMK AO2 SLP168 T03280006
KDLZ 250055Z AUTO 17007KT 10SM CLR 23/20 A3005 RMK AO2
KDMA 242358Z AUTO 33009KT 10SM CLR 34/08 A2997 RMK AO2 SLP104 T03440083 10348 20310 57020 $
KDMH 242054Z AUTO 29/17 A3019 RMK AO1 SLP221 T02940172 56019
KDMN 250053Z AUTO 04012KT 10SM FEW007 BKN100 28/09 A3007 RMK AO2 PK WND 36027/0021 WSHFT 0012 LTG DSNT NE SLP116 T02780089
KDMO 250053Z AUTO 12003KT 10SM FEW044 BKN055 BKN070 29/24 A2997 RMK AO2 SLP140 T02890244
KDMW 250040Z AUTO 16004KT 10SM CLR 25/14 A3020 RMK AO2
KDNL 250053Z AUTO 35005KT 10SM CLR 28/21 A3018 RMK AO2 SLP215 T02780206
KDNN 250035Z AUTO 16004KT 10SM CLR 27/22 A3018 RMK AO2
KDNS 250055Z AUTO 36004KT 3SM HZ CLR 21/18 A3002 RMK AO2
KDNV 250035Z AUTO 22003KT 7SM BKN033 BKN045 26/25 A2999 RMK AO2 T02590245
KDOV 242358Z AUTO 14008KT 10SM CLR 23/18 A3018 RMK AO2 SLP223 60000 T02310183 10279 20231 55003 $
KDPA 250052Z 23005KT 10SM CLR 26/22 A2996 RMK AO2 SLP139 T02560217
KDQH 250035Z AUTO 11004KT 10SM CLR 27/20 A3018 RMK AO2
KDRA 242353Z AUTO 22015G19KT 10SM CLR 36/02 A2996 RMK AO2 SLP093 T03610022 10367 20317 56021
KDRI 250055Z AUTO 00000KT 10SM VCTS CLR 30/25 A3009 RMK AO2 LTG DSNT E T03020249
KDRM 250055Z AUTO 00000KT 10SM BKN032 OVC038 21/21 A2985 RMK AO2 P0001 T02070207
KDRO 250053Z AUTO 25004KT 10SM CLR 18/09 A3022 RMK AO2 SLP174 T01830089
KDRT 250053Z AUTO 13009KT 10SM CLR 32/17 A2995 RMK AO2 SLP125 T03170167
KDSM 250054Z 02009KT 10SM FEW025 SCT040 SCT140 BKN180 23/22 A2996 RMK AO2 RAE19 SLP138 CB DSNT E MOV E P0013 T02330217
KDSV 250054Z AUTO 16005KT 10SM CLR 23/18 A3008 RMK AO2 SLP191 T02280178
KDTA 250035Z AUTO 00000KT 10SM CLR 27/M07 A3007 RMK AO1
KDTL 250055Z AUTO 29006KT 10SM SCT060 20/12 A2997 RMK AO2
KDTN 250053Z AUTO 16003KT 10SM CLR 29/22 A3007 RMK AO2 SLP177 T02940222
KDTO 250053Z 15012KT 10SM CLR 30/21 A3000 RMK AO2 SLP149 T03000211
KDTS 250053Z AUTO 00000KT 10SM CLR 29/26 A3011 RMK AO2 SLP195 T02940256
KDTW 250053Z 21011KT 8SM -RA SCT025 BKN035 OVC120 26/23 A2998 RMK AO2 RAB53 SLP147 P0000 T02560233 $
KDUA 250055Z AUTO 18006KT 10SM CLR 30/20 A3003 RMK AO2
KDUB 250035Z AUTO 16019G23KT 10SM SCT060 BKN080 OVC100 15/M01 A3024 RMK AO2
KDUC 250055Z AUTO 16009G16KT CLR 31/18 A2997 RMK AO2 PWINO TSNO
KDUG 242356Z AUTO 20012KT 10SM CLR 29/09 A3007 RMK AO2 WSHFT 2258 SLP120 T02940089 10328 20283 56015
KDUH 250055Z AUTO 20004KT 10SM SCT028 SCT042 SCT065 25/22 A2998 RMK AO2 T02540223
KDUJ 250053Z AUTO 19003KT 10SM CLR 23/15 A3015 RMK AO2 SLP198 T02330150
KDUX 250035Z AUTO 06007KT 10SM SCT080 24/18 A3003 RMK AO2 T02440176
KDVK 250035Z AUTO 20003KT 10SM CLR 26/21 A3015 RMK AO2
KDVL 250056Z AUTO 25019G24KT 10SM FEW095 19/12 A2992 RMK AO2 SLP143 T01890117
KDVN 250052Z AUTO 28003KT 10SM FEW075 24/22 A2996 RMK AO2 SLP141 T02440217
KDVO 250035Z AUTO 34013KT 10SM CLR 23/11 A2997 RMK AO2
KDVP 250025Z AUTO 00000KT 10SM CLR 19/16 A3004 RMK AO2
KDVT 250053Z 04023G30KT 10SM TS FEW090 SCT100 31/11 A2990 RMK AO2 PK WND 04038/0038 LTG DSNT ALQDS TSB42 SLP103 T03110106
KDWH 250053Z 12006KT 10SM FEW075 29/25 A3005 RMK AO2 SLP174 T02940250
KDWU 250055Z AUTO 00000KT 10SM CLR 27/22 A3009 RMK AO1
KDWX 250035Z AUTO 05005KT 10SM SCT110 23/M04 A3017 RMK AO2 LTG DSNT SE T02271036
KDXR 250053Z 17007KT 10SM CLR 22/16 A3019 RMK AO2 SLP219 T02220161
KDXX 250054Z AUTO 27003KT 10SM CLR 21/15 A3001 RMK AO2
KDYA 250115Z AUTO 12003KT 10SM 27/26 A3011 RMK AO2 T02740262
KDYB 250055Z AUTO 00000KT 10SM CLR 25/20 A3018 RMK AO1
KDYL 250054Z AUTO 19003KT 10SM CLR 24/17 A3018 RMK AO2 SLP215 T02440167
KDYR 250055Z AUTO 10SM CLR RMK AO1
KDYS 242358Z AUTO 16014G19KT 10SM CLR 34/18 A2998 RMK AO2 SLP104 T03360177 10346 20310 57015 $
KDYT 250053Z AUTO 24009KT 10SM CLR 24/15 A2989 RMK AO2
KDZB 250055Z AUTO 15004KT 10SM CLR 30/20 A3003 RMK AO2 T02960203
KDZJ 250055Z AUTO 10SM A3026 RMK AO2
KE11 250035Z AUTO 21007KT 10SM RA SCT065 BKN095 OVC120 22/19 A3007 RMK AO2 T02170187
KE16 250035Z AUTO 14010KT 10SM CLR 26/13 A2997 RMK AO2
KE38 250035Z AUTO 08004KT 10SM CLR 24/18 A3019 RMK AO2 T02360182
KE80 250055Z AUTO 02004KT 10SM CLR 25/06 A3015 RMK AO2 T02460060
KEAN 250035Z AUTO 30007G17KT 10SM CLR 15/12 A3018 RMK AO2 LTG DSNT NE THRU S P0001 T01510119
KEAR 250055Z AUTO 02005KT 10SM CLR 20/13 A3010 RMK AO1
KEAT 250055Z AUTO 03005KT 10SM CLR 31/02 A3012 RMK AO2 SLP191 T03060022
KEAU 242356Z 26005KT 10SM CLR 23/16 A2992 RMK AO2 SLP128 T02330161 10267 20233 51006
KEBA 250035Z AUTO 00000KT 7SM CLR 27/26 A3022 RMK AO2 T02720260
KEBG 250035Z AUTO 14012G16KT 10SM CLR 33/19 A2997 RMK AO2 T03320188
KEBS 250055Z AUTO 33004KT 10SM CLR 21/19 A3000 RMK AO2
KECG 250054Z 08006KT 10SM CLR 24/20 A3022 RMK AO2 SLP233 T02390200
KECP 250053Z 00000KT 10SM SCT120 26/24 A3011 RMK AO2 SLP206 T02560244
KECS 250055Z AUTO 32012KT 10SM SCT080 20/02 A3019 RMK AO2
KECU 250035Z AUTO 15010G17KT 8SM CLR 29/18 A3008 RMK AO2
KEDC 250035Z AUTO 00000KT 10SM FEW060 30/22 A3003 RMK AO2
KEDE 250040Z AUTO 00000KT 10SM CLR 25/20 A3022 RMK AO2 T02450196
KEDJ 250050Z AUTO 19011KT 10SM SCT050 24/23 A3004 RMK AO1
KEDU 250035Z AUTO 18010KT 10SM CLR 30/12 A2990 RMK AO1
KEDW 250037Z 27014G27KT 20SM CLR 36/02 A2991 RMK AO2A WSHFT 24
KEED 242356Z AUTO 10SM OVC100 43/05 A2979 RMK AO2 SLP051 T04280050 10428 20361 56027
KEEN 250056Z AUTO 00000KT 10SM CLR 20/18 A3016 RMK AO2 SLP230 T02000183
KEEO 250053Z AUTO 25012G16KT 9SM -RA FEW055 SCT075 OVC095 19/06 A3019 RMK AO2 RAB44 SLP163 P0000 T01940061
KEET 250053Z AUTO 00000KT 10SM CLR 28/24 A3014 RMK AO2 SLP198 T02830239
KEFD 242350Z 13008KT 10SM SCT030 BKN250 32/25 A3006
KEFK 250035Z AUTO 18005KT 10SM CLR 22/15 A3011 RMK AO2 T02210148
KEFT 250055Z AUTO 25009KT 10SM BKN029 BKN036 26/22 A2996 RMK AO2
KEGE 250055Z AUTO 24013G17KT 10SM CLR 22/M01 A3020 RMK AO1
KEGI 242355Z 00000KT 10SM SCT035 SCT150 BKN250 27/25 A3012 RMK AO2A SLP200 60086 T02670247 10341 20242 53002 $
KEGV 250035Z AUTO 26004KT 10SM CLR 20/18 A2991 RMK AO2 T02010175
KEHA 250048Z AUTO 07006KT 18/15 RMK AO1 PK WND 22 000 T01780151
KEHC 250035Z AUTO 04005KT 10SM CLR 33/24 A3007 RMK A01
KEHO 250040Z AUTO 00000KT 10SM CLR 26/20 A3021 RMK AO2 T02570203
KEHR 250055Z AUTO 17003KT 10SM CLR 27/23 A3004 RMK AO1
KEHY 250035Z AUTO 10SM CLR 17/01 A3022 RMK AO2 LTG DSNT SE
KEIK 250055Z AUTO 11011KT 10SM -RA BKN080 OVC100 18/09 A3020 RMK AO2 LTG DSNT S THRU W T01840086
KEIR 250035Z AUTO 00000KT 10SM CLR 30/25 A3009 RMK A01
KEKM 250050Z 23006KT 10SM SCT070 24/22 A2997 RMK AO2 LAST
KEKN 250051Z AUTO 09003KT 10SM CLR 21/17 A3022 RMK AO2 SLP227 T02110172 TSNO
KEKO 242356Z AUTO 29016G24KT 10SM CLR 28/M13 A3012 RMK AO2 SLP152 T02831128 10294 20239 56015
KEKQ 242356Z AUTO 25011KT 10SM CLR A3018 RMK AO2 SLPNO 53003 $
KEKS 250035Z AUTO 36022KT 10SM CLR 17/00 A3032 RMK A01
KELA 250035Z AUTO 16006KT 10SM CLR 30/23 A3003 RMK AO2 T02990234
KELD 250053Z AUTO 00000KT 10SM CLR 28/26 A3008 RMK AO2 SLP183 T02830256
KELK 250035Z AUTO 21005KT 10SM CLR 30/19 A2996 RMK AO2 T02970185
KELM 250053Z AUTO 27003KT 10SM CLR 23/17 A3011 RMK AO2 SLP193 T02280167
KELN 250053Z AUTO 08005KT 10SM CLR 31/03 A3015 RMK AO2 SLP200 T03060033
KELO 250053Z AUTO 28007KT 10SM CLR 20/12 A2987 RMK AO2
KELP 250051Z 22009KT 10SM SCT100 SCT250 31/08 A3001 RMK AO2 SLP087 CB DSNT NW-N T03110078
KELY 250053Z AUTO 01008KT 10SM CLR 27/M09 A3015 RMK AO2 WSHFT 0000 SLP123 T02671089
KELZ 242356Z AUTO 22006KT 10SM CLR 24/14 A3017 RMK AO2 SLP206 T02390144 10278 20239 55008
KEMM 242259Z AUTO 29015G21KT 10SM 21/M11 A3024 RMK AO2
KEMP 250053Z AUTO 31007KT 10SM VCTS FEW037 BKN070 OVC090 23/21 A2998 RMK AO2 PK WND 23026/0015 LTG DSNT ALQDS RAE37 TSB2357E50 SLP144 P0054 T02280206
KEMT 250045Z 24007KT 10SM CLR 28/12 A2993
KEMV 250035Z AUTO 00000KT 19/18 A3022 RMK AO2 TSNO
KEND 250022Z 15009G19KT 10SM SCT060 27/22 A2994
KENL 250035Z AUTO 18006KT 10SM SCT048 SCT060 29/26 A3001 RMK AO2 LTG DSNT SW T02910259
KENV 250055Z AUTO 13006KT 10SM CLR 28/M06 A3007 RMK AO1
KENW 250053Z 23005KT 10SM CLR 26/22 A2994 RMK AO2 SLP133 T02560222
KEOE 250035Z AUTO 00000KT 10SM CLR 25/21 A3022 RMK AO2
KEOK 250055Z AUTO 24005KT 10SM BKN100 BKN120 26/24 A2997 RMK AO2
KEPH 250053Z AUTO 34003KT 10SM FEW120 30/03 A3012 RMK AO2 SLP190 T03000028
KEQA 250035Z AUTO 36004KT 10SM SCT075 BKN090 24/22 A2998 RMK AO2
KEQY 250053Z AUTO 00000KT 10SM CLR 25/19 A3020 RMK AO2 SLP224 T02500189
KERI 250051Z 18010KT 10SM FEW120 27/16 A3004 RMK AO2 SLP167 T02670161
KERV 250035Z AUTO 13009KT 10SM CLR 29/21 A3005 RMK AO2 T02900206
KERY 250055Z AUTO 24007KT 10SM OVC007 21/20 A2984 RMK AO2 T02070202
KESC 250056Z AUTO 23003KT 10SM CLR 22/21 A2984 RMK AO2 SLP124 T02170206
KESF 250053Z AUTO 00000KT 7SM CLR 27/26 A3009 RMK AO2 SLP186 T02670261
KESN 250050Z 19006KT 10SM CLR 25/18 A3024
KEST 250052Z AUTO 25004KT 10SM CLR 19/17 A3005 RMK AO2 SLP169 T01890172
KETB 250030Z AUTO 29004KT 10SM SCT050 26/21 A2994 RMK AO2
KETC 250040Z AUTO 00000KT 1 1/4SM BR VV007 22/21 A3021 RMK AO2 T02200213
KETH 250036Z AUTO 25004KT 10SM CLR 23/15 A2999 RMK AO2
KEUF 242358Z AUTO 00000KT 10SM FEW120 29/25 A3012 RMK AO2 SLP195 60007 T02940250 10356 20278 55003
KEUG 250054Z 36014G21KT 10SM CLR 33/06 A3000 RMK AO2 SLP158 T03330056
KEUL 250056Z AUTO 25011KT 10SM CLR 27/00 A3004 RMK AO2 SLP159 T02720000
KEVB 250050Z 03011G22KT 10SM SCT035 28/24 A3011
KEVM 250053Z AUTO 27008KT 10SM CLR 20/11 A2991 RMK AO2 T02040112
KEVV 250054Z 20005KT 10SM CLR 29/22 A3006 RMK AO2 SLP174 T02890222
KEVW 250053Z AUTO 27010G15KT 10SM CLR 19/M12 A3024 RMK AO2 SLP168 T01941117 TSNO
KEWB 250053Z 23005KT 10SM CLR 22/17 A3019 RMK AO2 SLP223 T02220172
KEWK 250056Z AUTO 04007KT 10SM OVC110 22/21 A2999 RMK AO2 TSE2358RAE00 SLP140 P0000 T02220211
KEWN 250054Z 09003KT 10SM CLR 24/20 A3021 RMK AO2 SLP228 T02390200
KEWR 250051Z 17010KT 10SM SCT260 26/17 A3016 RMK AO2 SLP213 T02560172
KEXX 250040Z AUTO 00000KT 10SM CLR 23/21 A3021 RMK AO2 T02310207
KEYE 250053Z AUTO 21005KT 10SM FEW029 FEW036 BKN055 27/23 A3003 RMK AO2 SLP161 T02670233
KEYF 250040Z AUTO 00000KT 10SM CLR 25/18 A3019 RMK AO2 T02500180
KEYW 250053Z AUTO 04007KT 10SM CLR 27/24 A3000 RMK AO2 SLP160 T02720244
KEZF 250035Z AUTO 17004KT 10SM CLR 24/20 A3018 RMK AO2 T02380200
KEZM 250035Z AUTO 08003KT 10SM SCT065 29/13 A3018 RMK AO2 T02900125
KEZS 250035Z AUTO 26003KT 10SM CLR 24/20 A2991 RMK AO2 T02400196
KF05 250035Z AUTO 35010G24KT 10SM BKN070 OVC100 29/15 A2996 RMK AO1 LTG DSNT ALQS T02900150
KF17 250035Z AUTO 00000KT 10SM CLR 30/27 A3007 RMK AO2 T02980267
KF44 250035Z AUTO 00000KT 10SM CLR 30/22 A3003 RMK AO2
KF46 250055Z AUTO 15007KT 7SM CLR 30/22 A3003 RMK AO2 T02970217
KF70 250035Z AUTO 19011KT 10SM CLR 31/14 A2994 RMK AO1
KFAF 242358Z AUTO 12003KT 10SM CLR 25/15 A3018 RMK AO2 SLP223 T02500154 10305 20250 55005 $
KFAM 250056Z AUTO 16005KT 10SM CLR 28/24 A3005 RMK AO2 SLP195 T02780239
KFAR 250053Z 26007KT 10SM CLR 21/11 A2994 RMK AO2 SLP138 T02060111
KFAT 250053Z 30011KT 10SM CLR 35/03 A2988 RMK AO2 SLP115 HZ FU OBSCG DSNT MTNS N-NE-SE T03500028
KFAY 250053Z AUTO 09003KT 10SM CLR 24/18 A3019 RMK AO2 SLP217 T02390183
KFBG 242356Z AUTO 09002KT 10SM CLR 26/18 A3019 RMK AO2 SLP224 T02640177 10303 20264 55005
KFBL 250054Z AUTO 25004KT 10SM CLR 20/16 A3000 RMK AO2 PWINO
KFBR 250035Z AUTO 30017G21KT 10SM CLR 21/M12 A3025 RMK AO2 T02141116
KFCH 250035Z AUTO 10SM CLR 36/06 A2989 RMK A01
KFCI 250055Z AUTO 00000KT 10SM CLR 24/12 A3022 RMK AO1
KFCM 250053Z 26004KT 10SM CLR 22/14 A2997 RMK AO2 SLP144 T02170144
KFCS 242358Z AUTO 24008KT 10SM SCT043 BKN070 15/11 A3025 RMK AO2 DZE33RAB33E56 SLP219 P0001 60001 50003
KFDK 250040Z AUTO 15004KT 10SM CLR 25/20 A3019 RMK AO2
KFDR 250053Z AUTO 32008KT 10SM BKN075 OVC090 30/19 A2994 RMK AO2 LTG DSNT SW-N SLP121 T03000194
KFDW 250055Z AUTO 10004KT 10SM CLR 26/20 A3019 RMK AO1
KFDY 250053Z AUTO 17011KT 10SM FEW041 BKN075 OVC110 26/22 A2999 RMK AO2 RAB18E32 SLP145 P0000 T02610217
KFEP 250035Z AUTO 23007KT 10SM CLR 26/21 A2998 RMK AO2 T02550213
KFET 250035Z AUTO 30004KT 10SM SCT050 SCT070 BKN120 19/17 A3006 RMK AO2 T01920172
KFEW 250046Z AUTO 20011KT 10SM -SHRA FEW034 BKN085 16/08 A3027 RMK AO2 LTG DSNT S-SW SHRAE09SHRAB46 $
KFFA 250040Z AUTO 00000KT 10SM SCT028 SCT035 BKN044 25/22 A3020 RMK AO2 T02480224
KFFC 250053Z AUTO 00000KT 5SM BR CLR 24/24 A3020 RMK AO2 SLP219 T02390239
KFFL 250055Z AUTO 22007KT 10SM BKN025 BKN031 BKN038 25/23 A2997 RMK AO2 PWINO
KFFM 250054Z AUTO 29005KT 10SM CLR 19/13 A2998 RMK AO2
KFFO 242358Z 14007KT 10SM FEW035 SCT090 BKN150 26/24 A3004 RMK AO2A SLP170 P0001 60001 T02580242 10287 20258 56015
KFFT 250053Z AUTO 19007KT 10SM CLR 28/21 A3010 RMK AO2 SLP183 T02830211
KFFX 250051Z AUTO 00000KT 7SM BKN010 BKN034 22/22 A2994 RMK AO2 T02200215
KFFZ 250047Z 35022G35KT 40SM BKN090 BKN120 A2989 RMK CB DSNT N-NE LTG DSNT NE
KFGN 250054Z AUTO 24004KT 5SM HZ SCT075 21/11 A2983 RMK AO2
KFGX 250055Z AUTO 21006KT 10SM CLR 26/22 A3012 RMK AO2 T02610217
KFHB 250035Z AUTO 08014G17KT 10SM SCT030 OVC080 30/22 A3014 RMK AO1
KFHR 250053Z AUTO VRB05KT 10SM CLR 29/09 A3015 RMK AO2 SLP209 T02940089
KFHU 242358Z AUTO 29008KT 8SM CLR 30/06 A3014 RMK AO2 SLP131 6//// T02960063 10306 20277 57016
KFIG 250054Z AUTO 00000KT 10SM CLR 23/16 A3016 RMK AO2 SLP206 T02330156
KFIN 250035Z AUTO 06008KT 10SM SCT019 SCT050 OVC065 27/22 A3012 RMK AO2 T02700221
KFIT 250052Z AUTO 14003KT 10SM CLR 24/17 A3017 RMK AO2 SLP217 T02440167
KFKA 250053Z AUTO 30007KT 10SM CLR 21/16 A3001 RMK AO2 T02060163
KFKL 250055Z 18007KT 10SM CLR 23/16 A3012 RMK AO1
KFKN 250035Z AUTO 11003KT 10SM CLR 23/17 A3021 RMK AO2 T02250170
KFKS 250056Z AUTO 22007KT 10SM SCT008 SCT023 BKN042 23/21 A2990 RMK AO2 T02310211
KFLD 250053Z AUTO 20003KT 10SM CLR 23/21 A2993 RMK AO2 SLP132 T02330211
KFLG 242357Z AUTO 21016G20KT 10SM CLR 21/07 A3029 RMK AO2 SLP171 T02060072 10250 20189 55001 TSNO
KFLL 250053Z 00000KT 10SM FEW019 FEW036CB BKN250 28/26 A3002 RMK AO2 RAE47 TSE47 SLP163 OCNL LTGIC DSNT SW P0005 T02780256
KFLO 250053Z 10003KT 10SM CLR 26/19 A3019 RMK AO2 SLP219 T02560189
KFLP 250055Z AUTO 13003KT 10SM CLR 28/21 A3004 RMK AO1
KFLY 250055Z AUTO 00000KT 10SM SCT120 17/05 A3032 RMK AO2 LTG DSNT SW AND W T01660048
KFME 250042Z AUTO 17003KT 10SM CLR 21/18 A3021 RMK AO1
KFMH 250055Z 22006KT 10SM SKC 21/18 A3021 RMK AO2 PWINO FZRANO TSNO .
KFMM 250035Z AUTO 01007KT 10SM SCT080 OVC110 19/07 A3020 RMK AO2 LTG DSNT SW T01870069
KFMN 250053Z 15005KT 10SM CLR 24/04 A3013 RMK AO2 SLP153 T02440039
KFMY 250053Z 05012G19KT 10SM CLR 27/24 A3002 RMK AO2 SLP168 T02720244
KFNB 250053Z AUTO 34007KT 10SM -RA FEW008 BKN060 OVC070 22/22 A3003 RMK AO2 LTG DSNT E TSE11 SLP161 P0053 T02170217 $
KFNL 241935Z AUTO 00000KT 10SM CLR 18/10 A3022 RMK AO1
KFNT 250053Z AUTO 21007KT 10SM FEW035 SCT060 26/22 A2996 RMK AO2 SLP140 T02610217
KFOA 250035Z AUTO 19005KT 10SM CLR 29/25 A3002 RMK AO2 T02850252
KFOD 250055Z AUTO 00000KT 10SM CLR 22/17 A3004 RMK AO1
KFOE 250053Z 34006KT 10SM VCTS +RA FEW044 24/21 A2998 RMK AO2 LTG DSNT ALQDS TSE12 SLP143 P0000 T02390211
KFOK 250053Z 18005KT 10SM CLR 22/18 A3022 RMK AO2 SLP233 T02170183
KFOT 250030Z AUTO 31010KT 10SM CLR 14/10 A3006 RMK AO1
KFOZ 250052Z AUTO 25003KT 10SM BKN060 19/12 A2991 RMK AO2
KFPK 250055Z AUTO 00000KT 5SM BR SCT027 BKN033 OVC065 24/22 A2996 RMK AO2 T02350221
KFPR 250053Z VRB03KT 10SM FEW015 OVC055 27/26 A3007 RMK AO2 LTG DSNT SE-SW SLP181 T02670256 $
KFQD 250040Z AUTO 00000KT 10SM 25/21 A3024 RMK AO2 T02470213
KFRG 250053Z 20009KT 10SM CLR 24/18 A3019 RMK AO2 SLP224 T02390183
KFRI 242358Z AUTO 02010KT 10SM BKN110 23/20 A2999 RMK AO2 SLP146 T02300199 10288 20230 50001
KFRM 250056Z AUTO 25005KT 10SM CLR 20/17 A3004 RMK AO2 SLPNO T02000167
KFRR 250055Z AUTO 00000KT 10SM CLR 23/20 A3016 RMK AO1
KFSD 242356Z 27003KT 10SM BKN150 OVC250 22/15 A3005 RMK AO2 SLP171 T02220150 10244 20217 50002
KFSE 250054Z AUTO 23006KT 10SM CLR 18/11 A2993 RMK AO2
KFSI 242358Z AUTO 17016G23KT 10SM BKN065 33/21 A2994 RMK AO2 SLP128 T03310209 10349 20321 58010
KFSM 250053Z 18006KT 10SM CLR 30/20 A3002 RMK AO2 SLP160 T03000200
KFSO 250035Z AUTO 18007KT 10SM CLR 25/17 A3004 RMK AO2 T02450171
KFST 250053Z AUTO 13006KT 10SM CLR 24/17 A3008 RMK AO2 SLP145 T02390172 $
KFSW 250055Z AUTO 00000KT 10SM -DZ SCT017 SCT036 SCT065 25/24 A2998 RMK AO2 P0001
KFTG 250053Z 00000KT 10SM SCT075 BKN085 BKN110 18/11 A3025
KFTK 242358Z AUTO 17007KT 10SM CLR 29/24 A3008 RMK AO2 SLP182 T02880241 10321 20288 58003
KFTW 250053Z 14013KT 10SM CLR 32/21 A3000 RMK AO2 SLP149 T03220206
KFTY 250053Z 00000KT 10SM CLR 26/23 A3019 RMK AO2 SLP215 T02560228
KFUL 250053Z VRB06KT 10SM CLR 28/13 A2990 RMK AO2 SLP123 T02830133
KFVE 250053Z AUTO 18006KT 10SM CLR 22/17 A3001 RMK AO2 SLP157 T02170167
KFVX 250035Z AUTO 00000KT 10SM CLR 23/20 A3019 RMK AO2 T02340203
KFWA 250054Z 24004KT 10SM SCT049 SCT120 BKN250 24/23 A2999 RMK AO2 RAE27 TSE04 SLP151 OCNL LTGIC DSNT NE-SE-S CB DSNT NE-SE-S MOV E P0000 T02390228
KFWB 250035Z AUTO 17006KT 150V210 10SM CLR 29/21 A3006 RMK AO2
KFWC 250035Z AUTO 19003KT 10SM CLR 28/25 A3003 RMK AO1 T02770250
KFWN 250053Z AUTO 00000KT 10SM CLR 21/18 A3018 RMK AO2 SLP218 T02060183
KFWS 242346Z 15011KT 10SM CLR 33/21 A3003
KFXE 250053Z 35004KT 10SM TSRA SCT024 BKN090 28/25 A3002 RMK AO2 RAB44 TSB50 SLP169 P0001 T02780250
KFYG 250035Z AUTO 00000KT 10SM CLR 28/25 A2998 RMK AO2 LTG DSNT SE
KFYJ 250035Z AUTO 10003KT 10SM CLR 22/16 A3023 RMK AO2 T02160161
KFYM 250035Z AUTO 00000KT 10SM SCT001 29/23 A3016 RMK A01
KFYV 250053Z 16005KT 10SM CLR 28/21 A3006 RMK AO2 SLP163 T02780211
KFZG 250035Z AUTO 00000KT 10SM CLR 27/23 A3017 RMK AO2 T02730232
KFZY 250054Z AUTO VRB03KT 10SM CLR 25/17 A3005 RMK AO2 SLP173 T02500167
KGAD 250056Z AUTO 15006KT 10SM CLR 27/24 A3015 RMK AO2 SLP219 T02720239
KGAF 250055Z AUTO 25011G16KT 10SM CLR 20/12 A2989 RMK AO2
KGAG 250053Z AUTO 19004KT 10SM CLR 27/16 A2999 RMK AO2 SLP126 T02670161
KGAI 250055Z AUTO 15005KT 10SM CLR 24/17 A3023 RMK AO1
KGAO 250055Z AUTO 05004KT 10SM CLR 26/26 A3008 RMK AO2 LTG DSNT NW T02600260
KGBD 250055Z AUTO 04009KT 10SM FEW060 23/16 A3003 RMK AO1 LTG DSNT SW
KGBG 250035Z AUTO 00000KT 10SM CLR 26/23 A2997 RMK AO2 T02550228
KGBK 250035Z AUTO 04012KT 10SM SCT026 SCT033 SCT075 31/25 A3007 RMK A01
KGCC 250053Z AUTO 36013KT 10SM SCT060 OVC085 18/05 A3023 RMK AO2 SLP216 T01780050
KGCD 250035Z AUTO 35006KT 10SM CLR 25/M02 A3018 RMK AO2 T02501017
KGCK 250054Z 05019G26KT 10SM CLR 21/16 A3005 RMK AO2 PK WND 05027/0040 SLP148 T02060156
KGCM 250035Z AUTO 18010KT 10SM CLR 31/18 A2999 RMK AO2
KGCN 250054Z 31011G17KT 270V330 10SM -RA BKN070 OVC090 23/03 A3027 RMK AO2 LTG DSNT S RAB2356 SLP166 P0000 T02280028
KGDB 250053Z AUTO 27004KT 10SM CLR 21/18 A3002 RMK AO2 T02100180
KGDJ 250035Z AUTO 14010KT 10SM CLR 33/20 A3001 RMK AO2 T03280200
KGDP 250051Z AUTO 23011KT 10SM CLR 25/14 A3018 RMK AO2 SLP145 T02500139
KGDV 250056Z AUTO 31014G21KT 10SM SCT028 BKN038 OVC046 14/08 A3018 RMK AO2 PK WND 32026/0025 SLP219 T01440078
KGED 250054Z AUTO 16004KT 10SM CLR 21/17 A3022 RMK AO2 SLP232 T02060172
KGEG 250053Z 01010KT 10SM FEW095 SCT130 27/02 A3018 RMK AO2 SLP206 T02670022
KGEU 250047Z 22005KT 20SM FEW080CB SCT180 39/09 A2986 RMK CB DSNT N MOV S, BLDU DSNT N MOV S
KGEV 250040Z AUTO 00000KT 10SM CLR 19/18 A3032 RMK AO2 T01910184
KGEY 250053Z AUTO 34018G29KT 10SM CLR 19/04 A3021 RMK AO2 PK WND 33029/2356 SLP214 T01890044
KGEZ 250053Z AUTO 21008KT 10SM FEW038 25/22 A3004 RMK AO2 RAB05E14 SLP164 P0000 T02500217
KGFA 242358Z AUTO M 10SM BKN060 16/04 A3033 RMK AO2 SLP275 T01590040 10162 20142 57005 TSNO $
KGFK 250053Z 25008KT 10SM FEW080 20/11 A2989 RMK AO2 SLP121 T02000111
KGFL 250053Z AUTO 00000KT 10SM CLR 21/17 A3011 RMK AO2 SLP194 T02110172
KGGE 250055Z AUTO 08003KT 10SM CLR 23/19 A3019 RMK AO2
KGGG 250053Z 13004KT 10SM CLR 29/24 A3005 RMK AO2 SLP169 T02890244 $
KGGI 250055Z AUTO 29005KT 2SM RA SCT029 BKN043 OVC085 23/22 A3000 RMK AO2 P0008 T02280217
KGGP 250035Z AUTO 27004KT 10SM SCT044 23/21 A3001 RMK AO2
KGGW 250053Z AUTO 33016G22KT 10SM BKN037 OVC048 14/08 A3021 RMK AO2 PK WND 33033/0019 SLP234 T01390078
KGHB 250035Z AUTO 08005KT 10SM CLR 30/24 A3008 RMK A01
KGHG 250035Z AUTO VRB05KT 10SM CLR 24/17 A3017 RMK AO2
KGHW 250054Z AUTO 26006KT 10SM CLR 20/13 A3000 RMK AO2
KGIC 250035Z AUTO 02011G16KT 10SM SCT100 SCT120 24/04 A3017 RMK AO1
KGIF 250053Z AUTO 04005KT 10SM CLR 27/22 A3010 RMK AO2 SLP191 T02720222
KGJT 250053Z 33010G15KT 10SM CLR 27/01 A3007 RMK AO2 LTG DSNT E SLP117 CB DSNT ALQDS T02670011
KGKJ 250053Z AUTO VRB05KT 10SM CLR 24/16 A3010 RMK AO2 SLP185 T02390161 TSNO
KGKT 250055Z AUTO 00000KT 10SM CLR 26/21 A3017 RMK
KGKY 250053Z AUTO 14010KT 10SM CLR 31/21 A3002 RMK AO2 SLP155 T03060206
KGLD 250053Z AUTO 07010KT 10SM SCT075 BKN090 18/07 A3016 RMK AO2 SLP183 T01830072
KGLE 250055Z AUTO 17008KT 29/20 A3002 RMK AO2 T02890200
KGLH 250053Z AUTO 00000KT 8SM CLR 29/26 A3008 RMK AO2 SLP191 T02890261
KGLR 250053Z AUTO 23005KT 10SM -RA BKN026 OVC031 23/20 A2991 RMK AO2 RAB07E32B44 SLP122 P0001 T02280200
KGLS 250052Z AUTO 13009KT 10SM CLR 29/25 A3006 RMK AO2 SLP178 T02940250
KGLW 250035Z AUTO 18004KT 10SM CLR 28/23 A3012 RMK AO2 T02750225
KGLY 250055Z AUTO 00000KT 9SM CLR 28/25 A2995 RMK AO2
KGMJ 250055Z AUTO 18009G16KT 10SM CLR 32/20 A3001 RMK AO2
KGMU 250053Z 30003KT 10SM CLR 26/20 A3023 RMK AO2 SLP227 T02560200
KGNA 242356Z AUTO 25003KT 21/19 A2978 RMK AO1 SLP077 T02110194 10228 20211 53003
KGNC 250035Z AUTO 20005KT 10SM BKN110 23/16 A3009 RMK AO2 T02280162
KGNR 242356Z AUTO 18003KT 22/14 A3011 RMK AO1 SLP193 T02170139 10261 20217 50000
KGNT 250035Z AUTO 36010KT 10SM CLR 24/01 A3024 RMK AO2 LTG DSNT SE T02350005
KGNV 250053Z 06006KT 10SM CLR 27/21 A3014 RMK AO2 SLP203 T02670206
KGOK 250053Z AUTO 18009KT 10SM BKN070 32/19 A2995 RMK AO2 SLP129 T03220189
KGON 242356Z 22006KT 10SM CLR 23/19 A3018 RMK AO2 SLP221 T02280189 10283 20228 55001
KGOO 250040Z AUTO 24004KT 10SM CLR 28/00 A3009 RMK AO1
KGOP 250030Z AUTO 15004KT 10SM CLR 30/21 A3005 RMK AO2
KGOV 250054Z AUTO 21006KT 10SM OVC033 25/20 A2992 RMK AO2 T02450200
KGPH 250055Z AUTO 00000KT 10SM SCT048 SCT055 SCT070 26/22 A2996 RMK AO2 LTG DSNT S THRU NW
KGPI 250055Z 04007KT 10SM FEW110 22/01 A3024 RMK AO2 SLP233 T02170011
KGPM 250050Z 13008KT 10SM SKC 31/20 A3003
KGPT 250053Z 05004KT 10SM FEW002 26/24 A3008 RMK AO2 SLP186 T02560244
KGPZ 250056Z AUTO 29008KT 10SM BKN060 21/12 A2994 RMK AO2 SLP138 T02060122
KGRB 250053Z 21004KT 10SM CLR 23/21 A2991 RMK AO2 SLP125 T02280211 $
KGRD 242356Z AUTO 36003KT 10SM CLR 26/21 A3021 RMK AO2 SLP222 T02560211 10294 20256 56011
KGRF 242358Z AUTO 36010KT 10SM CLR 29/10 A3013 RMK AO2 SLP206 T02920103 10296 20232 57016 $
KGRI 250053Z 02007KT 10SM CLR 18/12 A3010 RMK AO2 SLP189 T01830122
KGRK 242358Z AUTO 14010KT 9SM CLR 31/20 A3003 RMK AO2 SLP158 T03100201 10331 20310 57011
KGRR 250053Z 24005KT 10SM FEW016 FEW038 SCT250 24/21 A2995 RMK AO2 SLP138 T02390211
KGRY 250040Z AUTO 05011KT 10SM CLR 30/24 A3008 RMK A01
KGSB 242358Z AUTO 10002KT 10SM CLR 26/18 A3018 RMK AO2 SLP222 T02590180 10302 20258 57002 $
KGSH 250053Z AUTO 20005KT 10SM CLR 23/20 A2998 RMK AO2 SLP146 T02280200
KGSO 250054Z 17006KT 10SM FEW040 BKN060 BKN250 25/18 A3021 RMK AO2 SLP220 T02500183
KGSP 250053Z 00000KT 10SM CLR 24/19 A3021 RMK AO2 SLP219 T02440194
KGTB 242358Z AUTO 16007KT 10SM CLR 26/17 A3005 RMK AO2 SLP173 T02570168 10294 20257 57012
KGTF 250053Z 19003KT 10SM SCT090 17/03 A3033 RMK AO2 SLP264 T01670033
KGTR 250050Z 00000KT 10SM SKC 32/22 A3011
KGTU 250050Z 15008KT 10SM CLR 31/20 A3003
KGUC 250055Z 36014G18KT 340V040 10SM OVC080 18/04 A3030 RMK AO1
KGUL 250035Z AUTO 10007KT 10SM CLR 29/23 A3007 RMK A01
KGUP 250053Z AUTO 33007KT 10SM CLR 23/03 A3022 RMK AO2 SLP107 T02330033
KGUS 242358Z 24005KT 10SM BKN036 BKN100 25/24 A2998 RMK AO2A SLP150 60064 T02500240 10285 20236 53005
KGUY 250053Z AUTO 05006KT 10SM CLR 21/17 A3003 RMK AO2 LTG DSNT W RAE02 SLP128 P0000 T02110172
KGVE 242356Z AUTO 00000KT 10SM CLR 25/21 A3018 RMK AO1
KGVL 250053Z AUTO 06003KT 10SM CLR 24/22 A3024 RMK AO2 SLP227 T02390217
KGVT 250035Z AUTO 18005KT 10SM CLR 30/20 A3004 RMK AO2
KGWB 250035Z AUTO 20003KT 10SM SCT034 SCT046 BKN055 22/21 A2999 RMK AO2
KGWO 250053Z AUTO 00000KT 10SM FEW050 BKN065 29/26 A3009 RMK AO2 SLP188 T02890256
KGWR 250055Z AUTO 29007KT 10SM CLR 21/13 A2998 RMK AO1
KGWW 250045Z AUTO 00000KT 10SM CLR 21/20 A3021 RMK AO2 T02110200
KGXA 242355Z AUTO 30015G23KT 10SM FEW240 34/03 A2999 RMK AO2 SLP103 WND DATA ESTMD T03380031 10360 20277 403610178 56014 $
KGXF 242358Z 18004KT 10SM FEW080 39/09 A2982 RMK AO2A SLP084 T03940089 10396 20350 57025
KGXY 250055Z 25003KT 10SM BKN100 BKN120 18/09 A3023 RMK AO1
KGYB 250035Z AUTO 14003KT 10SM CLR 30/22 A3006 RMK AO2 T02990220
KGYH 250047Z 00000KT 10 SM CLR 25/21 A3022 RMK LAST
KGYI 250030Z AUTO 15010KT 10SM CLR 31/21 A3002 RMK AO2 T03120211
KGYL 250055Z AUTO 00000KT 10SM CLR 20/18 A2998 RMK AO2 P0001 T02020177
KGYR 250047Z 24009KT 10SM SCT110 SCT200 38/11 A2986 RMK CB DSNT NE
KGYY 250045Z 23003KT 10SM FEW035 SCT250 26/23 A2997
KGZH 250053Z AUTO 00000KT 10SM CLR 24/23 A3013 RMK AO2 SLP199 T02440233
KGZL 250035Z AUTO 19009G14KT 10SM CLR 31/13 A3002 RMK AO2
KGZN 250020Z AUTO 16009G15KT 10SM CLR 31/19 A3003 RMK AO2
KHAE 250035Z AUTO 00000KT 10SM CLR 28/21 A2999 RMK AO2
KHAF 250055Z AUTO 33005KT 9SM OVC007 14/14 A3004 RMK AO2
KHAI 250055Z AUTO 00000KT 10SM -RA SCT019 SCT031 BKN080 25/23 A2996 RMK AO2 T02470230
KHAO 250053Z AUTO VRB04KT 10SM FEW110 27/22 A3005 RMK AO2 RAB07E40 SLP172 P0002 T02670222
KHBG 250053Z AUTO 18004KT 10SM CLR 27/24 A3011 RMK AO2 SLP194 T02720239
KHBI 250035Z AUTO 00000KT 10SM CLR 24/19 A3024 RMK AO2 T02370193
KHBR 250053Z AUTO 21010KT 10SM CLR 33/19 A2997 RMK AO2 LTG DSNT SE AND S SLP127 T03280194
KHBV 250035Z AUTO 12017G21KT 10SM CLR 33/21 A2997 RMK AO2 T03280213
KHCD 250053Z AUTO 24003KT 10SM CLR 20/17 A3000 RMK AO2 T02000169
KHCO 250054Z AUTO 27009KT 10SM CLR 20/11 A2986 RMK AO2
KHDC 250035Z AUTO 00000KT 10SM CLR 25/22 A3008 RMK AO2 LTG DSNT SW AND NW
KHDE 250035Z AUTO 05005KT 10SM BKN120 20/12 A3012 RMK AO2 T02040123
KHDN 250055Z AUTO 33006KT 10SM SCT110 22/M03 A3016 RMK AO1
KHDO 250051Z AUTO 12009KT 10SM CLR 31/21 A3001 RMK AO2 SLP144 T03060211 TSNO
KHEF 250045Z 16004KT 10SM CLR 23/20 A3018
KHEI 250053Z AUTO 31020G28KT 10SM CLR 18/06 A3013 RMK AO2 PK WND 31031/0026 SLP199 T01830061
KHEQ 250055Z AUTO 14005KT 10SM CLR 22/05 A3017 RMK AO2
KHEY 250053Z AUTO 03004KT 10SM CLR 29/24 A3012 RMK AO2 SLP086 T02940239
KHEZ 250055Z AUTO 00000KT 10SM CLR 26/23 A3011 RMK AO1 LTG DSNT SE
KHFD 250053Z 17007KT 10SM CLR 25/16 A3016 RMK AO2 SLP214 T02500161
KHFF 242356Z AUTO 11004KT 10SM CLR 27/17 A3020 RMK AO2 SLP239 T02650170 10315 20265 53001 $
KHFJ 250030Z AUTO 17013G17KT 10SM CLR 29/21 A3002 RMK AO2
KHGR 250053Z 15008KT 10SM CLR 26/19 A3016 RMK AO2 SLP218 T02560189
KHHF 250035Z AUTO 20008KT 10SM CLR 29/18 A2998 RMK AO2 T02850181
KHHG 250035Z AUTO 24005KT 10SM BKN043 BKN049 BKN075 A3000 RMK AO2 LTG DSNT NE
KHHR 250053Z 26008KT 10SM CLR 23/17 A2993 RMK AO2 SLP133 T02330172 $
KHHV 250035Z AUTO 11012KT 10SM CLR 31/24 A3004 RMK A01
KHHW 242355Z AUTO 16007KT CLR 32/19 A3003 RMK AO2 T03210194 10343 20321 PWINO
KHIB 250053Z AUTO 28005KT 10SM CLR 19/12 A2991 RMK AO2 SLP128 T01890117
KHIE 250052Z AUTO 00000KT 10SM CLR 18/16 A3015 RMK AO2 SLP208 T01830161
KHIF 242358Z VRB02KT 10SM FEW200 24/M06 A3014 RMK AO2A SLP159 T02421056 10246 20228 57009
KHII 250030Z AUTO 17011G15KT 10SM CLR 41/05 A2977 RMK AO2
KHIO 250053Z 01008KT 10SM CLR 32/07 A3005 RMK AO2 SLP171 T03220072
KHJH 250035Z AUTO 02004KT 10SM SCT090 BKN110 19/15 A3007 RMK AO2 T01850145
KHJO 250053Z AUTO 32007KT 10SM CLR 36/00 A2988 RMK AO2 SLP118 T03560000
KHKA 250053Z AUTO 20006KT 10SM CLR 29/24 A3008 RMK AO2 SLP182 T02890244
KHKS 250053Z 31004KT 10SM CLR 27/23 A3011 RMK AO2 LTG DSNT N TSE29 SLP187 T02670228
KHKY 250053Z 24003KT 10SM FEW070 24/21 A3022 RMK AO2 SLP213 T02440211
KHLC 250053Z AUTO 04006KT 10SM BKN080 19/13 A3011 RMK AO2 SLP180 T01940128 TSNO
KHLG 250053Z 19006KT 10SM CLR 25/18 A3013 RMK AO2 SLP197 T02500183
KHLN 250053Z 35010KT 10SM CLR 19/01 A3032 RMK AO2 SLP264 T01890011
KHLR 242358Z AUTO 18011KT 10SM CLR 32/20 A3001 RMK AO2 SLP151 T03150202 10336 20315 57010
KHLX 250055Z AUTO 18003KT 10SM CLR 21/20 A3029 RMK AO2 T02100200
KHMN 242358Z AUTO 27007KT 10SM CLR 31/07 A3001 RMK AO2 SLP091 T03100066 10320 20270 57016 $
KHMZ 250035Z AUTO 17006KT 10SM CLR 25/18 A3015 RMK AO2 T02500178
KHNB 250055Z AUTO 19006KT 10SM CLR 28/22 A3007 RMK AO1
KHND 250056Z 24011KT 10SM CLR 37/05 A2989 RMK AO2 SLP090 T03720050 $
KHNR 250055Z AUTO 36007KT 6SM -RA FEW085 BKN110 21/19 A3005 RMK AO2 P0001
KHNZ 250040Z AUTO 00000KT 10SM CLR 21/18 A3022 RMK AO2 T02120179
KHOB 250055Z AUTO 20008KT 10SM CLR 23/17 A3010 RMK AO2
KHOE 250035Z AUTO 11004KT 10SM CLR 27/21 A3016 RMK AO2
KHON 250055Z AUTO 22005KT 10SM CLR 21/13 A3002 RMK AO2 SLP164 T02060128
KHOP 242358Z AUTO 19005KT 10SM CLR 30/24 A3009 RMK AO2 SLP185 T03040237 10323 20304 56004
KHOT 250053Z AUTO 19003KT 10SM CLR 30/23 A3008 RMK AO2 SLP179 T03000228
KHOU 250053Z 16006KT 10SM FEW030 SCT250 28/24 A3004 RMK AO2 SLP178 CB DSNT W T02780244
KHPN 242356Z 18004KT 10SM CLR 24/16 A3018 RMK AO2 SLP213 T02390161 10300 20233 56001
KHQG 250055Z AUTO 19005KT 10SM -RA SCT034 BKN043 OVC095 22/17 A3005 RMK AO2 P0002 T02160172
KHQI 250035Z AUTO 08010KT 10SM CLR 30/24 A3005 RMK A01
KHQM 250053Z AUTO 22011KT 8SM CLR 19/15 A3012 RMK AO2 SLP204 T01940150
KHQU 250035Z AUTO 10SM CLR 27/24 A3023 RMK AO1 T02660241
KHQZ 250050Z 13006KT 10SM CLR 29/21 A3003
KHRI 250053Z AUTO 03007KT 10SM CLR 32/06 A3007 RMK AO2 SLP178 T03170056
KHRJ 250040Z AUTO 00000KT 10SM CLR 26/20 A3020 RMK AO2 T02600204
KHRL 250052Z AUTO 13016KT 10SM CLR 30/22 A2997 RMK AO2 SLP149 T03000222
KHRO 250053Z AUTO 17004KT 10SM CLR 26/22 A3008 RMK AO2 SLP170 T02610222
KHRT 242358Z 04003KT 10SM CLR 27/25 A3009 RMK AO2A SLP191 60000 T02740253 10325 20272 55004 $
KHRX 250055Z AUTO 21009G18KT 10SM CLR 28/12 A3006 RMK AO2 T02760118
KHSA 242350Z 00000KT 7SM CLR 25/22 A3009
KHSB 250055Z AUTO 18004KT 10SM CLR 28/25 A3005 RMK AO2 T02750248
KHSD 250035Z AUTO 17012G19KT 10SM BKN060 BKN070 32/20 A2995 RMK A01
KHSE 250051Z AUTO 08005KT 10SM CLR 24/21 A3020 RMK AO2 SLP226 T02440206 TSNO
KHSG 250035Z AUTO 35017G26KT 10SM SCT080 OVC095 17/03 A3024 RMK AO2 T01690028
KHSI 250053Z AUTO 06003KT 10SM CLR 19/13 A3011 RMK AO2 SLP188 T01890133
KHSP 250035Z AUTO 22005KT 10SM CLR 20/18 A3033 RMK AO2 T01960175
KHST 242358Z AUTO 36007KT 10SM CLR 27/24 A3001 RMK AO2 LTG DSNT S-SW SLP165 T02740241 10319 20274 50005
KHSV 250053Z 00000KT 10SM SCT250 31/21 A3013 RMK AO2 SLP194 T03060211
KHTL 250053Z AUTO 22008KT 10SM SCT037 BKN085 24/20 A2993 RMK AO2 SLP133 T02390200
KHTO 250035Z AUTO 00000KT 10SM CLR 21/19 A3020 RMK AO2 T02100185
KHTS 250051Z 18004KT 10SM CLR 26/22 A3012 RMK AO2 SLP192 T02610217
KHUA 242358Z AUTO 26002KT 10SM CLR 32/22 A3012 RMK AO2 LTG DSNT SW SLP193 T03190222 10342 20319 56004
KHUF 250053Z 23006KT 10SM FEW028 FEW038 SCT045 28/24 A3003 RMK AO2 SLP163 T02780239
KHUL 250053Z AUTO 20005KT 10SM CLR 22/18 A3004 RMK AO2 SLP173 T02220178
KHUM 250055Z AUTO 00000KT 10SM BKN039 BKN049 BKN055 27/25 A3008 RMK AO2 LTG DSNT N AND NW T02660249
KHUT 250052Z 02011G18KT 10SM FEW090 24/21 A2999 RMK AO2 SLP132 TCU DSNT E-S T02440211
KHVN 250053Z 21008KT 10SM CLR 24/17 A3019 RMK AO2 SLP223 T02440172
KHVR 250053Z AUTO 32009KT 10SM OVC100 17/07 A3029 RMK AO2 SLP255 T01670067
KHVS 250055Z AUTO 00000KT 10SM CLR 25/17 A3019 RMK AO2
KHWD 250054Z AUTO 29013KT 10SM CLR 19/11 A2998 RMK AO2 SLP162 T01890111
KHWO 242353Z 03008KT 8SM -TSRA BKN019 BKN026 A3003
KHWV 242256Z AUTO 20009KT 10SM CLR 24/19 A3020 RMK AO2 SLP225 T02390189 TSNO
KHWY 250035Z AUTO 15003KT 10SM CLR 24/17 A3018 RMK AO2 T02410172
KHXD 250055Z AUTO VRB05KT 10SM CLR 27/19 A3018 RMK AO2
KHYA 242356Z 23008KT 10SM CLR 23/16 A3018 RMK AO2 SLP222 T02280156 10278 20228 53005
KHYI 250055Z 15005KT 10SM CLR 29/21 A3004 RMK AO1
KHYR 250053Z AUTO 23005KT 10SM CLR 21/14 A2992 RMK AO2 SLP130 T02110144
KHYS 250055Z 02012KT 10SM FEW060 19/13 A3006 RMK AO1
KHYW 250055Z AUTO 00000KT 7SM CLR 22/18 A3019 RMK AO2
KHYX 250054Z AUTO 18004KT 10SM SCT031 BKN039 24/22 A2993 RMK AO2
KHZD 250035Z AUTO 19004KT 10SM CLR 29/25 A3008 RMK A01
KHZE 250035Z AUTO 28017G25KT 10SM BKN080 17/08 A3005 RMK AO2
KHZL 250035Z AUTO 15004KT 10SM CLR 22/16 A3024 RMK AO2 PNO
KHZR 250035Z AUTO 00000KT 10SM CLR 28/26 A3009 RMK AO2 LTG DSNT NE T02750260
KHZX 250052Z AUTO 23003KT 7SM CLR 21/13 A2995 RMK AO2
KHZY 250053Z AUTO 17006KT 10SM CLR 25/19 A3006 RMK AO2 SLP174 T02500194
KI16 250035Z AUTO 10SM CLR 22/19 A3026 RMK AO2 T02200194
KI19 250052Z AUTO 19005KT 10SM CLR 25/22 A3008 RMK AO2
KI35 250035Z AUTO 00000KT CLR 24/21 A3021 RMK AO1
KI63 250035Z AUTO 00000KT 10SM CLR 27/24 A2998 RMK AO2 T02690239
KI67 250055Z AUTO 21005KT 10SM CLR 27/21 A3004 RMK AO1
KI69 250054Z AUTO 21007KT 10SM CLR 27/22 A3006 RMK AO2 T02730219
KI75 250055Z AUTO 00000KT 10SM CLR 21/20 A3001 RMK AO2 T02100195
KIAB 242358Z AUTO 06012KT 10SM SCT080 28/21 A2996 RMK AO2 LTG DSNT SE SLP134 60000 T02800206 10334 20265 53000
KIAD 250052Z 15007KT 10SM SCT250 24/19 A3018 RMK AO2 SLP218 T02440189
KIAG 250053Z 17006KT 10SM SCT055 BKN140 BKN300 25/17 A3003 RMK AO2 SLP164 T02500167
KIAH 250053Z 14006KT 10SM FEW050 FEW110 SCT250 28/23 A3005 RMK AO2 SLP174 T02830233
KIBM 250035Z AUTO 21010KT 10SM CLR 20/06 A3023 RMK AO2 T01950056
KICL 250055Z AUTO 10SM 21/20 A3006 RMK AO2 PWINO
KICR 250053Z AUTO 22005KT 10SM FEW110 21/13 A3011 RMK AO2 SLP188 T02060133
KICT 250053Z 04008KT 10SM SCT080 SCT130 BKN200 27/21 A2997 RMK AO2 SLP134 CB DSNT NE-SE MOV NE ACC DSNT W-NW T02720206
KIDA 250053Z 36015G21KT 10SM BKN120 21/01 A3016 RMK AO2 PK WND 36030/2355 SLP196 FU HZ ALQDS T02060006
KIDI 250055Z AUTO 00000KT 10SM CLR 23/19 A3017 RMK A01
KIDP 250035Z AUTO 19009KT 10SM CLR 32/15 A2994 RMK AO2
KIEN 250052Z AUTO 06006KT 10SM OVC085 21/09 A3016 RMK AO2 SLP202 T02110094
KIER 250035Z AUTO 00000KT 10SM CLR 31/24 A3007 RMK AO2 LTG DSNT S T03100244
KIFA 250055Z AUTO 28004KT 10SM CLR 22/20 A3002 RMK AO2 T02200201
KIFP 250035Z AUTO 18014KT 10SM CLR 42/06 A2975 RMK AO2
KIGM 250051Z AUTO 25007KT 10SM CLR 33/06 A3001 RMK AO2 SLP087 T03330061
KIGQ 250055Z AUTO 22004KT 10SM SCT028 25/21 A2997 RMK AO2 T02500213
KIGX 242356Z AUTO 00000KT 10SM CLR 24/M22 A3022 RMK AO2 SLP227 T02391217 10294 20239 55002 $
KIIB 250055Z AUTO 25003KT 7SM CLR 22/21 A2999 RMK AO2
KIIY 250035Z AUTO 00000KT 10SM CLR 27/25 A3020 RMK AO2
KIJD 250052Z AUTO 18003KT 10SM CLR 23/17 A3019 RMK AO2 SLP220 T02280167
KIJX 250035Z AUTO 17003KT 10SM CLR 28/24 A2998 RMK AO2 T02810240
KIKK 250035Z AUTO 00000KT 10SM CLR 24/22 A2999 RMK AO2 T02440220
KIKT 250035Z AUTO 12014KT 10SM 30/25 A3009 RMK A01
KIKW 250055Z AUTO 26003KT 10SM SCT035 24/21 A2992 RMK AO2 T02410212
KILE 250056Z AUTO 15008KT 10SM CLR 30/22 A3004 RMK AO2 SLP175 T03000217
KILG 250051Z 17007KT 10SM CLR 24/18 A3019 RMK AO2 SLP224 T02390183
KILM 250053Z 02003KT 10SM SCT080 24/18 A3019 RMK AO2 SLP222 T02440183
KILN 250054Z AUTO 19009KT 10SM -RA SCT090 BKN110 25/23 A3006 RMK AO2 RAB16 SLP171 P0000 T02500228
KIML 250053Z AUTO 13007KT 10SM FEW120 21/06 A3015 RMK AO2 SLP188 T02110056
KIMS 250051Z AUTO 20006KT 10SM SCT070 27/22 A3010 RMK AO1
KIMT 250054Z AUTO 25003KT 10SM CLR 22/18 A2988 RMK AO2 SLP114 T02170178
KIND 250054Z 21007KT 10SM FEW030 SCT060 BKN160 BKN250 26/23 A3003 RMK AO2 SLP162 CB DSNT N AND S MOV E T02610233
KINF 250055Z AUTO 05004KT 10SM CLR 27/22 A3012 RMK AO2
KINJ 250035Z AUTO 14008KT 10SM CLR 31/21 A3003 RMK AO2 T03060209
KINK 250053Z AUTO 00000KT 10SM CLR 23/18 A3004 RMK AO2 SLP136 T02280178 TSNO $
KINL 250055Z AUTO 25005KT 10SM BKN070 19/12 A2986 RMK AO2 SLP111 T01940117
KINS 250042Z AUTO 29015G21KT 10SM CLR 35/00 A2993 RMK AO2 WSHFT 35
KINT 250054Z AUTO 15003KT 10SM SCT036 BKN044 25/20 A3023 RMK AO2 SLP225 T02500200
KINW 242356Z AUTO 28013G17KT 10SM CLR 30/05 A3012 RMK AO2 LTG DSNT NE SLP132 T03000050 10317 20256 56012
KIOB 250035Z AUTO 23003KT 10SM CLR 27/22 A3015 RMK AO2
KIOW 250052Z AUTO 36007KT 10SM SCT027 BKN038 BKN055 27/22 A2996 RMK AO2 LTG DSNT SW-NW RAB36E46 SLP140 P0000 T02670217
KIPJ 250040Z AUTO 00000KT 10SM CLR 24/21 A3021 RMK AO2 T02410208
KIPL 250053Z AUTO 14012KT 10SM CLR 42/15 A2973 RMK AO2 SLP069 T04220150
KIPT 250054Z 17010G18KT 10SM FEW065 27/17 A3011 RMK AO2 SLP194 T02670167
KIRK 250055Z AUTO 26003KT 10SM SCT070 25/23 A2999 RMK AO2 SLP152 T02500228
KIRS 250054Z AUTO 00000KT 7SM SCT019 SCT038 BKN070 24/22 A2996 RMK AO2 T02370215
KISM 250056Z 05007KT 10SM CLR 28/23 A3011 RMK AO2 SLP196 T02830233
KISN 250052Z AUTO 34018G26KT 10SM BKN020 BKN025 OVC080 14/09 A3010 RMK AO2 PK WND 33028/2358 SLP195 T01440089
KISO 250056Z 00000KT 10SM CLR 22/20 A3021 RMK AO2
KISP 242356Z 20007KT 10SM SCT260 24/18 A3019 RMK AO2 SLP222 T02390178 10294 20239 53001
KISQ 250055Z AUTO 00000KT 10SM SCT070 20/18 A2984 RMK AO2 T01950181
KISW 250054Z AUTO 28003KT 10SM CLR 22/21 A2995 RMK AO2 SLP137 T02220206
KITH 250056Z 16009KT 10SM FEW100 23/16 A3014 RMK AO2 SLP198 T02330161
KITR 250053Z AUTO 08010KT 10SM CLR 18/03 A3018 RMK AO2 SLP179 T01830028
KIWA 250049Z 32012KT 45SM SCT100 SCT250 37/11 A2989
KIWD 250056Z AUTO 24005KT 10SM CLR 21/17 A2989 RMK AO2 SLP117 T02060167
KIWI 250053Z AUTO 00000KT 10SM CLR 19/16 A3015 RMK AO2 SLP210 T01940156
KIXA 250040Z AUTO 00000KT 10SM CLR 21/18 A3021 RMK AO2
KIXD 250053Z 20015KT 4SM TSRA BKN011 24/20 A2995 RMK AO2 PK WND 28028/0039 WSHFT 0030 LTG DSNT NW-E RAB2354GRB40E43 TSE09B13 SLP132 P0166 T02390200 $
KIYA 250035Z AUTO 00000KT SCT045 29/26 A3008 RMK AO2 LTG DSNT NE T02860257 PWINO
KIZA 250027Z AUTO 28009KT 7SM CLR 21/M31 A2997 RMK AO2
KIZG 250054Z AUTO 21004KT 10SM CLR 21/17 A3013 RMK AO2 SLP201 T02060167
KJAC 242255Z 19007KT 10SM VCFU FEW110 21/M07 A3017
KJAN 250054Z 00000KT 10SM SCT200 27/24 A3010 RMK AO2 SLP188 T02670244
KJAQ 250035Z AUTO 30005KT 10SM CLR 31/06 A3000 RMK AO1 T03060058
KJAS 250035Z AUTO 00000KT 10SM CLR 31/25 A3009 RMK AO2 T03070248
KJAU 250035Z AUTO 00000KT 10SM CLR 26/22 A3021 RMK A01
KJAX 242356Z 07008KT 10SM FEW030 SCT150 SCT250 28/22 A3014 RMK AO2 SLP207 T02780222 10328 20278 53006
KJBR 250053Z AUTO 21007KT 10SM CLR 29/23 A3007 RMK AO2 SLP179 T02940233
KJCA 250035Z AUTO 00000KT 10SM CLR 23/22 A3021 RMK AO2
KJCT 250051Z AUTO 14010KT 10SM CLR 31/18 A3003 RMK AO2 SLP131 T03060183 PWINO
KJDN 250048Z AUTO 33015KT 16/06 A3023 RMK AO1 SLP236 T01610056
KJEF 250053Z 11003KT 10SM CLR 28/24 A2997 RMK AO2 SLP133 T02830244
KJER 250053Z AUTO 28006KT 10SM CLR 24/M01 A3012 RMK AO2 SLP170 T02391011
KJES 250035Z AUTO 00000KT 10SM CLR 26/22 A3017 RMK AO2
KJFK 250051Z 18016G22KT 10SM SCT250 25/21 A3019 RMK AO2 SLP222 T02440217 CHINO W $
KJFX 250055Z AUTO 00000KT 27/26 A3013 RMK AO2 PWINO
KJFZ 250035Z AUTO 21004KT 10SM CLR 23/20 A3028 RMK AO2 T02270198
KJGG 250035Z AUTO 00000KT 10SM CLR 23/17 A3022 RMK AO1
KJHN 250055Z AUTO 35014G18KT 10SM CLR 23/15 A3006 RMK AO2 T02340150
KJHW 250055Z AUTO 19007KT 10SM CLR 22/15 A3012 RMK AO1
KJKA 250035Z AUTO 00000KT 10SM CLR 28/26 A3011 RMK AO2 LTG DSNT W T02810262
KJKJ 250054Z AUTO 28011KT 10SM CLR 21/10 A2995 RMK AO2
KJKL 250053Z AUTO 00000KT 10SM CLR 26/22 A3018 RMK AO2 SLP203 T02560217
KJLN 250053Z 18010KT 10SM CLR 30/19 A2998 RMK AO2 SLP141 T03000189
KJMR 250055Z AUTO 27004KT 10SM CLR 20/14 A2997 RMK AO2
KJMS 242356Z AUTO 29014KT 10SM CLR 21/09 A2997 RMK AO2 SLP147 T02060094 10217 20200 55000
KJNX 250040Z AUTO 00000KT 10SM CLR 22/20 A3020 RMK AO2
KJOT 250035Z AUTO 23003KT 10SM SCT036 SCT043 27/23 A2997 RMK AO2 T02720230
KJQF 250052Z 00000KT 10SM CLR 26/21 A3024
KJRB 250055Z 21004KT 10SM CLR 26/18 A3018 RMK AO1
KJSO 250035Z AUTO 00000KT 10SM CLR 30/24 A3009 RMK AO2 LTG DSNT S T02980244
KJST 250054Z AUTO 18005KT 10SM CLR 23/16 A3020 RMK AO2 SLP212 T02330156
KJSV 250055Z AUTO 17006KT 10SM CLR 31/19 A3003 RMK AO2
KJTC 250035Z AUTO 34004KT 10SM CLR 23/03 A3028 RMK AO2
KJVL 250045Z 22005KT 10SM SCT035 26/23 A2993
KJVW 250055Z AUTO 00000KT 8SM CLR A3010 RMK AO2
KJWG 250055Z AUTO 20009KT 10SM CLR 32/22 A2996 RMK AO2 LTG DSNT E T03210215
KJWN 250055Z AUTO 00000KT 10SM CLR 28/23 A3011 RMK
KJWY 250055Z AUTO 14004KT 10SM CLR 30/22 A3004 RMK AO2 T02950216
KJXI 250035Z AUTO 14003KT 10SM OVC004 30/24 A3006 RMK AO2 T03000242
KJXN 242356Z 21004KT 10SM CLR 24/23 A2997 RMK AO2 SLP144 60088 T02390233 10278 20228 55007
KJYG 250055Z AUTO 27003KT 10SM CLR 17/15 A3002 RMK AO2
KJYL 250055Z AUTO 00000KT 10SM CLR A3018 RMK AO2
KJYM 250054Z AUTO 21004KT 7SM OVC009 24/22 A2999 RMK AO2 T02360221
KJYO 250035Z AUTO 18008KT 10SM CLR 26/21 A3019 RMK AO2
KJYR 250035Z AUTO 35004KT 10SM BKN110 19/17 A3009 RMK AO2
KJZI 250055Z AUTO 00000KT 10SM CLR 26/20 A3018 RMK AO2
KJZP 250035Z AUTO 13005KT 10SM CLR 25/17 A3027 RMK AO2 T02540165
KK88 250035Z AUTO 15006KT 10SM SCT085 SCT110 29/22 A2995 RMK AO1 T02870222
KKLS 250056Z AUTO 35009G15KT 10SM CLR 32/09 A3007 RMK AO2 SLP186 T03220089
KL18 250035Z AUTO 20006KT 10SM CLR 25/16 A2995 RMK AO2
KL35 250035Z AUTO 25010G16KT 10SM CLR 22/00 A3029 RMK AO2
KL38 250035Z AUTO 12003KT 10SM CLR 30/25 A3006 RMK AO2 LTG DSNT N T02960246
KLAA 250053Z AUTO 05011KT 10SM CLR 22/07 A3012 RMK AO2 SLP160 T02170072 TSNO PNO
KLAF 250054Z 27003KT 10SM FEW038 24/23 A3000 RMK AO2 SLP154 T02440228
KLAL 250045Z 07004KT 10SM SKC 28/23 A3009
KLAM 250035Z AUTO 02004KT 10SM CLR 16/08 A3029 RMK AO2 T01600078
KLAN 250053Z 21006KT 10SM FEW021 SCT038 24/22 A2997 RMK AO2 SLP143 T02390217
KLAR 250053Z AUTO 15016G24KT 10SM CLR 14/06 A3026 RMK AO2 RAE14 SLP162 P0000 T01440061 TSNO
KLAS 242356Z 32006KT 10SM SCT120 SCT150 39/03 A2984 RMK AO2 SLP073 HZ VC ALQDS T03890033 10389 20317 56027 $
KLAW 250053Z AUTO 16010KT 10SM CLR 32/18 A2996 RMK AO2 SLP131 T03170183 TSNO
KLAX 250053Z 26008KT 10SM CLR 21/16 A2993 RMK AO2 SLP134 T02110161 $
KLBB 250053Z 14009KT 10SM -RA FEW065 FEW090 BKN110 BKN250 24/16 A3007 RMK AO2 LTG DSNT SE RAB52 SLP140 P0000 T02440156
KLBE 250050Z 18006KT 10SM SKC 24/18 A3014
KLBF 250053Z AUTO 11005KT 10SM CLR 20/11 A3013 RMK AO2 SLP188 T02000111
KLBL 250055Z 27008KT 10SM FEW036 BKN055 OVC065 23/14 A3005 RMK AO1 LTG DSNT NW P0003
KLBT 250054Z AUTO 06003KT 10SM CLR 25/18 A3019 RMK AO2 SLP220 T02500178
KLBX 250053Z AUTO 13005KT 10SM CLR 29/26 A3005 RMK AO2 SLP175 T02940256
KLCG 250035Z AUTO 00000KT 10SM CLR 20/18 A3009 RMK AO2 T02020181
KLCH 250053Z 00000KT 10SM CLR 29/24 A3007 RMK AO2 SLP189 T02940244
KLCI 250056Z AUTO 19005KT 10SM CLR 24/17 A3015 RMK AO2 SLP219 T02440172
KLCK 250035Z AUTO 16005KT 10SM CLR 25/22 A3006 RMK AO2 T02450220
KLCQ 250035Z AUTO 05003KT 10SM CLR 27/21 A3015 RMK AO2
KLDJ 250055Z AUTO 19007KT 10SM CLR 26/17 A3018 RMK AO2 T02550165
KLDM 250055Z AUTO 22007KT 10SM SCT033 BKN039 BKN046 24/22 A2990 RMK AO2 T02360216
KLEB 250053Z 00000KT 10SM CLR 19/17 A3013 RMK AO2 SLP196 T01940172
KLEE 250053Z AUTO 05010KT 10SM CLR 28/22 A3013 RMK AO2 SLP201 T02780217 PWINO
KLEW 250056Z AUTO 15004KT 10SM CLR 21/17 A3013 RMK AO2 SLP215 T02060172
KLEX 250054Z 20008KT 10SM CLR 27/22 A3012 RMK AO2 SLP190 T02720217
KLFI 242358Z AUTO 13005KT 10SM CLR 24/19 A3021 RMK AO2 SLP237 T02420187 10281 20242 55006 $
KLFK 250053Z AUTO 16003KT 10SM CLR 29/24 A3006 RMK AO2 SLP175 T02890239
KLFT 250053Z 10004KT 10SM VCTS FEW040 BKN049 BKN060 28/26 A3008 RMK AO2 RAE06 TSB12E30 SLP184 P0001 T02830261
KLGA 250051Z 18011KT 10SM SCT250 26/18 A3017 RMK AO2 SLP215 T02560178
KLGB 250053Z 30008KT 10SM CLR 25/16 A2991 RMK AO2 SLP129 T02500161
KLGC 250035Z AUTO 00000KT 10SM BKN055 28/25 A3018 RMK AO2 T02830251
KLGD 250055Z AUTO 35014KT 10SM SCT110 26/03 A3013 RMK AO1
KLGU 250051Z AUTO 31006KT 10SM CLR 25/M03 A3009 RMK AO2 SLP156 T02501028
KLHB 250035Z AUTO 00000KT 10SM CLR 31/23 A3003 RMK AO2 T03050230
KLHM 250035Z AUTO 24007KT 10SM CLR 33/08 A2989 RMK AO1
KLHQ 250053Z AUTO 16006KT 10SM CLR 26/22 A3008 RMK AO2 SLP180 T02560217
KLHW 242358Z AUTO 09003KT 10SM CLR 27/20 A3014 RMK AO2 SLP209 T02740198 10322 20274 53002 $
KLHX 250053Z AUTO 04008KT 10SM FEW090 FEW120 23/06 A3017 RMK AO2 SLP168 T02280061
KLHZ 250040Z AUTO 00000KT 10SM CLR 20/19 A3024 RMK AO2
KLIC 250055Z AUTO 10012KT 10SM CLR 19/01 A3023 RMK AO2 SLP178 T01890011
KLIT 250053Z COR 18006KT 10SM FEW250 31/24 A3008 RMK AO2 SLP183 T03060239
KLJF 250053Z AUTO 29004KT 10SM CLR 22/16 A2999 RMK AO2
KLKR 250055Z AUTO 07003KT 10SM FEW075 25/20 A3019 RMK AO2 PWINO
KLKU 250035Z AUTO 00000KT 10SM CLR 22/21 A3019 RMK AO2
KLKV 250055Z 36016KT 10SM CLR 25/M03 A3017 RMK AO1
KLLJ 250055Z AUTO 02012G17KT 10SM CLR 22/M02 A3016 RMK AO2 SLP171 T02171017
KLLQ 250053Z AUTO 00000KT 10SM CLR 29/25 A3009 RMK AO2 SLP185 T02940250
KLMO 250054Z AUTO 00000KT 7SM SCT120 18/11 A3023 RMK AO2 P0001 T01760110
KLMT 250053Z AUTO 33010KT 10SM CLR 28/M03 A3011 RMK AO2 SLP165 T02781028
KLNC 250055Z AUTO 15004KT 10SM CLR 30/22 A3004 RMK AO2 T03030215
KLND 250053Z AUTO 01010KT 10SM BKN095 19/02 A3019 RMK AO2 SLP178 T01940017
KLNK 250054Z 01005KT 10SM CLR 21/18 A3006 RMK AO2 RAE25 SLP171 P0000 T02060178
KLNL 250035Z AUTO 26003KT 10SM SCT027 21/19 A2992 RMK AO2 T02100185
KLNN 250035Z AUTO 18008G15KT 10SM SCT095 27/19 A3002 RMK AO1 T02670188
KLNP 250035Z AUTO 16005KT 10SM CLR 22/16 A3029 RMK AO2
KLNR 242356Z AUTO 28007KT 10SM FEW047 OVC060 27/22 A2993 RMK AO2 SLP125 60000 T02670222 10289 20261 51009
KLNS 250053Z 17005KT 10SM CLR 23/19 A3018 RMK AO2 SLP219 T02330189
KLOL 250053Z AUTO 30008KT 10SM CLR 32/M07 A3002 RMK AO2 SLP129 T03221072
KLOM 250035Z AUTO 21004KT 10SM CLR 23/17 A3018 RMK AO1
KLOR 250053Z AUTO 00000KT 10SM CLR 27/24 A3011 RMK AO2 SLP193 T02720239
KLOT 250035Z AUTO 25005KT 10SM SCT032 BKN041 26/21 A2997 RMK AO2 T02600213
KLOU 250053Z 17004KT 10SM FEW080 29/22 A3009 RMK AO2 SLP183 T02890222
KLOZ 250053Z AUTO 00000KT 10SM CLR 26/22 A3018 RMK AO2 SLP207 T02610217
KLPC 250056Z AUTO 30011KT 10SM CLR 17/13 A2999 RMK AO2 SLP160 T01720133
KLPR 250053Z AUTO 20011KT 10SM FEW065 26/20 A3004 RMK AO2 SLP166 T02610200
KLQK 250055Z AUTO 00000KT 10SM CLR 23/22 A3022 RMK AO2 T02260217
KLRD 250056Z 11010KT 10SM CLR 34/17 A2993 RMK AO2 SLP133 T03390172 $
KLRF 242358Z AUTO 17005KT 10SM CLR 32/26 A3005 RMK AO2 SLPNO T03190255 10340 20319 55006
KLRJ 250055Z AUTO 00000KT 10SM CLR 20/17 A3007 RMK AO2
KLRO 250035Z AUTO 00000KT 10SM CLR 24/21 A3018 RMK AO2
KLRU 250035Z AUTO 27008KT 10SM VCTS SCT095 30/05 A3006 RMK AO2 LTG DSNT NW T03020048
KLSE 250053Z 29004KT 10SM CLR 23/ A2994 RMK AO2 SLP131 T0233
KLSF 242358Z AUTO 06006KT 10SM SCT055 29/23 A3013 RMK AO2 SLP204 T02870229 10348 20284 53002
KLSK 250039Z AUTO 17014G20KT 10SM BKN060 18/08 A3022 RMK AO2 LTG DSNT E THRU S
KLSV 242358Z AUTO 05003KT 10SM CLR 38/08 A2984 RMK AO2 SLP078 T03750083 10376 20310 57029 $
KLTS 250053Z AUTO 15014KT 8SM -TSRA SCT048 BKN060 BKN140 22/18 A2997 RMK AO2 LTG DSNT N AND E-SW RAB05E25DZB25E28DZB35E37RAB37 TSB2359E21TSB37
KLUA 250035Z AUTO 19003KT 10SM SCT055 24/19 A3018 RMK AO2
KLUD 250035Z AUTO 16011KT 10SM CLR 31/19 A3001 RMK AO2 T03060187
KLUF 242358Z AUTO VRB03KT 10SM CLR 39/10 A2984 RMK AO2 SLP090 T03860100 10391 20336 57021 $
KLUK 250053Z 20008KT 10SM FEW045 27/23 A3005 RMK AO2 SLP170 CB DSNT N T02720228
KLUL 250155Z AUTO 19005KT 10SM CLR 27/27 A3010 RMK AO2 T02660266
KLUM 250055Z AUTO 26006KT 10SM CLR 22/14 A2995 RMK AO2 T02210142
KLUX 250055Z AUTO 31003KT 10SM CLR 23/21 A3020 RMK AO2
KLVJ 250053Z AUTO 16005KT 10SM CLR 31/24 A3007 RMK AO2 SLP180 T03060244
KLVK 250053Z AUTO 29011KT 10SM CLR 27/09 A2994 RMK AO2 SLP135 T02720094
KLVL 250035Z AUTO 00000KT 10SM CLR 22/19 A3021 RMK AO1 T02150191
KLVM 250053Z AUTO 08016KT 10SM BKN047 BKN060 OVC085 15/05 A3032 RMK AO2 SLP253 T01500050
KLVN 250053Z AUTO 27004KT 10SM CLR 19/15 A2998 RMK AO2
KLVS 250053Z AUTO 04010KT 10SM FEW027 SCT070 BKN110 13/11 A3026 RMK AO2 LTG DSNT SE RAE53 SLP173 P0002 T01330106
KLWA 250055Z AUTO 00000KT 10SM CLR 25/23 A2995 RMK AO2 T02490232
KLWB 250035Z AUTO 00000KT 10SM CLR 21/19 A3026 RMK AO2 T02080190
KLWC 250040Z AUTO 21061G72KT 3SM -TSRA BR FEW009 SCT035 BKN060 22/20 A2995 RMK AO2 PK WND 22074/0037 WSHFT 0018 LTG DSNT ALQDS RAB25 TSB03 P0036 T02220200 $
KLWD 250053Z AUTO 35005KT 10SM FEW055 SCT110 23/21 A3002 RMK AO2 SLP159 T02280206
KLWM 250054Z 20003KT 10SM CLR 26/16 A3017 RMK AO2 SLP214 T02560161
KLWS 242356Z AUTO 28006KT 10SM CLR 31/03 A3009 RMK AO2 SLP181 T03060028 10306 20222 56018
KLWT 250054Z AUTO 34009G17KT 10SM FEW041 SCT085 15/03 A3033 RMK AO2 SLP257 T01500033
KLWV 250053Z AUTO 18006KT 10SM CLR 27/25 A3004 RMK AO2 SLP168 T02720250
KLXL 250052Z AUTO 25003KT 10SM CLR 21/12 A2998 RMK AO2
KLXN 250035Z AUTO 07006KT 10SM CLR 21/10 A3012 RMK AO2 T02140102
KLXT 250053Z AUTO 03008KT 8SM -TSRA SCT060 BKN090 26/22 A2996 RMK AO2 LTG DSNT ALQDS RAB52 TSB35 SLP137 P0004 T02610217
KLXV 250053Z AUTO 22005KT 10SM SCT100 11/00 A3040 RMK AO2 SLP164 T01110000 $
KLXY 250055Z AUTO 00000KT 10SM CLR 29/22 A3004 RMK AO2 T02910224
KLYH 250054Z 19003KT 10SM SCT047 22/19 A3023 RMK AO2 SLP227 T02220194
KLYV 250056Z AUTO 24003KT 10SM CLR 18/15 A3006 RMK AO2
KLZU 242345Z 00000KT 7SM CLR 26/22 A3020 RMK RWY 25 ATIS M LL
KLZZ 250035Z AUTO 15006KT 10SM CLR 30/22 A3004 RMK AO2 T02980220
KM08 250040Z AUTO 00000KT 10SM CLR 30/25 A3010 RMK A01
KM19 250056Z AUTO 18006KT 10SM CLR 28/26 A3008 RMK AO2 SLP185 T02780256
KM21 250055Z AUTO 17004KT 10SM CLR 26/24 A3009 RMK AO2 T02640237
KM25 250055Z AUTO 00000KT 10SM CLR 27/24 A3009 RMK AO2 PWINO
KM30 250035Z AUTO 20004KT 10SM CLR 29/24 A3007 RMK AO2 T02900240
KM33 250035Z AUTO 00000KT 10SM CLR 29/24 A3015 RMK A01
KM40 250055Z AUTO 00000KT 8SM CLR 28/18 A3012 RMK AO2
KMAE 250053Z AUTO 31009KT 10SM FEW110 34/07 A2989 RMK AO2 SLP118 T03390067
KMAF 250053Z 00000KT 10SM FEW070 25/17 A3006 RMK AO2 SLP139 T02500167
KMAI 250053Z AUTO 11003KT 10SM CLR 30/23 A3011 RMK AO2 SLP193 T03000228
KMAN 250055Z AUTO 27011KT 10SM CLR 28/M03 A3004 RMK A01
KMAO 250055Z AUTO 00000KT 10SM CLR 22/18 A3018 RMK AO2
KMAW 250055Z AUTO 00000KT 10SM CLR 29/24 A3007 RMK AO2
KMBG 250052Z AUTO 31015KT 10SM CLR 24/06 A3002 RMK AO2 SLP157 T02440056
KMBL 250056Z AUTO 26004KT 10SM BKN028 BKN036 24/21 A2990 RMK AO2 SLP137 T02390211
KMBO 250055Z AUTO 00000KT 10SM CLR 25/24 A3010 RMK AO2 LTG DSNT SW PWINO
KMBS 250053Z 21005KT 10SM SCT033 25/23 A2994 RMK AO2 SLP133 T02500228
KMCB 250053Z AUTO 00000KT 10SM CLR 26/23 A3011 RMK AO2 LTG DSNT W AND NW SLP191 T02610233
KMCC 250035Z AUTO 22006KT 10SM CLR 32/10 A2991 RMK AO2
KMCD 250056Z AUTO 23011G16KT 10SM SCT008 SCT021 OVC070 22/22 A2985 RMK AO2 T02150215
KMCE 250053Z AUTO 32010KT 10SM CLR 33/09 A2988 RMK AO2 SLP117 T03330089 TSNO
KMCF 242358Z AUTO 12008KT 10SM CLR 29/26 A3007 RMK AO2 LTG DSNT SE SLP186 60000 T02900255 10320 20290 53011
KMCI 250053Z 04005KT 10SM BKN070 OVC130 26/21 A2996 RMK AO2 LTG DSNT ALQDS SLP135 CB DSNT ALQDS T02610206
KMCJ 250055Z AUTO 13010KT 10SM CLR 30/24 A3003 RMK AO1
KMCK 250053Z AUTO 11005KT 10SM OVC110 21/09 A3013 RMK AO2 SLP188 T02060094
KMCN 250053Z AUTO 00000KT 10SM CLR 27/20 A3016 RMK AO2 SLP209 T02720200 TSNO
KMCO 250053Z 03011KT 10SM FEW024 FEW035 BKN250 28/23 A3010 RMK AO2 SLP192 FRQ LTGIC DSNT SE CB DSNT SE T02780233
KMCW 250053Z AUTO 30006KT 10SM CLR 21/18 A3004 RMK AO2 SLP161 T02060178
KMCX 250055Z AUTO 24004KT 10SM CLR 24/20 A3000 RMK AO2 T02400195
KMDD 250035Z AUTO 00000KT 10SM SCT075 SCT095 26/17 A3007 RMK AO2 T02550165
KMDH 250052Z AUTO 20006KT 10SM CLR 26/23 A3004 RMK AO2 LTG DSNT NW SLP167 T02610233
KMDJ 250035Z AUTO 00000KT 10SM CLR 30/25 A3009 RMK A01
KMDQ 250055Z AUTO 00000KT 10SM CLR 27/20 A3014 RMK AO2
KMDS 250050Z AUTO 25004KT 10SM CLR 20/14 A3006 RMK AO2
KMDT 242356Z 17009KT 10SM FEW120 BKN250 26/20 A3015 RMK AO2 SLP208 T02610200 10300 20261 55006
KMDW 250053Z 22006KT 10SM SCT030 SCT180 BKN250 28/22 A2995 RMK AO2 SLP132 T02780217
KMDZ 250035Z AUTO 26004KT 10SM CLR 21/19 A2994 RMK AO2 T02100191
KMEB 250052Z AUTO 09004KT 10SM CLR 25/17 A3020 RMK AO2 SLP225 T02500172
KMEH 242356Z AUTO 10SM FEW090 SCT100 22/02 A3022 RMK AO2 SLP229 T02220017 10233 20206 56007
KMEI 242358Z 12004KT 10SM CLR 33/23 A3010 RMK AO2 SLP186 T03330233 10367 20333 57003
KMEM 250054Z 21004KT 10SM FEW050 SCT250 31/23 A3009 RMK AO2 SLP185 T03060228
KMER 250045Z 33012KT 10SM SKC 35/09 A2989
KMEV 250035Z AUTO 28013G18KT 10SM CLR 29/M07 A3012 RMK AO2
KMEZ 250055Z AUTO 00000KT 10SM CLR 28/22 A3010 RMK AO2 TSNO
KMFD 250052Z 17013KT 10SM CLR 25/21 A3007 RMK AO2 SLP173 T02500206
KMFE 250053Z 14018KT 10SM CLR 32/21 A2997 RMK AO2 SLP145 T03220211
KMFI 250054Z AUTO 25004KT 10SM CLR 21/18 A2994 RMK AO2 SLP134 T02110183
KMFR 250053Z 35006KT 10SM CLR 35/M05 A2995 RMK AO2 SLP131 T03501050
KMFV 250035Z AUTO 13004KT 10SM CLR 20/16 A3022 RMK AO2 T01990162
KMGC 250035Z AUTO 10SM SCT033 25/22 A2997 RMK AO2
KMGE 242358Z 14006KT 10SM FEW035 FEW100 BKN250 27/22 A3020 RMK AO2A SLP217 60002 T02660221 10271 20242 55007 $
KMGG 250053Z AUTO 28005KT 10SM CLR 21/16 A2999 RMK AO2 T02100157
KMGJ 250054Z AUTO 00000KT 10SM CLR 21/18 A3016 RMK AO2 SLP211 T02060178 TSNO
KMGM 250053Z 00000KT 10SM CLR 28/24 A3012 RMK AO2 SLP195 T02780239
KMGN 250054Z AUTO 26004KT 10SM SCT023 SCT035 BKN055 22/21 A2986 RMK AO2 T02300208
KMGR 250031Z AUTO 00000KT 10SM CLR 28/20 A3015 RMK AO2
KMGW 250053Z 19003KT 10SM CLR 24/18 A3016 RMK AO2 SLP203 T02390178
KMGY 250053Z AUTO 19006KT 10SM FEW095 25/22 A3005 RMK AO2 RAE47 SLP168 P0002 T02500222
KMHE 250053Z AUTO 24005KT 10SM CLR 22/14 A3006 RMK AO2 SLP177 T02170139 $
KMHK 250052Z 02008G16KT 10SM OVC110 22/18 A3001 RMK AO2 LTG DSNT E-S SLP156 T02220183
KMHL 250055Z AUTO 09003KT 10SM CLR 28/25 A2996 RMK AO2
KMHR 250045Z 24006KT 10SM SKC 32/10 A2990
KMHS 250056Z AUTO 00000KT 10SM CLR 29/01 A3005 RMK AO2 SLP168 T02890006
KMHT 250053Z 19004KT 10SM BKN250 26/16 A3014 RMK AO2 SLP214 T02560156
KMHV 250020Z AUTO 28021KT 10SM CLR 33/04 A2997 RMK A01
KMIA 250053Z VRB05KT 10SM FEW022 SCT120 BKN250 28/24 A3002 RMK AO2 SLP165 OCNL LTGIC DSNT N-NE CB DSNT N-NE T02780244
KMIB 242358Z COR 28010KT 10SM -RA FEW030 SCT050 15/13 A2994 RMK AO2 PK WND 30031/32 RAB41E42DZB42E44RAB44 SLP146 P0001 60001 T01490125 10214 20149 52012 COR 0039
KMIC 250053Z 27005KT 10SM CLR 22/13 A2996 RMK AO2 SLP141 T02170128
KMIE 250053Z 21012KT 10SM SCT100 26/23 A3000 RMK AO2 LTG DSNT W SLP146 T02610228
KMIS 250035Z AUTO VRB06G15KT 10SM CLR 30/25 A3007 RMK A01
KMIV 250054Z AUTO 18003KT 10SM CLR 22/17 A3021 RMK AO2 SLP228 T02170172
KMIW 250053Z AUTO 24003KT 8SM FEW018 BKN050 OVC100 23/23 A3000 RMK AO2 SLP153 T02280228
KMJQ 250052Z AUTO 25003KT 10SM CLR 19/15 A3005 RMK AO2
KMJX 250056Z AUTO 18006KT 10SM CLR 22/16 A3021 RMK AO2 SLP233 T02170161
KMKC 250054Z 21003KT 1 3/4SM TSRA BR BKN028 BKN060 OVC100 24/23 A2996 RMK AO2 LTG DSNT ALQDS RAE23B31 TSB20 SLP139 P0037 T02440228
KMKE 250052Z 26006KT 10SM FEW033 FEW150 SCT250 28/22 A2993 RMK AO2 SLP129 TCU DSNT W CB DSNT NW T02830217
KMKG 250055Z 20005KT 10SM CLR 24/22 A2993 RMK AO2 SLP133 T02390222
KMKJ 250035Z AUTO 00000KT 10SM CLR 22/20 A3031 RMK AO2 T02230200
KMKL 250053Z AUTO 18003KT 10SM CLR 28/25 A3010 RMK AO2 SLP186 T02780250
KMKN 250055Z AUTO 16007KT 10SM CLR 30/19 A3002 RMK AO2 T03030192
KMKO 250053Z AUTO 17008G16KT 10SM CLR 30/19 A3001 RMK AO2 SLP152 T03000189
KMKS 250055Z AUTO 00000KT 10SM CLR 23/20 A3018 RMK AO2
KMKT 250055Z 27004KT 10SM CLR 21/16 A3000 RMK AO1
KMKY 250055Z AUTO 02005KT 10SM CLR A3001 RMK AO1
KMLB 250053Z 01003KT 9SM FEW027 BKN035 27/26 A3008 RMK AO2 SLP184 T02720256
KMLC 250053Z AUTO VRB05KT 10SM CLR 29/19 A3002 RMK AO2 SLP156 T02940189
KMLE 250035Z AUTO 00000KT 10SM -RA BKN110 23/17 A3004 RMK AO2 T02250172
KMLF 250052Z AUTO 18004KT 10SM CLR 29/02 A3005 RMK AO2 SLP110 T02890022
KMLI 250052Z 00000KT 10SM FEW080 BKN120 27/22 A2995 RMK AO2 SLP136 T02720217
KMLJ 250035Z AUTO 00000KT 10SM SCT090 27/23 A3017 RMK AO2
KMLP 250053Z AUTO 00000KT 10SM CLR 15/02 A3035 RMK AO2 SLP201 T01500022
KMLS 250053Z AUTO 34018G25KT 10SM BKN055 OVC100 17/04 A3022 RMK AO2 PK WND 33031/0000 SLP230 T01720044
KMLT 250053Z AUTO 00000KT 10SM CLR 21/18 A3009 RMK AO2 SLP191 T02110178
KMLU 250053Z 14004KT 10SM CLR 29/26 A3010 RMK AO2 SLP191 T02890256
KMMH 250035Z AUTO 28013KT 10SM CLR 25/M02 A3027 RMK AO2 T02541024
KMMI 250055Z AUTO 00000KT 10SM CLR 24/22 A3019 RMK
KMMK 250053Z AUTO 18004KT 10SM CLR 23/16 A3018 RMK AO2 SLP218 T02280161 TSNO
KMML 250056Z AUTO 26005KT 10SM CLR 19/16 A3002 RMK AO2 SLP165 T01940156
KMMT 242358Z 00000KT 10SM FEW060 BKN250 28/18 A3018 RMK AO2A SLP220 T02810176 10322 20281 55003 $
KMMU 250045Z 00000KT 10SM FEW150 21/18 A3016
KMMV 250053Z AUTO 01010KT 10SM CLR 33/06 A3004 RMK AO2 SLP172 T03330061
KMNE 250035Z AUTO 00000KT 10SM CLR 30/25 A3008 RMK AO2 T03010251
KMNH 250059Z AUTO 15004KT 10SM VCTS BKN065 12/07 A3033 RMK AO2 LTG DSNT SW AND W
KMNI 250055Z AUTO 00000KT 10SM CLR 23/19 A3018 RMK AO2
KMNM 250056Z AUTO 24003KT 10SM FEW028 BKN035 BKN048 A2988 RMK AO2 SLPNO FZRANO $
KMNN 250053Z AUTO 17009KT 10SM FEW060 25/21 A3005 RMK AO2 SLP171 T02500211
KMNV 250035Z AUTO 00000KT 10SM CLR 26/23 A3018 RMK A01
KMNZ 250055Z AUTO 16008KT 10SM CLR 30/20 A3005 RMK AO2 T02950203
KMOB 242356Z 06004KT 10SM SCT030 SCT080 BKN250 28/24 A3012 RMK AO2 RAE07 SLP196 CB DSNT N AND SE P0000 60016 T02780244 10344 20267 55001
KMOD 250053Z 33010KT 10SM CLR 34/08 A2989 RMK AO2 SLP121 T03390078
KMOP 250038Z AUTO 25004KT 10SM OVC031 25/22 A2993 RMK AO2 T02530215
KMOR 250035Z AUTO 00000KT 10SM CLR 27/22 A3019 RMK A01
KMOT 250054Z 25016G21KT 10SM SCT070 OVC090 17/12 A2996 RMK AO2 RAB27E36 SLP146 P0000 T01670117
KMOX 250053Z AUTO 26005KT 10SM CLR 20/16 A2999 RMK AO2
KMPO 250053Z AUTO 00000KT 10SM CLR 17/14 A3023 RMK AO2 SLP230 T01670144
KMPV 250051Z AUTO 18007KT 10SM CLR 21/14 A3017 RMK AO2 SLP213 T02110139
KMPZ 250035Z AUTO 19004KT 10SM BKN037 BKN100 BKN120 27/26 A2997 RMK AO2 T02700261
KMQB 250055Z AUTO 19003KT 10SM CLR 26/24 A2999 RMK AO2 T02550239
KMQE 242354Z AUTO 21010KT 24/15 A3018 RMK AO1 SLP226 T02390150 10300 20239 53004
KMQI 250040Z AUTO 11003KT 10SM OVC028 25/22 A3021 RMK AO2 T02510215
KMQJ 250054Z AUTO 20006KT 10SM SCT055 SCT065 25/23 A3004 RMK AO1
KMQS 250035Z AUTO 00000KT 10SM CLR 22/17 A3021 RMK AO2
KMQY 250056Z 21006KT 10SM CLR 30/22 A3014
KMRB 250053Z 14003KT 10SM CLR 23/19 A3015 RMK AO2 SLP207 T02330194
KMRC 250055Z AUTO 14003KT 10SM CLR 27/27 A3012 RMK
KMRF 250056Z AUTO 12003KT 10SM CLR A3018 RMK AO2 SLPNO FZRANO $
KMRH 242358Z AUTO 04003KT 8SM -RA FEW034 OVC043 24/23 A3019 RMK AO2 SLP223 P0002 60003 T02440233 10289 20244 55002 TSNO
KMRJ 250030Z AUTO 25003KT 10SM OVC046 26/23 A2997 RMK AO2
KMRN 250040Z AUTO 00000KT 23/22 A3028 RMK AO2 T02280223 PWINO
KMRT 250053Z AUTO 19010KT 10SM CLR 24/23 A3005 RMK AO2 T02400225
KMRY 250054Z 29010KT 10SM CLR 16/12 A3002 RMK AO2 SLP178 T01560122
KMSL 250053Z AUTO 15003KT 10SM CLR 28/23 A3013 RMK AO2 SLP194 T02780233
KMSN 250053Z 25003KT 10SM BKN028 OVC038 26/24 A2993 RMK AO2 RAB20E52 SLP129 P0006 T02560239 $
KMSO 250053Z 20004KT 10SM BKN100 19/08 A3027 RMK AO2 SLP244 T01890083
KMSP 250053Z 29006KT 10SM FEW170 OVC300 22/13 A2997 RMK AO2 SLP145 T02220133
KMSS 250053Z AUTO 00000KT 10SM CLR 21/17 A3003 RMK AO2 SLP167 T02060172
KMSV 250055Z AUTO 21005KT 10SM CLR 21/16 A3021 RMK AO1
KMSY 250053Z 16004KT 10SM FEW020 FEW080 BKN250 29/25 A3008 RMK AO2 SLP189 T02890250 $
KMTC 250021Z 24010KT 10SM FEW025 BKN030 BKN080 OVC150 23/23 A2996 RMK AO2A SHRAE21 CB 15E MOV E
KMTH 250053Z AUTO 05012G17KT 10SM CLR 31/25 A2999 RMK AO2 LTG DSNT NE SLP155 T03060250
KMTJ 250053Z AUTO 00000KT 10SM CLR 23/02 A3015 RMK AO2 SLP142 T02330022
KMTN 250055Z 18004KT 10SM SCT150 26/20 A3019
KMTO 250053Z AUTO 20003KT 10SM BKN032 28/24 A3002 RMK AO2 SLP157 T02780244
KMTP 250054Z AUTO 21005KT 22/19 A3021 RMK AO1 SLP231 T02220194
KMTV 250035Z AUTO 00000KT 10SM OVC050 23/21 A3024 RMK AO2 T02320211
KMTW 242356Z AUTO 27006KT 10SM SCT039 26/21 A2990 RMK AO2 SLP137 T02610211 10283 20261 53006
KMUI 242358Z AUTO 17004KT 10SM CLR 25/19 A3017 RMK AO2 SLP217 T02500187 10290 20250 55004
KMUO 242358Z AUTO 31008G18KT 10SM CLR 28/M05 A3007 RMK AO2 SLP161 T02791049 10281 20241 57009 $
KMUT 250055Z AUTO 00000KT 10SM CLR 27/23 A2995 RMK AO2
KMVE 250052Z AUTO 00000KT 10SM CLR 21/14 A3002 RMK AO2
KMVH 250035Z AUTO 31017G23KT 10SM SCT037 14/03 A3033 RMK AO2
KMVL 250054Z AUTO 20004KT 10SM CLR 18/16 A3011 RMK AO2 SLP197 T01830161 TSNO
KMVN 250055Z AUTO 21003KT 10SM CLR 27/22 A3003 RMK AO1 LTG DSNT W
KMVY 250053Z 24005KT 10SM CLR 21/19 A3021 RMK AO2 SLP227 T02060189 $
KMWA 250035Z AUTO 21006KT 10SM CLR 30/25 A3004 RMK AO2 LTG DSNT NW
KMWC 250045Z 26005KT 10SM SCT050 26/20 A2993
KMWH 250052Z 01006KT 10SM CLR 31/02 A3012 RMK AO2 SLP194 T03060022
KMWK 250040Z AUTO 00000KT 10SM CLR 24/22 A3024 RMK AO2 T02420221
KMWL 250053Z AUTO 16008KT 10SM CLR 31/19 A2999 RMK AO2 SLP142 T03060194
KMWM 250054Z AUTO 27005KT 10SM CLR 19/16 A3003 RMK AO2
KMWN 250053Z 23013KT 100SM SCT160 SCT180 13/07 RMK
KMWO 250035Z AUTO 00000KT 10SM -RA SCT027 SCT037 SCT044 25/22 A3005 RMK AO2 T02510215
KMWT 242353Z AUTO 00000KT 10SM CLR 31/21 A3006 RMK AO2 SLP164 T03060206 10339 20306 56008
KMXF 242358Z AUTO 27004KT 10SM CLR 30/25 A3011 RMK AO2 SLP197 T03030246 10342 20303 56001
KMXO 250055Z AUTO 22004KT 10SM CLR 24/22 A2996 RMK AO2
KMYF 250053Z 27007KT 10SM CLR 24/16 A2994 RMK AO2 SLP134 T02390156
KMYJ 242335Z AUTO 14007KT 7SM SCT037 BKN048 BKN060 29/26 A3000 RMK AO2 PWINO
KMYL 250051Z AUTO 35015G24KT 10SM CLR 21/00 A3017 RMK AO2 PK WND 34028/0037 SLP189 T02110000 $
KMYP 250052Z AUTO 28009KT 10SM VCTS SCT043 SCT050 06/02 A3064 RMK AO2 LTG DSNT NE AND E
KMYR 250045Z 05005KT 10SM SCT080 27/15 A3020
KMYV 250053Z AUTO 15007KT 10SM CLR 32/14 A2989 RMK AO2 SLP124 T03220144
KMYZ 250035Z AUTO 04008KT 3SM +RA SCT018 BKN042 OVC060 18/18 A3006 RMK AO2 P0010
KMZG 250035Z AUTO 12011KT 7SM CLR 34/25 A3002 RMK A01
KMZH 250055Z AUTO 27005KT 10SM CLR 20/13 A2992 RMK AO2
KMZZ 250035Z AUTO 00000KT 5SM BR SCT027 OVC032 23/23 A3002 RMK AO2 P0015 T02300229
KN03 250055Z AUTO 00000KT 10SM CLR 22/15 A3014 RMK AO2
KN38 250035Z AUTO 19011KT 10SM CLR 23/17 A3017 RMK AO2
KN60 250052Z AUTO 28013G23KT 15/11 A3001 RMK AO1 PK WND 31030/2356 SLP165 T01500106
KNAK 250054Z AUTO 18005KT 10SM CLR 26/17 A3018 RMK AO2 SLP222 T02560172
KNBC 242356Z 12004KT 10SM CLR 27/20 A3017 RMK AO2 SLP217 T02720200 10322 20272 55001
KNBG 242355Z 08005KT 10SM FEW040 BKN120 OVC250 27/25 A3007 RMK AO2 RAE23 TSE54 SLP183 OCNL LTGIC DSNT S-SW CB DSNT S-SW T2 SET P0001 60002 T02670250 10339 20267 58006 $
KNCA 250056Z AUTO 04008KT 10SM FEW070 26/19 A3019 RMK AO2 SLP224 T02560189
KNDZ 242356Z 00000KT 6SM BR FEW010 SCT040 SCT120 BKN250 27/27 A3011 RMK AO2 SLP179 60088 T02720267 10344 20256 56005 $
KNEL 250000Z AUTO 18006KT 10SM CLR 24/17 A3018 RMK AO2 SLP219 T02440172 10306 20244 55005
KNEW 250053Z AUTO 09005KT 10SM CLR 28/24 A3009 RMK AO2 RAB2354E25 SLP181 P0001 T02830244
KNFG 250055Z 20008KT 7SM CLR 22/18 A2991 RMK AO2 SLP128 T02170178 $
KNFL 250056Z 06011KT 10SM FEW070 33/M07 A3001 RMK AO2 SLP132 T03281067
KNFW 242352Z 15015KT 10SM CLR 33/19 A3000 RMK AO2 SLP143 T03330194 10350 20328 58009 $
KNGP 250056Z 13015KT 10SM SCT020 BKN250 29/26 A3001 RMK SLP160 T02940256
KNGU 242359Z 11004KT 10SM FEW280 24/18 A3022 RMK AO2 SLP233 T02390178 10283 20239 55005
KNHK 250052Z 17005KT 10SM FEW250 23/16 A3020 RMK AO2 SLP225 T02280156 $
KNID 250056Z 20011G18KT 10SM BKN110 37/03 A2986 RMK AO2 SLP089 FU BKN110 T03720028 $
KNIP 250053Z 06009KT 10SM FEW030 SCT085 BKN250 29/22 A3015 RMK AO2 SLP204 T02940217 $
KNJK 250056Z 13009KT 10SM FEW080 41/12 A2975 RMK AO2 SLP091 T04110122 $
KNJM 242357Z AUTO 05003KT 10SM FEW050 BKN075 27/22 A3019 RMK AO2 SLP227 T02720217 10311 20272 55002
KNKT 250054Z 10003KT 10SM BKN045 BKN070 26/22 A3020 RMK AO2 SLP224 T02560217
KNKX 250055Z 31006KT 10SM FEW015 25/16 A2994 RMK AO2 SLP132 T02500156
KNLC 250056Z 36007KT 10SM CLR 36/06 A2988 RMK AO2 SLP116 RH/15 T03560061
KNMM 242356Z 13003KT 10SM FEW055 FEW180 FEW300 32/23 A3010 RMK AO2 SLP198 T03220228 10356 20322 56005 $
KNOG 242156Z AUTO 15011KT 10SM SCT055 34/23 A3000 RMK AO2 SLP138 T03440233 TSNO $
KNOW 250035Z AUTO 13003KT 10SM CLR 24/11 A3016 RMK AO2 T02360113
KNPA 250056Z 12005KT 10SM FEW040 SCT120 BKN250 28/26 A3011 RMK AO2 SLP198 OCNL LTGIC DSNT W CB DSNT W T02780261
KNQA 250050Z 00000KT 10SM SCT250 31/25 A3009
KNQI 242356Z 12017G23KT 10SM FEW250 31/23 A2998 RMK SLP149 T03060233 10350 20306 56006
KNQX 250053Z 04010KT 10SM FEW030 FEW090 BKN250 29/23 A3000 RMK AO2 SLP157 T2 SET T02890233 $
KNRB 250052Z 06014KT 10SM FEW025 BKN090 BKN250 28/23 A3014 RMK AO2 SLP206 T02780228
KNRS 250056Z 27008KT 10SM FEW015 23/18 A2995 RMK AO2 SLP140 T02280178 $
KNSE 250056Z 00000KT 10SM BCFG FEW040 SCT120 BKN250 25/25 A3013 RMK AO2 SLP186 T02500250 $
KNSI 242357Z AUTO 29023G27KT 10SM CLR A2997 RMK AO2 PK WND 30028/2306 SLPNO 58015 PWINO $
KNTD 250056Z 27012KT 7SM CLR 20/15 A2994 RMK AO2 SLP139 T02000150 PNO $
KNTU 250056Z 10003KT 10SM FEW280 26/18 A3021 RMK AO2 SLP232 T02560183
KNUC 250037Z 27013KT 9SM BKN009 19/14 A2998
KNUI 250053Z AUTO 17007KT 10SM CLR 24/16 A3019 RMK AO2 SLP224 T02440161
KNUQ 242356Z AUTO 34010KT 10SM CLR 22/14 A3000 RMK AO2 SLP160 T02170139 10233 20194 56020
KNUW 242356Z 26007KT 10SM FEW035 FEW090 SCT250 23/11 A3020 RMK AO2 SLP224 FU FEW035 T02330106 10239 20194 56017 $
KNXF 242356Z AUTO 28009KT 7SM CLR 23/19 A2994 RMK AO2 SLP221 T02330189 10244 20222 56017 $
KNXP 250056Z 23019KT 10SM BKN100 37/01 A2994 RMK AO2 SLP098 T03670011
KNYC 250051Z 26/18 SLPNO $
KNYG 242356Z AUTO 15012KT 10SM CLR 27/20 A3018 RMK AO2 SLP221 T02670200 10294 20267 55006
KNYL 242357Z 19011KT 10SM FEW080 40/16 A2979 RMK AO2 SLP084 T04000156 10411 20350 56025
KNZY 250052Z 32009KT 9SM FEW012 22/18 A2993 RMK AO2 SLP135 T02220178 $
KO22 250035Z AUTO 23005KT 10SM CLR 32/M03 A2999 RMK AO1
KO69 250035Z AUTO 31006KT 10SM CLR 18/M41 A3002 RMK AO1
KO86 250030Z AUTO 15008KT 10SM CLR 33/05 A2997 RMK AO1
KOAJ 250056Z AUTO 00000KT 10SM CLR 23/20 A3020 RMK AO2 SLP229 T02280200
KOAK 250053Z 29013KT 10SM FEW010 18/13 A2999 RMK AO2 SLP156 T01830128
KOBE 250055Z AUTO 00000KT 10SM TS SCT043 BKN050 OVC060 25/24 A3008 RMK AO2 LTG DSNT E AND SE
KOCF 250055Z AUTO 04005KT 10SM CLR 28/19 A3013 RMK AO1
KOCH 250055Z 12004KT 10SM CLR A3005 RMK AO1
KOCQ 250035Z AUTO 23003KT 10SM CLR 23/20 A2987 RMK AO1 T02250197
KOCW 250040Z AUTO 07004KT 10SM CLR 23/18 A3020 RMK AO2 T02300178
KODO 250053Z AUTO 00000KT 10SM CLR 24/17 A3007 RMK AO2 SLP142 T02440167
KODX 250053Z AUTO 00000KT 10SM CLR 21/13 A3008 RMK AO2 SLP185 T02110128
KOEB 250054Z AUTO 00000KT 10SM CLR 24/23 A2997 RMK AO2 T02350227
KOEO 250035Z AUTO 27006KT 10SM CLR 21/14 A2999 RMK AO2 T02070137
KOFF 242358Z 36006KT 10SM -RA BKN060 BKN100 OVC120 22/18 A3002 RMK AO2A RAE46RAB52 SLP164 P0001 60002 T02170178 10267 20217 55008
KOFK 242356Z AUTO 00000KT 10SM CLR 22/15 A3008 RMK AO2 SLP181 T02170150 10233 20206 55003
KOFP 250054Z AUTO VRB04KT 10SM CLR 23/17 A3022 RMK AO2 SLP232 T02280172
KOGA 250035Z AUTO 09006KT 10SM CLR 23/04 A3014 RMK AO2 T02270044
KOGB 250053Z AUTO 00000KT 10SM CLR 27/18 A3018 RMK AO2 SLP217 T02670178
KOGD 250053Z 00000KT 10SM CLR 25/M06 A3009 RMK AO2 SLP144 T02501056
KOJA 250035Z AUTO 20007KT 10SM SCT055 SCT065 32/20 A2996 RMK AO2
KOJC 250055Z 32028G43KT 1 1/4SM +TSRA BR FEW009 BKN045 OVC065 22/21 A3000 RMK AO2 PK WND 33043/0055 LTG DSNT ALQDS P0017 T02170206
KOKB 250052Z AUTO 24007KT 9SM CLR 23/17 A2992 RMK AO2 SLP130 T02330172
KOKC 250052Z 17013KT 10SM SCT065 SCT250 31/19 A2997 RMK AO2 SLP131 T03060194
KOKK 241915Z AUTO 22006KT 7SM TS SCT025 BKN030 OVC050 25/21 A3003 RMK AO1 LTG DSNT ALQDS P0022
KOKM 250035Z AUTO 16011G21KT 10SM CLR 32/19 A2998 RMK AO2 T03160193
KOKV 250035Z AUTO 16004KT 10SM CLR 25/19 A3017 RMK AO2
KOKZ 250035Z AUTO 10005KT 10SM CLR 29/22 A3017 RMK AO2 T02860215
KOLE 250035Z AUTO 21003KT 10SM CLR 21/14 A3015 RMK AO2
KOLF 250053Z AUTO 33012G17KT 10SM SCT060 OVC070 16/08 A3018 RMK AO2 PK WND 33027/2354 SLP222 T01560078
KOLG 250035Z AUTO 25004KT 10SM CLR 20/13 A2991 RMK AO1
KOLM 250054Z 03011KT 10SM CLR 29/07 A3012 RMK AO2 SLP199 T02940067
KOLS 250054Z AUTO 29005KT 10SM CLR 30/09 A3007 RMK AO2 SLP120 T03000089
KOLU 250055Z AUTO 35004KT 10SM CLR 19/12 A3008 RMK AO2 PWINO FZRANO RVRNO
KOLV 250050Z 00000KT 10SM SKC A3010
KOLY 250035Z AUTO 19004KT 10SM CLR 28/26 A3003 RMK AO2 LTG DSNT N
KOLZ 250055Z AUTO 30005KT 8SM FEW170 23/22 A2999 RMK AO2
KOMA 250052Z 01005KT 10SM BKN100 BKN200 21/18 A3003 RMK AO2 RAE46 SLP161 P0000 T02110178
KOMH 250035Z AUTO 00000KT 10SM 24/20 A3021 RMK AO2
KOMK 250053Z AUTO 36012KT 10SM CLR 31/M04 A3013 RMK AO2 SLP198 T03061039
KOMN 242250Z 03017G22KT 10SM SCT027 29/23 A3010 RMK LAST
KONA 250053Z AUTO 30004KT 10SM CLR 23/16 A2996 RMK AO2
KONL 250035Z AUTO 30003KT 10SM CLR 21/12 A3011 RMK AO2 T02100118
KONM 250035Z AUTO 03006KT 10SM VCTS CLR 26/07 A3012 RMK AO2 T02590071
KONO 250053Z AUTO 33009KT 10SM CLR 30/M02 A3004 RMK AO2 SLP159 T03001022
KONP 250035Z AUTO 34013KT 10SM CLR 17/12 A3009 RMK AO2
KONT 250053Z 23011KT 10SM CLR 31/14 A2991 RMK AO2 SLP113 T03060144 $
KONX 250040Z AUTO 00000KT 10SM 24/20 A3022 RMK AO2 T02400199
KONZ 250054Z AUTO 21007KT 10SM OVC028 26/22 A2996 RMK AO2 T02620224
KOOA 250055Z AUTO 01006KT 10SM SCT011 BKN070 OVC080 19/18 A2999 RMK AO2 P0011 T01880178
KOPF 250053Z 02007KT 10SM VCTS FEW020 27/24 A3002 RMK AO2 LTG DSNT N SLP168 T02720244
KOPL 250035Z AUTO 23003KT 10SM CLR 26/25 A3009 RMK AO2 LTG DSNT NE T02630248 PWINO
KOPN 250035Z AUTO 05003KT CLR 26/20 A3020 RMK AO2 PWINO
KOQT 242053Z AUTO VRB03KT 10SM FEW038 32/20 A3019 RMK AO2 SLP205 T03170200 58023
KOQU 250050Z 23011KT 10SM SCT250 23/16 A3019
KORB 250053Z AUTO 00000KT 10SM CLR 19/11 A2986 RMK AO2
KORC 250055Z AUTO 00000KT 10SM CLR 19/17 A3007 RMK AO2
KORD 250051Z 26007KT 10SM FEW035 SCT200 BKN250 26/22 A2996 RMK AO2 SLP139 T02610222 $
KORE 250052Z AUTO 20003KT 10SM CLR 21/17 A3017 RMK AO2 SLP216 T02060172
KORF 250051Z AUTO 12004KT 10SM CLR 23/19 A3021 RMK AO2 SLP231 T02330189
KORG 250035Z AUTO 19004KT 10SM CLR 30/22 A3008 RMK AO2 T02960217
KORH 250054Z 21009KT 10SM CLR 22/15 A3020 RMK AO2 SLP224 T02170150
KORL 250053Z AUTO 05007KT 10SM FEW065 28/23 A3011 RMK AO2 SLP198 T02780233
KORS 250055Z AUTO 35005KT 10SM CLR 23/12 A3014 RMK AO2
KOSA 250035Z AUTO 13003KT 10SM CLR 30/23 A3007 RMK AO1 T03020227
KOSC 250054Z AUTO 20007KT 10SM BKN095 24/21 A2990 RMK AO2 T02360205
KOSH 250053Z 00000KT 10SM CLR 24/21 A2992 RMK AO2 SLP120 T02390211
KOSU 250053Z 17009KT 10SM CLR 26/22 A3006 RMK AO2 RAE08 SLP172 P0000 T02560222
KOTG 250056Z AUTO 25004KT 10SM CLR 18/16 A3006 RMK AO2 SLP177 T01830161
KOTH 250055Z 33009KT 10SM CLR 18/12 A3006 RMK AO1
KOTM 250053Z AUTO 33010KT 3SM -RA BR FEW022 BKN033 OVC060 20/19 A3000 RMK AO2 PK WND 33031/0029 WSHFT 0028 LTG DSNT N AND NE RAB36 SLP152 P0027 T02000189
KOUN 250035Z AUTO 17010KT 10SM CLR 31/20 A2999 RMK AO2
KOVE 250053Z AUTO 19007KT 10SM CLR 32/10 A2990 RMK AO2 SLP127 T03220100
KOVL 250053Z AUTO 30003KT 10SM CLR 21/16 A3000 RMK AO2
KOVS 250053Z AUTO 22004KT 10SM SCT026 BKN035 26/23 A2994 RMK AO2 SLP137 T02560228
KOWA 250055Z AUTO 24004KT 10SM CLR 20/17 A3001 RMK AO2
KOWB 242356Z 20008KT 10SM CLR 30/25 A3006 RMK AO2 58004 T03000250 10327 20305 SLP175
KOWD 250053Z AUTO 17004KT 10SM CLR 22/16 A3017 RMK AO2 SLP215 T02220156
KOWP 250035Z AUTO 18006G14KT 10SM SCT075 33/17 A2997 RMK AO2 T03340172
KOXB 250053Z AUTO 18003KT 10SM CLR 24/17 A3022 RMK AO2 SLP233 T02390167 TSNO
KOXC 250050Z 18004KT 10SM SCT250 22/15 A3022
KOXI 250055Z AUTO 25005KT 10SM CLR 23/11 A2998 RMK AO1
KOXR 250051Z AUTO 27012KT 9SM CLR 19/15 A2993 RMK AO2 SLP134 T01890150 TSNO $
KOXV 250055Z AUTO 00000KT 10SM FEW170 21/19 A2996 RMK AO2
KOZA 250035Z AUTO 16013KT 10SM CLR 30/15 A3006 RMK AO2 LTG DSNT W
KOZR 250056Z AUTO 03005KT 10SM CLR 28/24 A3012 RMK AO2 SLP199 T02770243
KOZS 250055Z AUTO 15005KT 10SM CLR 27/23 A3001 RMK AO2
KOZW 250054Z AUTO 19004KT 10SM SCT027 BKN046 OVC060 24/22 A2998 RMK AO2 T02380222
KP08 250035Z AUTO VRB05KT 10SM CLR 37/09 A2991 RMK AO2 LTG DSNT N
KP28 242356Z AUTO 15005KT 28/18 A2994 RMK AO1 SLP122 T02780178 10306 20278 58007
KP53 242256Z AUTO 33007KT 22/21 A2980 RMK AO1 SLP090 P0006 T02170206
KP58 242251Z AUTO 23009G17KT 180V260 24/22 A2992 RMK AO1 SLP124 P0002 T02440222
KP59 250051Z AUTO 00000KT 22/18 A2980 RMK AO1 SLP085 T02170183
KP60 250056Z AUTO VRB03KT 09/04 A3036 RMK AO1 SLP257 T00940039
KP68 250053Z AUTO 32010G18KT 28/M09 A3014 RMK AO1 SLP138 T02781089
KP69 250052Z AUTO 35003KT 22/11 A3010 RMK AO1 SLP182 T02220106
KP92 242353Z AUTO 00000KT 31/25 A3006 RMK AO1 SLP178 T03110250 10333 20311 56006 $
KPAE 250053Z 35008KT 320V020 10SM CLR 27/11 A3016 RMK AO2 SLP211 T02670106
KPAH 250053Z 20004KT 10SM CLR 28/23 A3006 RMK AO2 SLP174 T02830228
KPAM 250056Z AUTO 00000KT 10SM CLR 26/25 A3011 RMK AO2 SLP199 T02610252 $
KPAN 250055Z AUTO 00000G12KT 10SM -RA FEW070 BKN090 17/12 A3022 RMK AO2 LTG DSNT E AND SW
KPAO 242347Z 32012KT 10SM SKC 21/15 A2999
KPBF 250053Z AUTO 17004KT 10SM CLR 29/24 A3008 RMK AO2 SLP181 T02890239
KPBG 250053Z AUTO 00000KT 10SM CLR 23/18 A3005 RMK AO2 SLP174 T02280178
KPBH 250055Z AUTO 00000KT 10SM CLR 20/16 A2992 RMK AO2 T02000164
KPBI 250053Z 04009KT 10SM FEW016 SCT029 BKN200 29/25 A3005 RMK AO2 RAE2358 SLP174 OCNL LTGIC DSNT N SE CB DSNT N SE P0000 T02940250
KPBX 250035Z AUTO 00000KT 10SM CLR 26/22 A3019 RMK AO2 T02580220
KPCM 250055Z AUTO 00000KT 10SM SCT041 28/25 A3010 RMK AO2
KPCW 250053Z AUTO 19011KT 10SM FEW060 SCT110 27/23 A2998 RMK AO2
KPCZ 250035Z AUTO 00000KT 10SM SCT034 25/23 A2992 RMK AO2 T02470225
KPDC 250035Z AUTO 27004KT 10SM SCT021 BKN038 OVC046 25/21 A2994 RMK AO2 T02480214
KPDK 250053Z 00000KT 10SM CLR 25/22 A3021 RMK AO2 SLP210 T02500217
KPDT 250053Z 36010KT 10SM FEW100 29/04 A3010 RMK AO2 SLP179 T02890044
KPDX 250053Z 34011G17KT 10SM FEW070 FEW200 32/08 A3004 RMK AO2 SLP171 T03220083
KPEO 250053Z AUTO 20006KT 10SM CLR 26/16 A3010 RMK AO2 SLP184 T02560156 TSNO
KPEQ 250035Z AUTO 12006KT 10SM CLR 24/18 A3003 RMK AO2 T02400182
KPEX 250054Z AUTO 27004KT 10SM CLR 19/15 A3000 RMK AO2 T01900150
KPEZ 250055Z AUTO 10006KT 10SM CLR 31/21 A2999 RMK AO2 P0001 T03050210
KPGA 250053Z AUTO 26003KT 10SM CLR 29/03 A3005 RMK AO2 SLP114 T02890033 TSNO
KPGD 250053Z 06010KT 10SM -RA FEW045 25/23 A3005 RMK AO2 RAB38 SLP176 P0000 T02500233
KPGV 250045Z AUTO 00000KT 10SM CLR 22/20 A3021 RMK AO2
KPHD 250053Z AUTO 19003KT 10SM FEW060 27/19 A3010 RMK AO2 SLP187 T02670194
KPHF 250054Z 10003KT 10SM CLR 21/18 A3022 RMK AO2 SLP231 T02110178
KPHL 250054Z 19011KT 10SM BKN250 24/16 A3019 RMK AO2 SLP223 T02440161
KPHN 250055Z AUTO 19010G14KT 7SM -RA BKN008 BKN013 OVC030 23/22 A2997 RMK AO2
KPHP 250055Z AUTO 33006KT 10SM CLR 22/09 A3009 RMK AO2 SLP178 T02220094
KPHT 250055Z AUTO 17004KT 10SM CLR 26/23 A3010 RMK
KPHX 250051Z VRB03KT 10SM SCT100 SCT170 BKN250 38/11 A2985 RMK AO2 LTG DSNT NW-NE SLP085 CB DSNT NW-NE T03830111
KPIA 250054Z 00000KT 10SM CLR 27/23 A2998 RMK AO2 SLP144 T02720228
KPIB 250055Z AUTO 16007KT 10SM CLR 28/23 A3012 RMK AO1
KPIE 250053Z 10009KT 10SM FEW040 29/23 A3007 RMK AO2 LTG DSNT W SLP183 T02890233
KPIH 250053Z 32005KT 10SM CLR 24/M02 A3013 RMK AO2 SLP170 T02441022
KPIL 250053Z AUTO 14015KT 9SM CLR 29/24 A2999 RMK AO2 SLP154 T02940239
KPIM 250035Z AUTO 07003KT 10SM CLR 28/24 A3019 RMK AO2 T02760242
KPIR 250053Z AUTO 30004KT 10SM CLR 22/09 A3004 RMK AO2 SLP166 T02220089
KPIT 250051Z 20004KT 10SM SCT150 BKN250 26/17 A3012 RMK AO2 SLP199 T02610172
KPKB 250053Z 16005KT 8SM CLR 25/21 A3014 RMK AO2 SLP200 T02500206
KPKD 250053Z AUTO 27006KT 10SM CLR 19/12 A2995 RMK AO2 SLP139 T01940122 TSNO
KPKV 250035Z AUTO 12008KT 10SM CLR 29/26 A3003 RMK AO2 T02900256
KPLN 250054Z AUTO 25007KT 10SM FEW014 23/20 A2986 RMK AO2 SLP111 T02280200
KPLU 250035Z AUTO VRB06G12KT CLR 29/10 A3014 RMK AO2
KPMD 250053Z AUTO 24016KT 10SM CLR 33/08 A2997 RMK AO2 SLP120 T03280083
KPMP 250053Z 01005KT 10SM VCTS BKN021 BKN031 29/26 A3003 RMK AO2 LTG DSNT SW SLP169 T02890256 $
KPMU 250055Z AUTO 00000KT 10SM CLR 28/25 A3011 RMK AO2 T02830245
KPMV 250035Z AUTO 00000KT 10SM OVC100 21/19 A3005 RMK AO2 T02060192
KPNA 250035Z AUTO 07003KT 10SM CLR 19/M11 A3020 RMK AO2
KPNC 250053Z AUTO 28005KT 6SM VCTS -RA BR FEW041 SCT070 BKN110 22/20 A2996 RMK AO2 PK WND 23039/2356 WSHFT 2340 LTG DSNT ALQDS RAE41B49 TSE38 SLP135 P0044 T02220200
KPNE 250054Z 20007KT 10SM CLR 26/18 A3020 RMK AO2 SLP225 T02610178
KPNM 250054Z AUTO 24004KT 10SM CLR 21/15 A2997 RMK AO2
KPNS 250053Z 00000KT 8SM CLR 27/24 A3012 RMK AO2 SLP200 T02670244
KPNT 250035Z AUTO 00000KT 10SM CLR 25/23 A3000 RMK AO2 T02520230
KPOB 242358Z AUTO 10003KT 10SM CLR 27/18 A3019 RMK AO2 SLP225 T02690181 10304 20269 55005
KPOC 250047Z 26010KT 10SM CLR 29/12 A2996
KPOE 242358Z AUTO 17005KT 10SM VCTS CLR 32/24 A3006 RMK AO2 LTG DSNT E SLP178 T03240238 10338 20320 56006
KPOF 250053Z AUTO 19006KT 10SM CLR 28/24 A3005 RMK AO2 SLP170 T02830244 TSNO $
KPOU 250053Z 00000KT 10SM CLR 23/18 A3014 RMK AO2 SLP201 T02280183
KPOV 250056Z AUTO 00000KT 10SM CLR 25/18 A3009 RMK AO2 T02520176
KPOY 250035Z AUTO 31013KT 10SM BKN055 12/04 A3031 RMK AO2
KPPA 250035Z AUTO 19012G21KT 10SM CLR 28/11 A3003 RMK AO2 T02830112
KPPF 250052Z AUTO VRB06KT 10SM CLR 31/19 A2996 RMK AO2 SLP132 T03060194
KPPO 250035Z AUTO 21004KT 10SM CLR 25/25 A2998 RMK AO2 T02520252
KPPQ 250035Z AUTO 19003KT 10SM CLR 29/24 A3000 RMK AO2 T02860240
KPQI 250056Z AUTO 19003KT 10SM CLR 21/18 A3003 RMK AO2 SLP205 T02110178
KPQL 250053Z AUTO 35003KT 10SM CLR 26/26 A3010 RMK AO2 SLP193 T02610261 TSNO
KPQN 250021Z AUTO 21001KT 10SM CLR 20/16 A3004 RMK AO2
KPRB 250053Z AUTO 20010KT 10SM CLR 29/09 A2993 RMK AO2 SLP127 T02890089 TSNO
KPRC 250053Z 16007KT 10SM VCTS SCT085 23/11 A3019 RMK AO2 LTG DSNT S-W RAE12 SLP154 P0000 T02280111
KPRG 250035Z AUTO 00000KT 10SM CLR 26/25 A3003 RMK AO2 LTG DSNT SW T02620250
KPRN 242356Z AUTO 31003KT 10SM CLR 27/24 A3012 RMK AO2 TSE03 SLP192 60005 T02670239 10350 20267 58005
KPRO 250055Z AUTO 35007KT 10SM SCT120 23/19 A2999 RMK AO2 T02250187
KPRS 250015Z AUTO 07009KT 10SM CLR 31/16 A3001 RMK AO2 LTG DSNT E T03050160
KPRX 250055Z 16007KT 10SM CLR 29/21 A3005 RMK AO1
KPSC 250053Z 33011KT 10SM CLR 30/09 A3007 RMK AO2 SLP180 T03000089
KPSF 250054Z AUTO 00000KT 10SM CLR 19/14 A3017 RMK AO2 SLP197 T01940144
KPSK 250035Z AUTO 19003KT 10SM BKN037 24/21 A3028 RMK AO2 T02380207
KPSM 242358Z 19003KT 10SM BKN250 24/16 A3012 RMK AO2A SLP203 T02350161 10310 20234 53002
KPSN 250055Z AUTO 00000KT 10SM CLR 28/25 A3006 RMK AO2 T02850255
KPSO 250055Z AUTO 00000KT 10SM SCT040 SCT047 14/07 A3032 RMK AO2 LTG DSNT N SE AND S T01390065
KPSP 250053Z 12006KT 10SM CLR 41/08 A2979 RMK AO2 SLP083 T04060078
KPSX 250053Z AUTO 13009KT 10SM CLR 29/24 A3003 RMK AO2 SLP170 T02890239
KPTB 250035Z AUTO 00000KT 7SM CLR 22/19 A3021 RMK AO2 T02190189
KPTK 250053Z 23007KT 10SM FEW010 BKN014 BKN030 OVC250 24/22 A2997 RMK AO2 RAB44E52 SLP144 P0000 T02390222
KPTN 250056Z AUTO 23004KT 10SM CLR 29/27 A3008 RMK AO2 SLP186 T02890267
KPTS 250055Z AUTO 19005KT 10SM CLR 29/20 A2996 RMK AO2 T02920198
KPTT 250035Z AUTO 04009KT 10SM BKN100 25/19 A3000 RMK AO2 T02460190
KPTV 250056Z AUTO 33006KT 10SM CLR 36/07 A2990 RMK AO2 SLP128 T03560072
KPTW 250054Z AUTO 00000KT 10SM CLR 22/17 A3020 RMK AO2 SLP222 T02220167
KPUB 250053Z 22007KT 10SM BKN100 20/13 A3020 RMK AO2 SLP184 T02000128
KPUC 250053Z AUTO 33014G20KT 10SM CLR 27/M06 A3011 RMK AO2 SLP127 T02671056
KPUJ 250035Z AUTO 00000KT 7SM CLR 27/23 A3021 RMK AO2
KPUW 250053Z AUTO 36003KT 10SM SCT090 26/04 A3017 RMK AO2 SLP210 T02610039
KPVB 250035Z AUTO 29004KT 7SM SCT047 25/23 A2997 RMK AO1 T02490232
KPVC 250056Z AUTO 20009KT 10SM CLR 21/18 A3019 RMK AO2 SLP221 T02110183
KPVD 250051Z 21006KT 10SM FEW250 22/16 A3019 RMK AO2 SLP223 T02220161
KPVE 250055Z AUTO 00000KT 10SM CLR 27/26 A3010 RMK
KPVF 250035Z AUTO 23004KT 10SM CLR 29/01 A3006 RMK AO1
KPVG 250055Z 13003KT 10SM CLR 19/16 A3024 RMK AO1
KPVJ 250055Z AUTO 15008KT 10SM CLR 30/21 A2998 RMK AO2 T03010212
KPVU 250047Z 32007KT 10SM FEW200 26/M03 A3009
KPVW 250035Z AUTO 21010KT 10SM SCT110 23/16 A3006 RMK AO2 T02340155
KPWA 250053Z 18016KT 10SM FEW065 31/19 A2997 RMK AO2 SLP130 T03110194
KPWC 250053Z AUTO 00000KT 10SM CLR 20/13 A2998 RMK AO2
KPWG 250056Z AUTO 15006KT 10SM CLR 31/22 A3003 RMK AO2 SLP173 T03110217
KPWK 250052Z 25003KT 10SM CLR 27/22 A2996 RMK AO2 SLP140 T02720217
KPWM 250051Z 20005KT 10SM SCT250 22/16 A3013 RMK AO2 SLP203 T02220156
KPWT 250055Z AUTO 02010G17KT 10SM CLR 29/08 A3018 RMK AO1
KPXE 250035Z AUTO 10003KT 10SM CLR 30/18 A3016 RMK AO2 T03020182
KPYM 250052Z AUTO 20005KT 10SM CLR 22/16 A3020 RMK AO2 SLP224 T02220156
KPYX 250035Z AUTO 10007G12KT 070V140 1SM SCT006 BKN018 OVC060 21/17 A3002 RMK AO2 VIS 1/4V5 T02100169
KPZQ 250055Z AUTO 23004KT 10SM SCT038 OVC043 24/20 A2987 RMK AO2 T02410201
KRAC 250053Z AUTO 24003KT 10SM CLR 27/22 A2995 RMK AO2 SLP136 T02670217
KRAL 250053Z 26011KT 10SM CLR 31/13 A2991 RMK AO2 SLP112 T03110133
KRAP 250052Z 34013KT 10SM FEW070 FEW085 20/07 A3017 RMK AO2 SLP202 T02000067
KRAS 250035Z AUTO 12008KT 10SM SCT019 30/25 A3001 RMK AO2 T02970254
KRBD 250053Z 16007KT 10SM CLR 31/21 A3003 RMK AO2 SLP158 T03060211
KRBG 250053Z AUTO 36010KT 10SM CLR 33/04 A2998 RMK AO2 SLP148 T03330044
KRBL 250054Z AUTO 18008KT 10SM CLR 33/11 A2988 RMK AO2 SLP115 T03330111
KRBO 250030Z AUTO 12013G19KT 10SM CLR 30/23 A2999 RMK AO2 T03030233
KRBW 250055Z AUTO 13004KT 10SM CLR 26/19 A3018 RMK AO2
KRCA 250039Z 34009KT 10SM -TSRA FEW070 BKN110 21/07 A3016 RMK AO2A RAB39 TSB38 CIG 080 RWY13 $
KRCE 250015Z AUTO 18011G17KT 10SM FEW060 SCT070 SCT085 31/19 A2998 RMK AO2
KRCM 250015Z AUTO 09003KT 10SM CLR 27/23 A2994 RMK AO2
KRCR 250035Z AUTO 25005KT 10SM SCT031 26/24 A3000 RMK AO2 P0003
KRCV 250050Z AUTO 00000KT 10SM SCT100 BKN120 15/07 A3032 RMK AO2 LTG DSNT N NE AND S T01480073
KRCX 250035Z AUTO 25005KT 10SM CLR 21/16 A2995 RMK AO2 T02120155
KRCZ 250035Z AUTO 09005KT 10SM CLR 26/18 A3019 RMK AO2 T02600180
KRDD 250053Z 15010KT 10SM CLR 35/08 A2987 RMK AO2 SLP109 T03500083
KRDG 250054Z 16004KT 10SM CLR 24/17 A3017 RMK AO2 SLP219 T02390172
KRDK 250055Z AUTO 00000KT 10SM FEW060 BKN095 OVC120 21/19 A3003 RMK AO2 P0001
KRDM 242356Z 01007G20KT 330V040 10SM CLR 28/M03 A3017 RMK AO2 SLP199 T02781033 10283 20222 56011
KRDR 242258Z AUTO 28011G21KT 10SM SCT060 OVC080 22/11 A2990 RMK AO2 SLP130 T02190108
KRDU 242351Z 16004KT 10SM FEW055 FEW180 BKN250 27/18 A3021 RMK AO2 SLP225 T02670178 10306 20267 55004
KREO 250052Z AUTO 01012KT 27/M08 A3011 RMK AO1 SLP172 T02721083
KRFD 250054Z 23003KT 10SM FEW032 BKN220 BKN250 27/22 A2996 RMK AO2 SLP141 T02670217
KRFI 250035Z AUTO 13003KT 10SM CLR 30/24 A3007 RMK AO2 T02950240
KRGK 250055Z AUTO 29004KT 10SM CLR 22/15 A2995 RMK AO2
KRHI 250053Z AUTO 00000KT 10SM CLR 20/19 A2993 RMK AO2 SLP131 T02000189 TSNO
KRHP 250040Z AUTO 00000KT 10SM SCT033 BKN055 23/22 A3024 RMK AO2 T02310222
KRHV 250048Z 30007KT 10SM SKC 25/15 A2999
KRIC 250054Z 14007KT 10SM FEW250 22/17 A3020 RMK AO2 SLP232 T02220167
KRIL 250053Z AUTO 15003KT 10SM CLR 24/03 A3012 RMK AO2 SLP143 T02390033
KRIV 242358Z AUTO 32011KT 10SM CLR 32/11 A2995 RMK AO2 SLP128 T03240114 10346 20289 57015
KRIW 250053Z AUTO 02020G28KT 10SM FEW100 19/01 A3020 RMK AO2 PK WND 02028/0050 SLP184 T01890011
KRKD 250056Z AUTO 00000KT 10SM CLR 19/17 A3014 RMK AO2 SLP207 T01890167
KRKP 250053Z AUTO 11012KT 10SM FEW022 29/24 A3001 RMK AO2 SLP162 T02940244
KRKR 250055Z AUTO 15003KT 10SM CLR 29/20 A3002 RMK AO2 T02920196
KRKS 242054Z AUTO 25014G20KT 10SM CLR 24/M09 A3018 RMK AO2 PK WND 27027/2018 SLP144 T02391094 56020
KRLD 250035Z AUTO 01007KT 10SM CLR 33/05 A3007 RMK AO2 T03300053
KRME 250053Z 12006KT 10SM CLR 23/17 A3010 RMK AO2 SLP190 T02330172
KRMG 250053Z AUTO VRB03KT 10SM CLR 27/22 A3017 RMK AO2 SLP207 T02670217
KRMN 250035Z AUTO 00000KT 10SM CLR 22/20 A3022 RMK AO2 T02230195
KRMY 250045Z AUTO 36000KT 10SM SCT017 SCT027 SCT038 24/23 A2996 RMK AO2
KRNC 250055Z AUTO 00000KT 10SM CLR 27/24 A3018 RMK
KRND 242358Z AUTO 13008KT 10SM CLR 31/22 A3001 RMK AO2 SLP154 T03140218 10332 20307 57015
KRNH 250035Z AUTO 28006KT 10SM CLR 20/14 A2997 RMK AO2 T01990137
KRNM 250053Z 28007KT 10SM CLR 28/13 A2996 RMK AO2 SLP130 T02780128
KRNO 250055Z 27014KT 10SM FEW100 31/M07 A3007 RMK AO2 SLP129 T03061072
KRNP 250054Z AUTO 21005KT 7SM OVC033 25/23 A2996 RMK AO2 T02450225
KRNT 250053Z 31010KT 10SM CLR 28/13 A3011 RMK AO2 SLP202 T02830133
KRNV 250055Z AUTO 00000KT 10SM CLR 30/28 A3008 RMK AO2 T02980277
KROA 250054Z 13003KT 10SM CLR 24/21 A3024 RMK AO2 SLP227 T02440206
KROC 250054Z 22003KT 10SM FEW100 BKN180 24/17 A3005 RMK AO2 SLP175 T02390167
KROG 242358Z 16011KT 10SM CLR 31/21 A3005 RMK AO2 SLP160 T03060206 10344 20306 56004 $
KROS 250053Z AUTO 24003KT 10SM CLR 20/14 A2995 RMK AO2 T02000144
KROW 250051Z 16006KT 6SM -RA FEW070 BKN095 BKN120 20/16 A3005 RMK AO2 PK WND 26028/2352 WSHFT 2338 RAB03 TSE19B28E48 SLP126 P0006 T02000161
KROX 250055Z AUTO 23007KT 10SM CLR 19/13 A2986 RMK AO2
KRPD 250035Z AUTO 26003KT 10SM CLR 20/15 A2995 RMK AO2 T02000152
KRPH 250035Z AUTO 15008KT 10SM CLR 32/20 A2997 RMK AO2 T03160196
KRPJ 250035Z AUTO 20003KT 10SM CLR 24/23 A2998 RMK AO2 T02420230
KRPX 250035Z AUTO 33013KT 10SM 17/03 A3018
KRQB 250054Z AUTO 00000KT 10SM SCT032 24/22 A2993 RMK AO2 T02350215
KRQE 250053Z AUTO 31005KT 10SM SCT110 21/04 A3025 RMK AO2 RAB28E38 SLP143 T02110044 TSNO PNO
KRQO 250055Z AUTO 17012KT 10SM SCT065 SCT075 30/17 A2997 RMK AO2
KRRL 250055Z AUTO 27003KT 10SM CLR 21/19 A2994 RMK AO2 T02120192
KRRT 250054Z AUTO 24004KT 10SM BKN080 19/13 A2987 RMK AO2
KRSL 250053Z AUTO 36013KT 10SM CLR 19/16 A3005 RMK AO2 SLP165 T01940161
KRSN 242357Z AUTO 00000KT 10SM VCTS CLR 32/27 A3012 RMK AO2 LTG DSNT NE AND E
KRSP 242354Z AUTO 19005KT 10SM CLR 22/18 A3023 RMK AO2 SLP230 T02220183 10278 20222 55003 $
KRST 250054Z 28005KT 10SM CLR 20/18 A3000 RMK AO2 SLP154 T02000178
KRSV 250035Z AUTO 18003KT 10SM SCT046 26/25 A3004 RMK AO2 LTG DSNT E T02600250
KRSW 250053Z 05012KT 10SM CLR 28/24 A3003 RMK AO2 SLP165 T02780239
KRTN 250053Z AUTO 35009KT 10SM BKN047 BKN065 OVC080 15/09 A3027 RMK AO2 RAB14E51 SLP194 P0000 T01500089
KRTS 250035Z AUTO 31014G19KT 260V330 10SM CLR 28/M07 A3012 RMK AO2
KRUE 250053Z AUTO 15003KT 10SM CLR 27/22 A3005 RMK AO2 SLP167 T02720217
KRUQ 250040Z AUTO 00000KT 10SM SCT080 23/23 A3020 RMK AO2 T02290229
KRUT 250056Z AUTO 12008KT 10SM CLR 21/17 A3015 RMK AO2 SLPNO T02060167 $
KRVS 250053Z 17011G19KT 10SM CLR 33/19 A2997 RMK AO2 SLP149 T03280194
KRWF 250053Z AUTO 27005KT 10SM CLR 21/16 A3000 RMK AO2 SLP156 T02060161
KRWI 250053Z AUTO 00000KT 10SM CLR 21/19 A3021 RMK AO2 SLP228 T02110194
KRWL 250053Z AUTO 06016G19KT 10SM FEW110 19/02 A3021 RMK AO2 SLP161 T01890017
KRWV 250030Z AUTO 00000KT 10SM CLR 30/22 A3006 RMK AO2
KRXE 250053Z AUTO 10SM FEW070 BKN090 21/M02 A3017 RMK AO2 SLP197 T02111022
KRYN 250050Z 32007KT 10SM CLR 33/09 A2997
KRYT 242353Z AUTO 00000KT 10SM CLR 23/18 A3017 RMK AO2 SLP207 T02330183 10294 20233 55003 $
KRYV 250035Z AUTO 00000KT 10SM BKN030 BKN038 BKN055 26/24 A2993 RMK AO2 T02620236
KRYW 250055Z AUTO 13003KT 10SM CLR 29/20 A3006 RMK AO2 T02900202
KRYY 250047Z 00000KT 10SM SCT 26/21 A3017
KRZL 250055Z AUTO 23003KT 10SM CLR 23/22 A3000 RMK AO2
KRZN 250035Z AUTO 26008KT 10SM CLR 21/14 A2994 RMK AO2 T02090137
KRZR 250035Z AUTO 00000KT 10SM CLR 26/24 A3016 RMK A01
KRZT 250055Z AUTO 20003KT 10SM CLR 25/22 A3008 RMK AO2
KS25 250035Z AUTO 32016G31KT 5SM HZ FEW019 SCT028 BKN037 13/10 A3009 RMK AO2
KS39 250040Z AUTO 01010G19KT 10SM CLR 26/M00 A3018 RMK AO2
KSAA 250035Z AUTO 15004KT 10SM CLR 17/05 A3022 RMK AO2 LTG DSNT SE
KSAC 250053Z AUTO 22006KT 10SM CLR 30/11 A2990 RMK AO2 SLP125 T03000106 TSNO
KSAD 250051Z AUTO 02007KT 10SM VCTS FEW090 SCT110 28/11 A2999 RMK AO2 PK WND 01038/0021 LTG DSNT SW-NW SLP108 T02830106
KSAF 250053Z 36008KT 10SM BKN100 19/07 A3022 RMK AO2 SLP158 T01940067
KSAN 250051Z 29008KT 10SM FEW014 23/17 A2995 RMK AO2 SLP140 T02280172
KSAR 250055Z AUTO 18006KT 10SM VCTS CLR 29/25 A3003 RMK AO2 LTG DSNT NW THRU E T02880248
KSAT 250051Z 13011KT 10SM SCT055 SCT250 30/21 A3002 RMK AO2 SLP147 T03000206
KSAV 250053Z 10006KT 10SM FEW065 FEW110 BKN200 27/18 A3018 RMK AO2 SLP218 T02670178
KSAW 250045Z 08003KT 10SM FEW040 21/19 A2987
KSAZ 250053Z AUTO 26003KT 10SM CLR 19/12 A2997 RMK AO2
KSBA 250053Z 14009KT 10SM CLR 21/16 A2990 RMK AO2 SLP126 T02060161
KSBD 250047Z 26011KT 7SM SKC 34/22 A2992
KSBM 250053Z AUTO 29004KT 10SM CLR 24/21 A2992 RMK AO2 SLP126 T02440211 $
KSBN 250054Z 22006KT 10SM CLR 24/22 A2997 RMK AO2 SLP144 T02440222
KSBO 250035Z AUTO 00000KT 10SM CLR 28/19 A3017 RMK AO2
KSBP 242356Z 31017KT 10SM CLR 20/13 A2999 RMK AO2 SLP154 T02000128 10239 20194 56016
KSBS 250055Z AUTO 31004KT 10SM BKN110 21/02 A3017 RMK AO1 T02090016
KSBY 250054Z 13005KT 10SM CLR 20/17 A3021 RMK AO2 SLP233 T02000172 $
KSCD 250035Z AUTO 00000KT 10SM CLR 30/26 A3015 RMK AO2 T03000255
KSCF 250035Z AUTO 16003KT 10SM CLR 31/24 A3009 RMK A01
KSCH 242350Z 18004KT 15SM SCT250 26/16 A3011
KSCK 250055Z 33011KT 10SM CLR 31/13 A2990 RMK AO2 SLP124 T03060133
KSCR 250040Z AUTO 00000KT 10SM CLR 22/19 A3021 RMK AO2 T02150191
KSDA 250055Z AUTO 00000KT 10SM SCT095 BKN120 22/M38 A3003 RMK AO2 P0001
KSDB 250048Z AUTO 33018G25KT 10SM CLR 28/03 A3015 RMK AO2 PK WND 34026/0019 SLP149 T02780033
KSDF 242356Z 17010KT 10SM FEW045 FEW070 BKN250 30/22 A3007 RMK AO2 RAB25E41 SLP177 CB MOV NE MDT CB DSNT S P0000 60000 T03000222 10333 20300 58001 $
KSDL 250053Z 04029G39KT 10SM VCTS SCT100 32/12 A2993 RMK AO2 PK WND 04047/0027 LTG DSNT ALQDS SLP109 T03170117
KSDM 250053Z 29007KT 10SM CLR 23/17 A2994 RMK AO2 SLP134 T02330172
KSDY 250056Z AUTO 31016G23KT 10SM BKN030 OVC038 16/09 A3013 RMK AO2 SLP207 T01560089
KSEA 250053Z 36010KT 10SM FEW050 FEW250 29/12 A3015 RMK AO2 SLP212 T02890117
KSEE 250047Z 29008KT 10SM SKC 27/14 A2993
KSEG 250053Z AUTO 19003KT 10SM CLR 23/20 A3014 RMK AO2 SLP205 T02330200
KSEM 250055Z AUTO 00000KT 10SM CLR 28/25 A3011 RMK AO2
KSEP 250055Z AUTO 14005KT 10SM CLR 30/19 A3006 RMK AO2 T03010190
KSET 250054Z AUTO 20003KT 10SM CLR 28/25 A2997 RMK AO2 SLP144 T02830250 $
KSEZ 250035Z AUTO 15008KT 10SM CLR 20/10 A3018 RMK AO2 LTG DSNT SW
KSFB 250053Z 03006KT 10SM SCT070 28/23 A3011 RMK AO2 SLP195 T02780233
KSFF 250053Z 00000KT 8SM FEW090 27/03 A3017 RMK AO2 SLP205 T02720028
KSFM 250056Z AUTO 00000KT 10SM CLR 21/17 A3014 RMK AO2 SLP214 T02060167 $
KSFO 242356Z 29020KT 10SM FEW007 18/12 A3000 RMK AO2 PK WND 29028/2333 SLP159 T01780117 10200 20178 56019
KSFQ 250035Z AUTO 11004KT 10SM CLR 23/18 A3022 RMK AO2 T02250182
KSFY 250035Z AUTO 22005KT 10SM CLR 26/21 A2994 RMK AO2 T02620210
KSFZ 250056Z AUTO VRB03KT 10SM CLR 20/16 A3020 RMK AO2 SLP240 T02000161
KSGF 250052Z 17011KT 10SM CLR 29/21 A3002 RMK AO2 SLP151 T02890211
KSGH 250056Z AUTO 17006KT 10SM CLR 24/23 A3007 RMK AO2 RAE2357 SLP176 T02440228
KSGJ 242358Z 04014KT 10SM SCT085 28/23 A3014 RMK AO2 SLP206 T02830228 10317 20283 53003
KSGR 250053Z 15009KT 10SM FEW037 FEW046 SCT055 29/24 A3005 RMK AO2 SLP175 T02890239
KSGS 250051Z AUTO 29006KT 10SM CLR 22/13 A2996 RMK AO2 T02220131
KSGT 250055Z AUTO 18006KT 10SM CLR 31/22 A3008 RMK AO1
KSGU 250055Z 26009KT 10SM CLR 34/06 A2994 RMK AO1
KSHD 250035Z AUTO 17006KT 10SM CLR 24/19 A3022 RMK AO2 T02360193
KSHL 250055Z AUTO 00000KT 10SM CLR 18/17 A3005 RMK AO2
KSHN 250053Z AUTO 07007KT 10SM CLR 32/02 A3010 RMK AO2 SLP191 T03170017
KSHR 250053Z AUTO 33011KT 10SM OVC055 17/06 A3027 RMK AO2 SLP237 T01670056
KSHV 242356Z 19003KT 10SM FEW044 SCT280 32/24 A3006 RMK AO2 SLP173 CB DSNT N T03220244 10344 20322 56007
KSIF 250040Z AUTO 00000KT 7SM OVC060 23/22 A3021 RMK AO2 T02300222
KSIK 250055Z AUTO 19006KT 10SM CLR 30/25 A3006 RMK AO2 PWINO
KSIY 250053Z AUTO 34005KT 10SM CLR 33/M09 A3001 RMK AO2 SLP151 T03281089
KSJC 250053Z 30012KT 10SM FEW075 23/14 A2997 RMK AO2 SLP149 T02280139
KSJN 250054Z AUTO 04020G28KT 10SM BKN100 23/07 A3018 RMK AO2 PK WND 04028/0049 SLP145 T02280072 TSNO
KSJS 250035Z AUTO 19003KT 10SM CLR 28/21 A3017 RMK AO2 T02750214
KSJT 250051Z 15008KT 10SM CLR 31/17 A3001 RMK AO2 SLP135 T03110172 PWINO $
KSJX 250055Z AUTO 23006KT 10SM SCT005 SCT047 OVC060 21/21 A2986 RMK AO2 T02110206
KSKA 242358Z AUTO 06008KT 10SM CLR 26/04 A3019 RMK AO2 SLP215 T02600037 10267 20224 402670111 57011
KSKF 250047Z AUTO 12011KT 10SM -DZ FEW050 31/22 A3000 RMK AO2 DZB47
KSKX 250055Z AUTO 10006KT 10SM OVC065 14/08 A3030 RMK AO1
KSLB 250055Z AUTO 31007KT 10SM CLR 20/17 A3006 RMK AO2 P0001
KSLC 250054Z 01009KT 10SM FEW090 FEW200 SCT220 27/M07 A3008 RMK AO2 SLP138 T02721072
KSLE 242356Z AUTO 02013KT 10SM CLR 34/04 A3002 RMK AO2 SLP166 T03390044 10344 20239 56019
KSLG 250015Z AUTO 18010G15KT 10SM CLR 31/17 A3005 RMK AO1
KSLH 250055Z AUTO 25006KT 10SM BKN055 22/19 A2985 RMK AO2 T02250196
KSLI 242358Z 22010KT 10SM CLR 28/13 A2992 RMK AO2A SLP135 T02770129 10281 20245 57019
KSLK 250051Z AUTO 23003KT 10SM CLR 20/14 A3012 RMK AO2 SLP192 T02000144
KSLN 250053Z 04008KT 10SM FEW120 23/17 A3002 RMK AO2 SLP154 T02280172
KSLO 250035Z AUTO 19006KT 10SM CLR 30/25 A3002 RMK AO2 T02950252
KSLR 250035Z AUTO 16004KT 10SM CLR 31/21 A3007 RMK AO2 T03120212
KSME 250035Z AUTO 00000KT 10SM CLR 27/20 A3017 RMK AO2
KSMF 250053Z 19011KT 10SM CLR 31/11 A2989 RMK AO2 SLP120 T03110106
KSMN 250055Z AUTO 07011KT 10SM BKN095 23/01 A3015 RMK AO1
KSMO 250051Z 23009KT 10SM CLR 22/14 A2993 RMK AO2 SLP134 T02170144 $
KSMP 242356Z AUTO VRB05KT FEW070 23/06 A3028 RMK AO2 SLP225 T02280061 10233 20200 57007
KSMQ 250053Z AUTO 00000KT 10SM CLR 21/18 A3015 RMK AO2 SLP210 T02060178
KSMS 250055Z AUTO 00000KT 10SM CLR 23/21 A3019 RMK AO2
KSMX 250051Z 31011KT 8SM FEW008 16/13 A3000 RMK AO2 SLP161 T01610133
KSNA 250053Z 22007KT 10SM CLR 24/16 A2992 RMK AO2 SLP130 T02440161
KSNC 250055Z AUTO 20005KT 10SM CLR 22/18 A3020 RMK AO2
KSNH 250035Z AUTO 00000KT 10SM CLR 28/26 A3010 RMK A01
KSNK 250035Z AUTO 34009KT 22/17 A3003 RMK AO2 LTG DSNT N T02220171 PWINO
KSNL 250035Z AUTO 18011G16KT 10SM CLR 31/20 A2998 RMK AO2 T03090197
KSNS 250053Z AUTO 30012KT 10SM CLR 18/12 A3000 RMK AO2 SLP168 T01780122 TSNO
KSNT 250051Z AUTO 35006KT 22/M06 A3020 RMK AO1 SLP162 T02171056
KSNY 250053Z AUTO 11007KT 10SM CLR 20/04 A3020 RMK AO2 SLP189 T02000044
KSOA 250035Z AUTO 15009G15KT 10SM CLR 31/18 A3008 RMK AO2
KSOP 250056Z AUTO 13003KT 10SM CLR A3022 RMK AO2 SLPNO FZRANO $
KSOW 250055Z AUTO 26008KT 10SM VCTS CLR 20/05 A3025 RMK AO2 LTG DSNT W
KSPA 250055Z AUTO 00000KT 10SM CLR 24/20 A3021 RMK AO2
KSPB 250053Z AUTO 36010KT 10SM CLR 32/07 A3004 RMK AO2 SLP174 T03220072
KSPD 242356Z AUTO 03011KT 23/12 A3011 RMK AO1 SLP143 T02330117 10256 20233 55000
KSPF 250035Z AUTO 33011KT 10SM CLR 18/05 A3022 RMK AO2
KSPG 250053Z 09015KT 10SM FEW070 27/24 A3006 RMK AO2 SLP178 T02720239
KSPI 250052Z 20005KT 10SM CLR 28/24 A2999 RMK AO2 SLP151 T02780239
KSPL 250055Z AUTO 15008KT 5SM 28/25 A3000 RMK AO1
KSPR 250035Z AUTO 00000KT CLR 31/25 A3007 RMK A01
KSPS 250052Z 16015KT 10SM CLR 32/19 A2995 RMK AO2 SLP125 T03170189
KSPW 250053Z AUTO 26006KT 10SM CLR 19/17 A3006 RMK AO2 SLP173 T01940167
KSQE 250035Z AUTO 08006KT 10SM SCT024 SCT032 30/25 A3008 RMK A01
KSQI 250056Z 00000KT 6SM BR CLR 24/23 A2996 RMK AO2 SLP158 P0001 T02390228
KSQL 250050Z 34010KT 10SM SKC 21/13 A2998
KSRB 250055Z AUTO 00000KT 10SM CLR 25/23 A3016 RMK
KSRC 250056Z AUTO 20004KT 10SM CLR 29/26 A3009 RMK AO2 SLP189 T02890256
KSRQ 250053Z AUTO 07005KT 10SM CLR 29/23 A3004 RMK AO2 SLP172 T02890228
KSRR 250035Z AUTO 11008KT 10SM 18/11 A3026 RMK AO2
KSSC 242358Z AUTO 13003KT 10SM CLR 29/18 A3016 RMK AO2 SLP213 T02870175 10319 20287 55002 $
KSSF 250053Z 11008KT 10SM BKN050 BKN075 31/21 A2999 RMK AO2 SLP144 T03110211
KSSI 250053Z AUTO 08011KT 10SM CLR 28/20 A3016 RMK AO2 SLP215 T02780200
KSTC 250053Z 26005KT 10SM CLR 20/15 A2997 RMK AO2 SLP155 T02000150
KSTE 250035Z AUTO 27003KT 10SM CLR 22/19 A2994 RMK AO2 T02220194
KSTJ 250053Z 34006KT 10SM -RA SCT041 BKN055 25/23 A2999 RMK AO2 LTG DSNT ALQDS RAB30 SLP148 P0000 T02500233 $
KSTK 250050Z AUTO 18007KT 10SM BKN090 OVC110 20/08 A3015 RMK AO2
KSTL 250051Z 20004KT 10SM FEW036 SCT250 32/22 A3000 RMK AO2 SLP143 OCNL LTGICCC DSNT SW CB DSNT SW MOV E T03170222
KSTP 250053Z 28009KT 10SM CLR 22/13 A2996 RMK AO2 SLP141 T02220133
KSTS 250053Z 15010KT 10SM FEW015 22/12 A2996 RMK AO2 SLP138 T02170117
KSUA 250047Z 04008KT 4SM -TSRA SCT025 29/26 A3006
KSUE 250056Z AUTO 23005KT 10SM CLR 23/20 A2990 RMK AO2 SLP138 T02280200
KSUN 250047Z 14006KT 10SM SCT120 21/01 A3017
KSUS 250054Z 17003KT 10SM FEW040 28/26 A2998 RMK AO2 LTG DSNT S SLP142 T02780256
KSUT 250040Z AUTO 00000KT 10SM CLR 25/18 A3019 RMK AO2 T02460184
KSUU 242358Z AUTO 23019KT 10SM CLR 29/13 A2990 RMK AO2 SLP131 T02870125 10293 20204 PWINO PNO $
KSUW 250030Z AUTO 26007KT 10SM CLR 23/14 A2987 RMK AO2 T02290141
KSUX 250052Z 32004KT 10SM CLR 20/16 A3005 RMK AO2 SLP171 T02000161
KSVC 250055Z AUTO 31006KT 10SM CLR 25/09 A3015 RMK AO2 LTG DSNT W T02530087
KSVH 250040Z AUTO 00000KT 10SM SCT080 24/23 A3021 RMK AO2 T02400228
KSVN 242358Z AUTO 10004KT 10SM CLR 27/21 A3014 RMK AO2 SLP209 T02690209 10311 20269 55001
KSWF 250045Z 00000KT 10SM SKC 25/18 A3017
KSWO 250053Z 17011KT 10SM BKN070 BKN095 32/18 A2995 RMK AO2 SLP126 T03220183
KSWW 250035Z AUTO 24014G21KT 10SM SCT075 31/15 A3006 RMK AO2 T03130149
KSXT 242356Z AUTO VRB03KT 10SM CLR 26/02 A3014 RMK AO2 SLP151 T02610022 10261 20206 56014
KSYF 250035Z AUTO 10011G15KT 10SM RA CLR 21/01 A3016 RMK AO2 T02050009
KSYI 250055Z AUTO 11003KT 10SM CLR 27/24 A3016 RMK
KSYM 250050Z AUTO 17004KT 10SM CLR 25/23 A3015 RMK AO2
KSYN 250025Z AUTO 29003KT 10SM CLR 22/16 A2996 RMK AO2
KSYR 250054Z 17007KT 10SM SCT200 BKN250 25/14 A3006 RMK AO2 SLP174 SCT V BKN T02500144 $
KSZL 242358Z 18003KT 10SM SCT040 SCT200 30/25 A2996 RMK AO2A SLP140 T03010254 10323 20301 403230212 57011
KSZT 250055Z AUTO 36007KT 10SM CLR 23/04 A3020 RMK AO2
KT20 250035Z AUTO 13007KT 10SM SCT044 SCT050 SCT065 31/25 A3001 RMK AO2 T03050245
KT35 250035Z AUTO 14004KT 10SM CLR 31/23 A3002 RMK AO2 T03090229
KT65 250035Z AUTO 14012G20KT 10SM CLR A2996 RMK AO2
KT70 242358Z AUTO 14015KT 10SM CLR 34/17 A2990 RMK AO2 SLP111 T03370167 10347 20316 57020 $
KT82 250035Z AUTO 15005KT 10SM CLR 29/18 A3006 RMK AO2 T02860183
KTAD 250054Z AUTO 31008KT 9SM -RA OVC070 14/13 A3028 RMK AO2 SLP204 T01390128 PNO $
KTAN 250052Z AUTO 19003KT 10SM CLR 22/16 A3018 RMK AO2 SLP218 T02170156
KTAZ 250035Z AUTO 00000KT 10SM SCT055 26/24 A3001 RMK AO2 T02610236
KTBN 242358Z AUTO 18004KT 10SM FEW043 SCT055 30/24 A3003 RMK AO2 SLP160 T03030235 10326 20303 58005
KTBR 250035Z AUTO 15003KT 10SM CLR 27/21 A3017 RMK AO2 T02740214
KTBX 250035Z AUTO 34031KT 10SM SCT070 SCT120 12/01 A3038 RMK AO2 PWINO
KTCC 250053Z AUTO 25007KT 10SM CLR 27/09 A3003 RMK AO2 SLP110 T02670089
KTCL 250053Z 00000KT 10SM CLR 29/24 A3011 RMK AO2 SLP195 T02940244
KTCM 242358Z AUTO 03010G16KT 10SM CLR 29/11 A3014 RMK AO2 SLP209 T02870108 10292 20233 57017 $
KTCS 250053Z AUTO 31004KT 10SM FEW100 26/09 A3011 RMK AO2 LTG DSNT S RAE2357 SLP123 P0000 T02560089
KTDF 250040Z AUTO 13003KT 10SM CLR 21/19 A3024 RMK AO2
KTDR 242356Z AUTO 00000KT 10SM CLR 27/26 A3009 RMK AO2 LTG DSNT S SLP193 T02670255 10329 20253 56003
KTDZ 250053Z AUTO 20011KT 10SM SCT030 BKN037 OVC085 26/23 A2998 RMK AO2 RAB2358E16 TSB14E33 SLP149 P0000 T02560233
KTEB 250051Z 18004KT 10SM CLR 26/17 A3015 RMK AO2 SLP210 T02560167
KTEW 250053Z AUTO 17004KT 10SM BKN026 OVC032 24/22 A2997 RMK AO2 T02350218
KTEX 250055Z AUTO 00000KT 10SM CLR 16/01 A3040 RMK AO2 LTG DSNT NE AND SE T01620011
KTFP 250035Z AUTO 13013G17KT 10SM SCT023 30/25 A3000 RMK AO2 T03040249
KTGI 242257Z AUTO 14006KT 10SM CLR 26/17 A3020 RMK AO1
KTHA 250055Z AUTO 00000KT 10SM CLR 26/23 A3019 RMK
KTHV 250053Z AUTO VRB04KT 10SM CLR 24/18 A3018 RMK AO2 SLP216 T02390183
KTIF 250035Z AUTO 03004KT 10SM CLR 21/11 A3015 RMK AO2 T02050107
KTIK 242358Z AUTO 17014G19KT 10SM CLR 32/20 A2997 RMK AO2 LTG DSNT W SLP139 T03230201 10347 20323 57007 $
KTIP 250035Z AUTO 24003KT 10SM SCT034 27/24 A3001 RMK AO2 T02660236
KTIW 250053Z 01008KT 10SM CLR 26/09 A3014 RMK AO2 SLP202 T02560094
KTIX 250050Z 04012KT 7SM SCT040 28/27 A3009 RMK LAST
KTKC 250053Z AUTO 25003KT 10SM CLR 20/16 A3002 RMK AO2 T01990161
KTKI 250053Z 16009KT 10SM CLR 30/22 A3002 RMK AO2 SLP161 T03000217
KTKV 250035Z AUTO 00000KT 10SM CLR 21/18 A2993 RMK AO2 T02070175
KTKX 250055Z AUTO 20007KT 9SM CLR 30/26 A3005 RMK AO2
KTLH 250053Z 04004KT 10SM FEW250 31/22 A3012 RMK AO2 SLP197 T03060222
KTMA 250035Z AUTO 00000KT 10SM CLR 28/20 A3015 RMK AO2 T02820199
KTMB 250053Z 05008KT 10SM CLR 27/25 A3002 RMK AO2 LTG DSNT N AND NE RAE05 SLP163 P0000 T02670250
KTME 250035Z AUTO 14007KT 10SM FEW050 30/25 A3005 RMK AO2
KTMK 250055Z AUTO 32007KT 10SM CLR 24/13 A3008 RMK AO2
KTNB 250035Z AUTO 00000KT 10SM CLR 20/18 A3034 RMK AO2 T02000182
KTNU 250055Z AUTO 01005KT 4SM BR BKN004 BKN120 23/23 A2997 RMK AO2 P0008 PWINO
KTOA 242350Z 29011KT 10SM SCT020 23/19 A2994
KTOB 250053Z AUTO 29007KT 10SM CLR 21/16 A3001 RMK AO2
KTOC 250035Z AUTO 00000KT 10SM CLR 25/23 A3023 RMK AO2 T02460233
KTOI 250053Z AUTO 00000KT 10SM CLR 27/25 A3014 RMK AO2 SLP201 T02670250
KTOL 250052Z 21004KT 6SM -RA BR FEW036 OVC095 24/24 A2998 RMK AO2 LTG DSNT SW AND W RAE2359B09 SLP148 P0000 T02390239
KTOP 250053Z AUTO 01007KT 10SM -RA FEW060 23/21 A2998 RMK AO2 LTG DSNT ALQDS RAE11B53 TSE16 SLP144 P0001 T02280206 $
KTOR 250053Z AUTO 34014G21KT 10SM -RA FEW049 SCT065 OVC080 15/12 A3018 RMK AO2 PK WND 30031/0028 WSHFT 0017 RAB49 SLP192 P0000 T01500117 TSNO
KTPA 250053Z 09004KT 10SM FEW030 OVC300 29/23 A3008 RMK AO2 SLP186 FRQ LTGIC DSNT W CB DSNT W T02940233
KTPF 250055Z AUTO 08006KT 10SM CLR 29/25 A3008 RMK AO2
KTPH 242356Z AUTO 32014G19KT 10SM CLR 31/M08 A3013 RMK AO2 SLP114 T03111083 10317 20272 56019
KTPL 250051Z AUTO 16007KT 10SM CLR 30/21 A3004 RMK AO2 SLP173 T03000211
KTQE 250054Z AUTO 32006KT 10SM FEW120 20/18 A3004 RMK AO2 SLP164 T02000178
KTQH 250055Z AUTO 18007G14KT 10SM CLR 30/19 A3002 RMK AO2
KTRI 250053Z 00000KT 10SM SCT100 BKN180 24/21 A3022 RMK AO2 SLP209 T02390206
KTRK 242345Z 26013G19KT 10SM SKC 26/M08 A3023 RMK NO 10270
KTRL 250053Z AUTO 15005KT 10SM CLR 29/23 A3004 RMK AO2 SLP167 T02940228
KTRM 250052Z AUTO 15003KT 10SM CLR 40/09 A2972 RMK AO2 SLP068 T04000094 TSNO
KTSP 250055Z AUTO 31013G19KT 10SM CLR 27/02 A3012 RMK AO2
KTTA 250040Z AUTO 00000KT 10SM CLR 22/20 A3020 RMK AO2 T02170203
KTTD 250053Z 31005KT 10SM CLR 33/09 A3003 RMK AO2 SLP167 T03280094
KTTF 250051Z AUTO 21010G17KT 10SM SCT046 SCT060 SCT120 26/23 A2996 RMK AO2 T02600225
KTTN 250053Z 22004KT 10SM CLR 24/16 A3018 RMK AO2 SLP213 T02390156
KTTS 242358Z AUTO 05007KT 10SM FEW027 28/24 A3007 RMK AO2 SLP187 T02830239 10311 20283 55001
KTUL 250053Z 17014G22KT 10SM FEW070 SCT100 SCT250 33/19 A2995 RMK AO2 SLP132 TCU DSNT W T03280194
KTUP 250053Z 00000KT 10SM FEW060 31/22 A3011 RMK AO2 SLP189 T03060217 $
KTUS 250053Z 35009KT 10SM CLR 34/07 A2998 RMK AO2 SLP103 T03440067
KTVC 250053Z 25006KT 10SM BKN026 BKN032 BKN045 26/21 A2988 RMK AO2 SLP114 T02560206
KTVF 250056Z AUTO 26007KT 10SM FEW080 19/11 A2991 RMK AO2 SLP129 T01940111
KTVI 250035Z AUTO 00000KT 10SM 28/23 A3014 RMK AO2
KTVK 250035Z AUTO 00000KT 10SM -RA FEW002 SCT023 BKN028 24/23 A3001 RMK AO2
KTVL 250053Z AUTO 20009KT 10SM CLR 23/M09 A3024 RMK AO2 SLP197 T02331089
KTVR 250053Z AUTO 00000KT 8SM -RA SCT110 26/24 A3010 RMK AO2 LTG DSNT NW TSE2357B2358E13B27E42 SLP197 P0000 T02610244
KTVY 250055Z AUTO 03006KT 10SM CLR 26/M01 A3009 RMK AO2
KTWF 250053Z 29007KT 10SM CLR 24/M03 A3012 RMK AO2 SLP155 T02441028
KTWM 250054Z AUTO 26006KT 10SM CLR 23/15 A2986 RMK AO2
KTXK 250053Z 14003KT 9SM CLR 28/25 A3007 RMK AO2 SLP178 T02830250
KTYQ 250035Z AUTO 22009G16KT 10SM CLR 26/24 A3003 RMK AO2 T02550235
KTYR 250053Z 15004KT 10SM FEW002 30/24 A3006 RMK AO2 SLP169 T03000244 $
KTYS 250053Z 00000KT 10SM FEW040 FEW250 29/21 A3017 RMK AO2 SLP202 T02890211
KTZR 250035Z AUTO 17006KT 10SM CLR 24/22 A3007 RMK AO2 T02440224
KU16 242358Z AUTO 09008KT 10SM CLR 28/M06 A3007 RMK AO2 SLP802 T02831061 10300 20244 56011 $
KU42 250055Z AUTO 36008KT 10SM CLR 25/M03 A3012 RMK AO1 T02501035
KU68 250035Z AUTO 34004G21KT 10SM OVC060 17/04 A3028 RMK AO2
KUAO 250053Z 36014KT 10SM CLR 32/08 A3004 RMK AO2 SLP171 T03220078
KUBE 250035Z AUTO 27007KT 10SM CLR 20/12 A2995 RMK AO2
KUCP 250056Z AUTO 00000KT 10SM FEW120 25/18 A3011 RMK AO2 SLP204 T02500178 $
KUCY 250055Z AUTO 18004KT 8SM CLR 27/24 A3007 RMK
KUES 250045Z 23004KT 10SM SCT050 24/21 A2995
KUGN 250055Z AUTO VRB03KT 10SM CLR 26/22 A2993 RMK AO2 SLP124 T02560222
KUIL 250053Z AUTO 33011KT 10SM CLR 29/09 A3013 RMK AO2 SLP204 T02940089
KUIN 250054Z AUTO 22003KT 10SM CLR 27/24 A2998 RMK AO2 SLP144 T02670239
KUKF 250040Z AUTO 00000KT 10SM CLR 23/21 A3028 RMK AO2
KUKI 242356Z AUTO 29009KT 10SM CLR 33/M04 A2994 RMK AO2 SLP130 T03331044 10350 20222 56017
KUKT 250055Z AUTO 00000KT 10SM CLR 22/16 A3020 RMK AO1
KULM 250053Z AUTO 27004KT 10SM 20/18 A3000 RMK AO2
KUNI 250035Z AUTO 17003KT 10SM CLR 25/22 A3010 RMK AO2 T02490216
KUNO 250053Z AUTO 19005KT 10SM CLR 28/22 A3009 RMK AO2 SLP174 T02780222
KUNU 250035Z AUTO 28003KT 10SM BKN048 OVC060 25/22 A2994 RMK AO2 T02490221
KUNV 250053Z 00000KT 10SM SCT065 SCT080 24/18 A3016
KUOX 250055Z AUTO 00000KT 10SM CLR 28/23 A3013 RMK AO2
KUSE 250035Z AUTO 22006KT 9SM FEW013 BKN060 OVC095 24/23 A2998 RMK AO2
KUTA 250055Z AUTO 00000KT 10SM CLR 28/25 A3009 RMK AO2 TSNO
KUTS 250053Z AUTO 00000KT 10SM SCT065 BKN080 OVC090 29/23 A3006 RMK AO2 SLP174 T02890228
KUUU 250053Z AUTO 20005KT 10SM CLR 22/19 A3020 RMK AO2 SLP223 T02220189
KUVA 250055Z AUTO 09008KT 10SM CLR 30/21 A3000 RMK AO2 T02960211
KUXL 250035Z AUTO 17005KT 10SM CLR 31/24 A3007 RMK AO2 T03050237 PWINO
KUYF 250055Z AUTO 19009G16KT 10SM SCT065 25/24 A3006 RMK AO2
KUZA 250054Z AUTO 00000KT 10SM FEW080 26/20 A3021 RMK AO2 SLP216 T02610200
KVAD 242358Z AUTO 10007KT 10SM SCT050 BKN060 BKN075 29/21 A3013 RMK AO2 SLP203 T02940207 10328 20294 55001 $
KVAF 250035Z AUTO 12007KT 9SM FEW024 30/24 A3005 RMK A01
KVAY 250054Z AUTO VRB03KT 10SM CLR 23/17 A3019 RMK AO2 SLP221 T02280167
KVBG 242357Z AUTO 32012KT 10SM SCT008 16/13 A3002 RMK AO2 TSNO
KVBS 242235Z AUTO 00000KT 10SM CLR 31/26 A3007 RMK A01
KVBT 250055Z AUTO 19007KT 10SM CLR 29/18 A3006 RMK AO1
KVBW 250055Z AUTO 15006KT 10SM CLR 23/20 A3019 RMK AO2 T02260198
KVCB 250053Z AUTO 18008KT 10SM CLR 32/11 A2989 RMK AO2 SLP121 T03170111
KVCT 250051Z 12008KT 10SM CLR 28/23 A3003 RMK AO2 SLP167 T02830233
KVCV 250055Z AUTO 28013G16KT 10SM SCT110 35/03 A2997 RMK AO2
KVDF 250055Z AUTO 00000KT 10SM CLR 27/25 A3009 RMK AO2
KVDI 250035Z AUTO 13004KT 10SM CLR 28/22 A3017 RMK AO2
KVEL 250053Z AUTO 01004KT 10SM CLR 26/M03 A3005 RMK AO2 SLP124 T02561028
KVER 250055Z AUTO 12004KT 10SM SCT060 SCT080 28/23 A2996 RMK AO2 T02780228
KVES 250035Z AUTO 19004KT 10SM SCT047 BKN070 BKN110 25/24 A3004 RMK AO2
KVGT 250053Z AUTO 11007KT 10SM CLR 37/06 A2984 RMK AO2 SLP094 T03720061 TSNO $
KVIH 250053Z AUTO 18005KT 10SM CLR 27/24 A3001 RMK AO2 SLP151 T02670239
KVIS 250056Z AUTO 28007KT 10SM CLR 33/09 A2988 RMK AO2 SLP122 T03330094
KVJI 250035Z AUTO 00000KT 10SM CLR 24/21 A3026 RMK AO2 T02380209
KVKY 250035Z AUTO 00000KT 10SM FEW024 SCT036 28/23 A3009 RMK A01
KVLD 250053Z 09005KT 10SM CLR 28/22 A3015 RMK AO2 SLP215 T02830222
KVLL 250055Z AUTO 21005KT 10SM -DZ SCT025 BKN030 BKN043 25/23 A2999 RMK AO2 T02460230
KVNC 250055Z AUTO 05007KT 10SM CLR 26/24 A3005 RMK AO2 P0001 TSNO
KVNY 250051Z 14009KT 10SM CLR 29/12 A2990 RMK AO2 SLP117 T02940122
KVOA 250035Z AUTO 10009KT 10SM FEW019 32/25 A3009 RMK A01
KVOK 242358Z 29006KT 10SM FEW035 FEW100 BKN200 24/20 A2993 RMK AO2A SLP134 52009
KVPC 250053Z AUTO 00000KT 10SM CLR 25/22 A3020 RMK AO2 SLP213 T02500217
KVPS 242358Z 36002KT 10SM FEW038 SCT140 BKN250 29/24 A3009 RMK AO2A SLP195 60000 T02920236 10334 20265 56004 $
KVPZ 242356Z AUTO 23005KT 10SM CLR 26/21 A2998 RMK AO2 SLP145 60009 T02610211 10278 20239 53009
KVQQ 250050Z 06006KT 10SM CLR 27/22 A3014
KVQT 250035Z AUTO 11006KT 10SM CLR 30/24 A3008 RMK A01
KVRB 250053Z 36003KT 10SM BKN055 OVC070 26/24 A3007 RMK AO2 LTG DSNT S SLP183 T02610244
KVSF 250054Z AUTO 00000KT 10SM CLR 20/16 A3015 RMK AO2 SLP209 T02000161 TSNO
KVTA 242354Z AUTO 17007KT 10SM 27/21 A3008 RMK AO2 SLP181 6//// T02670211 10289 20267 $
KVTI 250055Z AUTO 26004KT 7SM CLR 24/22 A2999 RMK AO2
KVTN 250052Z AUTO 22005KT 10SM CLR 20/11 A3014 RMK AO2 SLP202 T02000106
KVTP 250048Z AUTO 04009KT M1/4SM SN OVC001 07/06 A3047 RMK AO2 LTG DSNT N
KVUJ 250040Z AUTO 00000KT 10SM SCT075 23/21 A3025 RMK AO2 T02280208
KVUO 250053Z AUTO 33009G16KT 10SM CLR 32/08 A3004 RMK AO2 SLP172 T03220083
KVVG 250035Z AUTO 10SM 28/23 A3002 RMK A01
KVVV 250054Z AUTO 00000KT 10SM CLR 21/13 A3000 RMK AO2
KVWU 250053Z AUTO 25011G17KT 10SM BKN070 21/13 A2990 RMK AO2
KVYS 250035Z AUTO 24006KT 10SM CLR 26/23 A2998 RMK AO2 T02610226
KW13 250055Z AUTO 18003KT 10SM CLR 23/19 A3023 RMK AO1 T02300191
KW22 250035Z AUTO 00000KT 10SM 24/19 A3018 RMK AO2 PWINO
KW29 250040Z AUTO 18006KT 10SM CLR 25/18 A3019 RMK AO2
KW31 250055Z AUTO 00000KT 10SM CLR 22/20 A3021 RMK AO1 T02180195
KW43 250035Z AUTO 34010G16KT 10SM SCT070 OVC080 17/05 A3024 RMK AO2
KW63 250055Z AUTO 00000KT 10SM CLR 23/19 A3021 RMK AO1
KW75 250055Z AUTO 16003KT 10SM CLR 22/18 A3021 RMK AO1 T02240183
KW78 250035Z AUTO 00000KT 10SM CLR 24/19 A3021 RMK AO1 T02390193
KW81 250035Z AUTO 00000KT 10SM CLR 21/21 A3020 RMK AO1 T02130211
KW96 250055Z AUTO 10008KT 10SM CLR 23/17 A3020 RMK AO1 T02250170
KW99 250035Z AUTO 00000KT 10SM CLR 26/18 A3015 RMK AO2 T02580183
KWAL 250054Z AUTO 16005KT 10SM CLR 22/15 A3023 RMK AO2 SLP233 T02220150
KWDG 242356Z 02004KT 7SM -TSRA SCT060CB BKN120 25/23 A2996 RMK OCNL LTGICCCCG SW TSB54 TS SW MOV NE
KWDR 250035Z AUTO 00000KT 10SM CLR 25/22 A3023 RMK AO1
KWHP 242353Z 15008KT 10SM SKC 30/09 A2996
KWJF 242356Z 26022G30KT 10SM FEW110 35/02 A2996 RMK AO2 PK WND 26032/2329 SLP121 T03500017 10378 20333 56014 $
KWLD 250054Z AUTO 17012KT 10SM FEW070 24/20 A3000 RMK AO2 LTG DSNT ALQDS RAE28 TSE17 SLP146 P0001 T02440200
KWMC 242356Z AUTO 28013G16KT 10SM CLR 30/M09 A3008 RMK AO2 SLP150 T03001094 10306 20250 56017
KWRB 242358Z AUTO 09004KT 10SM BKN095 29/21 A3015 RMK AO2 SLP209 T02860212 10336 20286 55004
KWRI 242358Z COR 23003KT 10SM CLR 23/18 A3016 RMK AO2 SLP212 T02330177 10295 20233 55000 COR 0000
KWRL 250053Z AUTO 34018G28KT 10SM CLR 19/04 A3021 RMK AO2 PK WND 34031/0036 SLP209 T01890044
KWST 250053Z AUTO 21007KT 10SM CLR 23/18 A3020 RMK AO2 SLP227 T02330178
KWVI 250053Z AUTO 19008KT 10SM FEW009 16/13 A3001 RMK AO2 SLP163 T01610133
KWVL 250056Z AUTO 21004KT 10SM CLR 21/16 A3010 RMK AO2 SLP226 T02060161
KWWD 250056Z AUTO 18006KT 6SM HZ 22/18 A3023 RMK AO2 SLP237 T02220178 $
KWYS 250050Z AUTO 03013G18KT 10SM CLR 14/M02 A3030 RMK AO2
KX60 242055Z AUTO 07008KT 360V010 10SM CLR 35/21 A3009 RMK AO1 TSNO
KXBP 250035Z AUTO 16005KT 10SM CLR 31/21 A3001 RMK AO2 T03100208
KXIH 250035Z AUTO 15008KT 10SM CLR 30/24 A3006 RMK A01
KXLL 250055Z AUTO 20006KT 10SM CLR 24/16 A3019 RMK AO2
KXMR 242358Z AUTO 03005KT 10SM CLR 28/25 A3006 RMK AO2 SLP182 T02840247 10310 20284 55002
KXNA 250053Z 17008KT 10SM CLR 29/21 A3005 RMK AO2 SLP158 T02940206
KXPY 250035Z AUTO 08004KT 10SM CLR 31/23 A3007 RMK A01
KXSA 250055Z AUTO 14004KT 10SM CLR 23/16 A3021 RMK AO2 T02280160
KXVG 250056Z AUTO 27004KT 10SM CLR 19/13 A2994 RMK AO2
KY19 250035Z AUTO 30016G23KT 10SM CLR 19/08 A3004 RMK AO2
KY23 250035Z AUTO 29005KT 10SM CLR 21/15 A2994 RMK AO2 T02140154
KY49 250035Z AUTO 27006KT 10SM BKN060 19/12 A2993 RMK AO2 T01920120
KY50 250056Z AUTO 00000KT 10SM CLR 23/22 A2993 RMK AO2 SLP150 P0002 T02280217 TSNO
KY51 250055Z AUTO 29003KT 10SM CLR 22/21 A2997 RMK AO1 T02220210
KY63 250038Z AUTO 25006KT 10SM CLR 20/14 A2998 RMK AO2 T01950142
KY70 250038Z AUTO 23006KT 10SM SCT023 24/20 A2994 RMK AO2
KYIP 250053Z 20009KT 10SM SCT021 BKN050 OVC110 27/24 A2998 RMK AO2 SLP144 T02720239
KYKM 250053Z 08011KT 10SM FEW100 32/02 A3012 RMK AO2 SLP194 T03170022
KYKN 250055Z AUTO 11003KT 10SM CLR 21/15 A3005 RMK AO1
KYNG 250051Z 19006KT 10SM FEW050 BKN110 OVC200 26/18 A3009 RMK AO2 SLP182 T02560178
KZPH 250055Z AUTO 04004KT 10SM CLR A3011 RMK AO2 LTG DSNT SE
KZZV 250053Z AUTO 18006KT 10SM BKN049 26/21 A3010 RMK AO2 SLP186 T02560206